Roubidoux Creek (Missouri), Polla Road (06928420)

StateMissouriLatestUnknown (305 cfs)
RiverRoubidoux CreekRatingObservedEstimated
Updated2021-04-10 21:30 (1 hour ago)Flood - The river is flooding. Obstacles can be treacherous or deadly. The river should be avoided at this stage for casual trips and definitely for the inexperienced. Trips should be attempted only with protective gear and equipment.Flood(none)(none)
Discharge305 cfs (median: 24 cfs)High - The river is high and potentially dangerous, especially for the young and / or inexperienced. Normal stream obstacles are sometimes difficult to navigate. Extended distances can be attempted, but canoe travel may not be advisable.High(none)(none)
Height2.5 feetGood - Conditions are ideal for a canoe or kayak. Boats typically will drag on fewer than one-quarter of riffles, if at all, and portages are unnecessary or rare. Normal float lengths can be attempted without a problem.Good(none)(none)
TrendRising (rising over 24 hours)Low - River is low but can still be floated. Some riffles are okay but most come with significant dragging and might need a portage. Float lengths should be reduced to accommodate low flow, dragging, and portages.Low(none)(none)
USGSExternal icon USGS Site (External icon Google Maps)Poor - River is too low to float comfortably. Most or all riffles will drag or must be portaged and some obstacles (such as slick shelf rock) cause undue problems. Avoid the river at this stage for casual paddling trips.Poor(none)(none)

Trending Data

Plot Image

Trips for Roubidoux Creek (Missouri), Polla Road (06928420)

DateStartEndDistanceConditionDischargeHeightFishingDetails

A total of 0 rows are displayed.

Condition Descriptions

Fishing Conditions

Fish Species

Notes

Classic Trip List

The classic River Trips application is still available for use. It is updated with the new system using a data retrofit. It is no longer maintained. The original River Trips application is no longer updated (as of 1 Dec 2016) but can be checked for errors or for the condition of the data before it was converted to the new system.

Gauge Data Table

ObservationHeightDischargeMaximum
Discharge
Minimum
Discharge
Mean
Discharge
P05P10P20P25P50
(Median)
P75P80P90P95
2021-04-10 21:30 2.50 305 359 (2014) 0 (2016) 58 1 5 8 24 75 85 278
2021-04-10 20:30 2.47 293 359 (2014) 0 (2016) 58 1 5 8 24 75 85 278
2021-04-10 19:30 2.41 270 359 (2014) 0 (2016) 58 1 5 8 24 75 85 278
2021-04-10 18:30 2.29 229 359 (2014) 0 (2016) 58 1 5 8 24 75 85 278
2021-04-10 17:30 1.89 122 359 (2014) 0 (2016) 58 1 5 8 24 75 85 278
2021-04-10 16:30 1.21 29 359 (2014) 0 (2016) 58 1 5 8 24 75 85 278
2021-04-10 15:30 1.15 24 359 (2014) 0 (2016) 58 1 5 8 24 75 85 278
2021-04-10 14:30 1.03 17 359 (2014) 0 (2016) 58 1 5 8 24 75 85 278
2021-04-10 13:30 0.91 12 359 (2014) 0 (2016) 58 1 5 8 24 75 85 278
2021-04-10 12:30 0.91 12 359 (2014) 0 (2016) 58 1 5 8 24 75 85 278
2021-04-10 11:30 0.93 12 359 (2014) 0 (2016) 58 1 5 8 24 75 85 278
2021-04-10 10:30 0.93 12 359 (2014) 0 (2016) 58 1 5 8 24 75 85 278
2021-04-10 09:30 0.95 13 359 (2014) 0 (2016) 58 1 5 8 24 75 85 278
2021-04-10 08:30 0.90 11 359 (2014) 0 (2016) 58 1 5 8 24 75 85 278
2021-04-10 07:30 0.72 5 359 (2014) 0 (2016) 58 1 5 8 24 75 85 278
2021-04-10 06:30 0.78 7 359 (2014) 0 (2016) 58 1 5 8 24 75 85 278
2021-04-10 05:30 0.78 7 359 (2014) 0 (2016) 58 1 5 8 24 75 85 278
2021-04-10 04:30 0.76 6 359 (2014) 0 (2016) 58 1 5 8 24 75 85 278
2021-04-10 03:30 0.71 5 359 (2014) 0 (2016) 58 1 5 8 24 75 85 278
2021-04-10 02:30 0.67 4 359 (2014) 0 (2016) 58 1 5 8 24 75 85 278
2021-04-10 01:30 0.64 4 359 (2014) 0 (2016) 58 1 5 8 24 75 85 278
2021-04-10 00:30 0.56 2 359 (2014) 0 (2016) 58 1 5 8 24 75 85 278
2021-04-09 23:30 0.60 3 267 (2014) 0 (2016) 61 1 6 10 28 107 116 222
2021-04-09 22:30 0.60 3 267 (2014) 0 (2016) 61 1 6 10 28 107 116 222
2021-04-09 21:30 0.60 3 267 (2014) 0 (2016) 61 1 6 10 28 107 116 222
2021-04-09 20:30 0.60 3 267 (2014) 0 (2016) 61 1 6 10 28 107 116 222
2021-04-09 19:30 0.60 3 267 (2014) 0 (2016) 61 1 6 10 28 107 116 222
2021-04-09 18:30 0.58 3 267 (2014) 0 (2016) 61 1 6 10 28 107 116 222
2021-04-09 17:30 0.59 3 267 (2014) 0 (2016) 61 1 6 10 28 107 116 222
2021-04-09 16:30 0.59 3 267 (2014) 0 (2016) 61 1 6 10 28 107 116 222
2021-04-09 15:30 0.59 3 267 (2014) 0 (2016) 61 1 6 10 28 107 116 222
2021-04-09 14:30 0.52 2 267 (2014) 0 (2016) 61 1 6 10 28 107 116 222
2021-04-09 13:30 0.53 2 267 (2014) 0 (2016) 61 1 6 10 28 107 116 222
2021-04-09 12:30 0.49 2 267 (2014) 0 (2016) 61 1 6 10 28 107 116 222
2021-04-09 11:30 0.55 2 267 (2014) 0 (2016) 61 1 6 10 28 107 116 222
2021-04-09 10:30 0.59 3 267 (2014) 0 (2016) 61 1 6 10 28 107 116 222
2021-04-09 09:30 0.59 3 267 (2014) 0 (2016) 61 1 6 10 28 107 116 222
2021-04-09 08:30 0.59 3 267 (2014) 0 (2016) 61 1 6 10 28 107 116 222
2021-04-09 07:30 0.60 3 267 (2014) 0 (2016) 61 1 6 10 28 107 116 222
2021-04-09 06:30 0.59 3 267 (2014) 0 (2016) 61 1 6 10 28 107 116 222
2021-04-09 05:30 0.59 3 267 (2014) 0 (2016) 61 1 6 10 28 107 116 222
2021-04-09 04:30 0.60 3 267 (2014) 0 (2016) 61 1 6 10 28 107 116 222
2021-04-09 03:30 0.60 3 267 (2014) 0 (2016) 61 1 6 10 28 107 116 222
2021-04-09 02:30 0.60 3 267 (2014) 0 (2016) 61 1 6 10 28 107 116 222
2021-04-09 01:30 0.60 3 267 (2014) 0 (2016) 61 1 6 10 28 107 116 222
2021-04-09 00:30 0.60 3 267 (2014) 0 (2016) 61 1 6 10 28 107 116 222
2021-04-08 23:30 0.61 3 167 (2010) 0 (2016) 60 1 3 6 35 133 156 165
2021-04-08 22:30 0.61 3 167 (2010) 0 (2016) 60 1 3 6 35 133 156 165
2021-04-08 21:30 0.61 3 167 (2010) 0 (2016) 60 1 3 6 35 133 156 165
2021-04-08 20:30 0.61 3 167 (2010) 0 (2016) 60 1 3 6 35 133 156 165
2021-04-08 19:30 0.61 3 167 (2010) 0 (2016) 60 1 3 6 35 133 156 165
2021-04-08 18:30 0.61 3 167 (2010) 0 (2016) 60 1 3 6 35 133 156 165
2021-04-08 17:30 0.61 3 167 (2010) 0 (2016) 60 1 3 6 35 133 156 165
2021-04-08 16:30 0.62 3 167 (2010) 0 (2016) 60 1 3 6 35 133 156 165
2021-04-08 15:30 0.62 3 167 (2010) 0 (2016) 60 1 3 6 35 133 156 165
2021-04-08 14:30 0.62 3 167 (2010) 0 (2016) 60 1 3 6 35 133 156 165
2021-04-08 13:30 0.54 2 167 (2010) 0 (2016) 60 1 3 6 35 133 156 165
2021-04-08 12:30 0.59 3 167 (2010) 0 (2016) 60 1 3 6 35 133 156 165
2021-04-08 11:30 0.62 3 167 (2010) 0 (2016) 60 1 3 6 35 133 156 165
2021-04-08 10:30 0.61 3 167 (2010) 0 (2016) 60 1 3 6 35 133 156 165
2021-04-08 09:30 0.63 4 167 (2010) 0 (2016) 60 1 3 6 35 133 156 165
2021-04-08 08:30 0.63 4 167 (2010) 0 (2016) 60 1 3 6 35 133 156 165
2021-04-08 07:30 0.62 3 167 (2010) 0 (2016) 60 1 3 6 35 133 156 165
2021-04-08 06:30 0.63 4 167 (2010) 0 (2016) 60 1 3 6 35 133 156 165
2021-04-08 05:30 0.64 4 167 (2010) 0 (2016) 60 1 3 6 35 133 156 165
2021-04-08 04:30 0.64 4 167 (2010) 0 (2016) 60 1 3 6 35 133 156 165
2021-04-08 03:30 0.65 4 167 (2010) 0 (2016) 60 1 3 6 35 133 156 165
2021-04-08 02:30 0.63 4 167 (2010) 0 (2016) 60 1 3 6 35 133 156 165
2021-04-08 01:30 0.66 4 167 (2010) 0 (2016) 60 1 3 6 35 133 156 165
2021-04-08 00:30 0.67 4 167 (2010) 0 (2016) 60 1 3 6 35 133 156 165
2021-04-07 23:30 0.67 4 339 (2017) 0 (2016) 103 3 9 12 55 207 237 313
2021-04-07 22:30 0.67 4 339 (2017) 0 (2016) 103 3 9 12 55 207 237 313
2021-04-07 21:30 0.67 4 339 (2017) 0 (2016) 103 3 9 12 55 207 237 313
2021-04-07 19:30 0.69 5 339 (2017) 0 (2016) 103 3 9 12 55 207 237 313
2021-04-07 18:30 0.65 4 339 (2017) 0 (2016) 103 3 9 12 55 207 237 313
2021-04-07 17:30 0.69 5 339 (2017) 0 (2016) 103 3 9 12 55 207 237 313
2021-04-07 16:30 0.64 4 339 (2017) 0 (2016) 103 3 9 12 55 207 237 313
2021-04-07 15:30 0.64 4 339 (2017) 0 (2016) 103 3 9 12 55 207 237 313
2021-04-07 14:30 0.66 4 339 (2017) 0 (2016) 103 3 9 12 55 207 237 313
2021-04-07 13:30 0.67 4 339 (2017) 0 (2016) 103 3 9 12 55 207 237 313
2021-04-07 12:30 0.63 4 339 (2017) 0 (2016) 103 3 9 12 55 207 237 313
2021-04-07 11:30 0.68 5 339 (2017) 0 (2016) 103 3 9 12 55 207 237 313
2021-04-07 10:30 0.70 5 339 (2017) 0 (2016) 103 3 9 12 55 207 237 313
2021-04-07 09:30 0.70 5 339 (2017) 0 (2016) 103 3 9 12 55 207 237 313
2021-04-07 08:30 0.68 5 339 (2017) 0 (2016) 103 3 9 12 55 207 237 313
2021-04-07 07:30 0.62 3 339 (2017) 0 (2016) 103 3 9 12 55 207 237 313
2021-04-07 06:30 0.70 5 339 (2017) 0 (2016) 103 3 9 12 55 207 237 313
2021-04-07 05:30 0.71 5 339 (2017) 0 (2016) 103 3 9 12 55 207 237 313
2021-04-07 04:30 0.67 4 339 (2017) 0 (2016) 103 3 9 12 55 207 237 313
2021-04-07 03:30 0.73 6 339 (2017) 0 (2016) 103 3 9 12 55 207 237 313
2021-04-07 02:30 0.73 6 339 (2017) 0 (2016) 103 3 9 12 55 207 237 313
2021-04-07 01:30 0.74 6 339 (2017) 0 (2016) 103 3 9 12 55 207 237 313
2021-04-07 00:30 0.75 6 339 (2017) 0 (2016) 103 3 9 12 55 207 237 313
2021-04-06 23:30 0.76 6 1170 (2017) 0 (2016) 216 8 29 31 70 330 362 938
2021-04-06 22:30 0.76 6 1170 (2017) 0 (2016) 216 8 29 31 70 330 362 938
2021-04-06 21:30 0.77 7 1170 (2017) 0 (2016) 216 8 29 31 70 330 362 938
2021-04-06 20:30 0.74 6 1170 (2017) 0 (2016) 216 8 29 31 70 330 362 938
2021-04-06 19:30 0.74 6 1170 (2017) 0 (2016) 216 8 29 31 70 330 362 938
2021-04-06 18:30 0.75 6 1170 (2017) 0 (2016) 216 8 29 31 70 330 362 938
2021-04-06 17:30 0.76 6 1170 (2017) 0 (2016) 216 8 29 31 70 330 362 938
2021-04-06 16:30 0.74 6 1170 (2017) 0 (2016) 216 8 29 31 70 330 362 938
2021-04-06 15:30 0.75 6 1170 (2017) 0 (2016) 216 8 29 31 70 330 362 938
2021-04-06 14:30 0.81 8 1170 (2017) 0 (2016) 216 8 29 31 70 330 362 938
2021-04-06 13:30 0.79 7 1170 (2017) 0 (2016) 216 8 29 31 70 330 362 938
2021-04-06 12:30 0.84 9 1170 (2017) 0 (2016) 216 8 29 31 70 330 362 938
2021-04-06 11:30 0.84 9 1170 (2017) 0 (2016) 216 8 29 31 70 330 362 938
2021-04-06 10:30 0.85 9 1170 (2017) 0 (2016) 216 8 29 31 70 330 362 938
2021-04-06 09:30 0.81 8 1170 (2017) 0 (2016) 216 8 29 31 70 330 362 938
2021-04-06 08:30 0.87 10 1170 (2017) 0 (2016) 216 8 29 31 70 330 362 938
2021-04-06 07:30 0.88 10 1170 (2017) 0 (2016) 216 8 29 31 70 330 362 938
2021-04-06 06:30 0.88 10 1170 (2017) 0 (2016) 216 8 29 31 70 330 362 938
2021-04-06 05:30 0.89 11 1170 (2017) 0 (2016) 216 8 29 31 70 330 362 938
2021-04-06 04:30 0.90 11 1170 (2017) 0 (2016) 216 8 29 31 70 330 362 938
2021-04-06 03:30 0.91 12 1170 (2017) 0 (2016) 216 8 29 31 70 330 362 938
2021-04-06 02:30 0.91 12 1170 (2017) 0 (2016) 216 8 29 31 70 330 362 938
2021-04-06 01:30 0.92 12 1170 (2017) 0 (2016) 216 8 29 31 70 330 362 938
2021-04-06 00:30 0.93 12 1170 (2017) 0 (2016) 216 8 29 31 70 330 362 938
2021-04-05 23:30 0.94 13 1470 (2017) 0 (2016) 307 11 44 50 104 557 626 1220
2021-04-05 22:30 0.95 13 1470 (2017) 0 (2016) 307 11 44 50 104 557 626 1220
2021-04-05 21:30 0.95 13 1470 (2017) 0 (2016) 307 11 44 50 104 557 626 1220
2021-04-05 20:30 0.96 14 1470 (2017) 0 (2016) 307 11 44 50 104 557 626 1220
2021-04-05 19:30 0.96 14 1470 (2017) 0 (2016) 307 11 44 50 104 557 626 1220
2021-04-05 18:30 0.97 14 1470 (2017) 0 (2016) 307 11 44 50 104 557 626 1220
2021-04-05 17:30 0.98 15 1470 (2017) 0 (2016) 307 11 44 50 104 557 626 1220
2021-04-05 16:30 0.97 14 1470 (2017) 0 (2016) 307 11 44 50 104 557 626 1220
2021-04-05 15:30 1.00 16 1470 (2017) 0 (2016) 307 11 44 50 104 557 626 1220
2021-04-05 14:30 1.00 16 1470 (2017) 0 (2016) 307 11 44 50 104 557 626 1220
2021-04-05 13:30 0.99 15 1470 (2017) 0 (2016) 307 11 44 50 104 557 626 1220
2021-04-05 12:30 1.02 17 1470 (2017) 0 (2016) 307 11 44 50 104 557 626 1220
2021-04-05 11:30 1.01 16 1470 (2017) 0 (2016) 307 11 44 50 104 557 626 1220
2021-04-05 10:30 0.99 15 1470 (2017) 0 (2016) 307 11 44 50 104 557 626 1220
2021-04-05 09:30 1.04 18 1470 (2017) 0 (2016) 307 11 44 50 104 557 626 1220
2021-04-05 08:30 1.06 19 1470 (2017) 0 (2016) 307 11 44 50 104 557 626 1220
2021-04-05 07:30 1.06 19 1470 (2017) 0 (2016) 307 11 44 50 104 557 626 1220
2021-04-05 06:30 1.08 20 1470 (2017) 0 (2016) 307 11 44 50 104 557 626 1220
2021-04-05 05:30 1.08 20 1470 (2017) 0 (2016) 307 11 44 50 104 557 626 1220
2021-04-05 04:30 1.08 20 1470 (2017) 0 (2016) 307 11 44 50 104 557 626 1220
2021-04-05 03:30 1.10 21 1470 (2017) 0 (2016) 307 11 44 50 104 557 626 1220
2021-04-05 02:30 1.09 21 1470 (2017) 0 (2016) 307 11 44 50 104 557 626 1220
2021-04-05 01:30 1.11 22 1470 (2017) 0 (2016) 307 11 44 50 104 557 626 1220
2021-04-05 00:30 1.09 21 1470 (2017) 0 (2016) 307 11 44 50 104 557 626 1220
2021-04-04 23:30 1.12 22 1510 (2015) 0 (2016) 309 1 28 45 96 220 633 1430
2021-04-04 22:30 1.12 22 1510 (2015) 0 (2016) 309 1 28 45 96 220 633 1430
2021-04-04 21:30 1.14 24 1510 (2015) 0 (2016) 309 1 28 45 96 220 633 1430
2021-04-04 20:30 1.14 24 1510 (2015) 0 (2016) 309 1 28 45 96 220 633 1430
2021-04-04 19:30 1.16 25 1510 (2015) 0 (2016) 309 1 28 45 96 220 633 1430
2021-04-04 18:30 1.16 25 1510 (2015) 0 (2016) 309 1 28 45 96 220 633 1430
2021-04-04 17:30 1.18 26 1510 (2015) 0 (2016) 309 1 28 45 96 220 633 1430
2021-04-04 16:30 1.18 26 1510 (2015) 0 (2016) 309 1 28 45 96 220 633 1430
2021-04-04 15:30 1.17 26 1510 (2015) 0 (2016) 309 1 28 45 96 220 633 1430
2021-04-04 14:30 1.14 24 1510 (2015) 0 (2016) 309 1 28 45 96 220 633 1430
2021-04-04 13:30 1.14 24 1510 (2015) 0 (2016) 309 1 28 45 96 220 633 1430
2021-04-04 12:30 1.19 27 1510 (2015) 0 (2016) 309 1 28 45 96 220 633 1430
2021-04-04 11:30 1.22 29 1510 (2015) 0 (2016) 309 1 28 45 96 220 633 1430
2021-04-04 10:30 1.21 29 1510 (2015) 0 (2016) 309 1 28 45 96 220 633 1430
2021-04-04 09:30 1.23 30 1510 (2015) 0 (2016) 309 1 28 45 96 220 633 1430
2021-04-04 08:30 1.24 31 1510 (2015) 0 (2016) 309 1 28 45 96 220 633 1430
2021-04-04 07:30 1.24 31 1510 (2015) 0 (2016) 309 1 28 45 96 220 633 1430
2021-04-04 06:30 1.26 33 1510 (2015) 0 (2016) 309 1 28 45 96 220 633 1430
2021-04-04 05:30 1.26 33 1510 (2015) 0 (2016) 309 1 28 45 96 220 633 1430
2021-04-04 04:30 1.28 34 1510 (2015) 0 (2016) 309 1 28 45 96 220 633 1430
2021-04-04 03:30 1.28 34 1510 (2015) 0 (2016) 309 1 28 45 96 220 633 1430
2021-04-04 02:30 1.29 35 1510 (2015) 0 (2016) 309 1 28 45 96 220 633 1430
2021-04-04 01:30 1.30 36 1510 (2015) 0 (2016) 309 1 28 45 96 220 633 1430
2021-04-04 00:30 1.30 36 1510 (2015) 0 (2016) 309 1 28 45 96 220 633 1430
2021-04-03 23:30 1.31 37 2110 (2010) 0 (2016) 291 2 17 34 128 252 291 1580
2021-04-03 22:30 1.32 38 2110 (2010) 0 (2016) 291 2 17 34 128 252 291 1580
2021-04-03 21:30 1.34 40 2110 (2010) 0 (2016) 291 2 17 34 128 252 291 1580
2021-04-03 20:30 1.34 40 2110 (2010) 0 (2016) 291 2 17 34 128 252 291 1580
2021-04-03 19:30 1.33 39 2110 (2010) 0 (2016) 291 2 17 34 128 252 291 1580
2021-04-03 18:30 1.34 40 2110 (2010) 0 (2016) 291 2 17 34 128 252 291 1580
2021-04-03 17:30 1.36 42 2110 (2010) 0 (2016) 291 2 17 34 128 252 291 1580
2021-04-03 16:30 1.37 43 2110 (2010) 0 (2016) 291 2 17 34 128 252 291 1580
2021-04-03 15:30 1.36 42 2110 (2010) 0 (2016) 291 2 17 34 128 252 291 1580
2021-04-03 14:30 1.37 43 2110 (2010) 0 (2016) 291 2 17 34 128 252 291 1580
2021-04-03 13:30 1.37 43 2110 (2010) 0 (2016) 291 2 17 34 128 252 291 1580
2021-04-03 12:30 1.40 46 2110 (2010) 0 (2016) 291 2 17 34 128 252 291 1580
2021-04-03 11:30 1.39 45 2110 (2010) 0 (2016) 291 2 17 34 128 252 291 1580
2021-04-03 10:30 1.40 46 2110 (2010) 0 (2016) 291 2 17 34 128 252 291 1580
2021-04-03 09:30 1.43 49 2110 (2010) 0 (2016) 291 2 17 34 128 252 291 1580
2021-04-03 08:30 1.43 49 2110 (2010) 0 (2016) 291 2 17 34 128 252 291 1580
2021-04-03 07:30 1.42 48 2110 (2010) 0 (2016) 291 2 17 34 128 252 291 1580
2021-04-03 06:30 1.46 53 2110 (2010) 0 (2016) 291 2 17 34 128 252 291 1580
2021-04-03 05:30 1.46 53 2110 (2010) 0 (2016) 291 2 17 34 128 252 291 1580
2021-04-03 04:30 1.47 54 2110 (2010) 0 (2016) 291 2 17 34 128 252 291 1580
2021-04-03 03:30 1.48 55 2110 (2010) 0 (2016) 291 2 17 34 128 252 291 1580
2021-04-03 02:30 1.50 58 2110 (2010) 0 (2016) 291 2 17 34 128 252 291 1580
2021-04-03 01:30 1.49 56 2110 (2010) 0 (2016) 291 2 17 34 128 252 291 1580
2021-04-03 00:30 1.50 58 2110 (2010) 0 (2016) 291 2 17 34 128 252 291 1580
2021-04-02 23:30 1.52 60 418 (2018) 0 (2014) 152 0 4 10 137 239 320 418
2021-04-02 22:30 1.53 61 418 (2018) 0 (2014) 152 0 4 10 137 239 320 418
2021-04-02 21:30 1.53 61 418 (2018) 0 (2014) 152 0 4 10 137 239 320 418
2021-04-02 20:30 1.53 61 418 (2018) 0 (2014) 152 0 4 10 137 239 320 418
2021-04-02 19:30 1.54 63 418 (2018) 0 (2014) 152 0 4 10 137 239 320 418
2021-04-02 18:30 1.57 67 418 (2018) 0 (2014) 152 0 4 10 137 239 320 418
2021-04-02 17:30 1.56 65 418 (2018) 0 (2014) 152 0 4 10 137 239 320 418
2021-04-02 16:30 1.58 68 418 (2018) 0 (2014) 152 0 4 10 137 239 320 418
2021-04-02 15:30 1.59 70 418 (2018) 0 (2014) 152 0 4 10 137 239 320 418
2021-04-02 14:30 1.59 70 418 (2018) 0 (2014) 152 0 4 10 137 239 320 418
2021-04-02 13:30 1.62 74 418 (2018) 0 (2014) 152 0 4 10 137 239 320 418
2021-04-02 12:30 1.61 72 418 (2018) 0 (2014) 152 0 4 10 137 239 320 418
2021-04-02 11:30 1.62 74 418 (2018) 0 (2014) 152 0 4 10 137 239 320 418
2021-04-02 10:30 1.62 74 418 (2018) 0 (2014) 152 0 4 10 137 239 320 418
2021-04-02 09:30 1.63 75 418 (2018) 0 (2014) 152 0 4 10 137 239 320 418
2021-04-02 08:30 1.64 77 418 (2018) 0 (2014) 152 0 4 10 137 239 320 418
2021-04-02 07:30 1.66 80 418 (2018) 0 (2014) 152 0 4 10 137 239 320 418
2021-04-02 06:30 1.67 82 418 (2018) 0 (2014) 152 0 4 10 137 239 320 418
2021-04-02 05:30 1.68 83 418 (2018) 0 (2014) 152 0 4 10 137 239 320 418
2021-04-02 04:30 1.69 85 418 (2018) 0 (2014) 152 0 4 10 137 239 320 418
2021-04-02 03:30 1.70 86 418 (2018) 0 (2014) 152 0 4 10 137 239 320 418
2021-04-02 02:30 1.71 88 418 (2018) 0 (2014) 152 0 4 10 137 239 320 418
2021-04-02 01:30 1.72 90 418 (2018) 0 (2014) 152 0 4 10 137 239 320 418
2021-04-02 00:30 1.74 93 418 (2018) 0 (2014) 152 0 4 10 137 239 320 418
2021-04-01 23:30 1.74 93 758 (2019) 0 (2014) 237 0 8 19 207 315 447 723
2021-04-01 22:30 1.76 97 758 (2019) 0 (2014) 237 0 8 19 207 315 447 723
2021-04-01 21:30 1.77 99 758 (2019) 0 (2014) 237 0 8 19 207 315 447 723
2021-04-01 20:30 1.78 100 758 (2019) 0 (2014) 237 0 8 19 207 315 447 723
2021-04-01 19:30 1.80 104 758 (2019) 0 (2014) 237 0 8 19 207 315 447 723
2021-04-01 18:30 1.81 106 758 (2019) 0 (2014) 237 0 8 19 207 315 447 723
2021-04-01 17:30 1.83 110 758 (2019) 0 (2014) 237 0 8 19 207 315 447 723
2021-04-01 16:30 1.84 112 758 (2019) 0 (2014) 237 0 8 19 207 315 447 723
2021-04-01 15:30 1.82 108 758 (2019) 0 (2014) 237 0 8 19 207 315 447 723
2021-04-01 14:30 1.85 114 758 (2019) 0 (2014) 237 0 8 19 207 315 447 723
2021-04-01 13:30 1.86 116 758 (2019) 0 (2014) 237 0 8 19 207 315 447 723
2021-04-01 12:30 1.83 110 758 (2019) 0 (2014) 237 0 8 19 207 315 447 723
2021-04-01 11:30 1.84 112 758 (2019) 0 (2014) 237 0 8 19 207 315 447 723
2021-04-01 10:30 1.90 124 758 (2019) 0 (2014) 237 0 8 19 207 315 447 723
2021-04-01 09:30 1.92 129 758 (2019) 0 (2014) 237 0 8 19 207 315 447 723
2021-04-01 08:30 1.93 131 758 (2019) 0 (2014) 237 0 8 19 207 315 447 723
2021-04-01 07:30 1.94 133 758 (2019) 0 (2014) 237 0 8 19 207 315 447 723
2021-04-01 06:30 1.95 135 758 (2019) 0 (2014) 237 0 8 19 207 315 447 723
2021-04-01 05:30 1.95 135 758 (2019) 0 (2014) 237 0 8 19 207 315 447 723
2021-04-01 04:30 1.96 137 758 (2019) 0 (2014) 237 0 8 19 207 315 447 723
2021-04-01 03:30 1.98 142 758 (2019) 0 (2014) 237 0 8 19 207 315 447 723
2021-04-01 02:30 1.99 144 758 (2019) 0 (2014) 237 0 8 19 207 315 447 723
2021-04-01 01:30 1.99 144 758 (2019) 0 (2014) 237 0 8 19 207 315 447 723
2021-04-01 00:30 2.00 147 758 (2019) 0 (2014) 237 0 8 19 207 315 447 723
2021-03-31 23:30 2.02 152 1620 (2019) 0 (2014) 445 0 14 40 258 800 1070 1510
2021-03-31 22:30 2.03 154 1620 (2019) 0 (2014) 445 0 14 40 258 800 1070 1510
2021-03-31 21:30 2.04 157 1620 (2019) 0 (2014) 445 0 14 40 258 800 1070 1510
2021-03-31 20:30 2.02 152 1620 (2019) 0 (2014) 445 0 14 40 258 800 1070 1510
2021-03-31 19:30 2.01 149 1620 (2019) 0 (2014) 445 0 14 40 258 800 1070 1510
2021-03-31 18:30 2.02 152 1620 (2019) 0 (2014) 445 0 14 40 258 800 1070 1510
2021-03-31 17:30 2.02 152 1620 (2019) 0 (2014) 445 0 14 40 258 800 1070 1510
2021-03-31 16:30 2.04 157 1620 (2019) 0 (2014) 445 0 14 40 258 800 1070 1510
2021-03-31 15:30 2.06 162 1620 (2019) 0 (2014) 445 0 14 40 258 800 1070 1510
2021-03-31 14:30 2.05 159 1620 (2019) 0 (2014) 445 0 14 40 258 800 1070 1510
2021-03-31 13:30 2.08 167 1620 (2019) 0 (2014) 445 0 14 40 258 800 1070 1510
2021-03-31 12:30 2.06 162 1620 (2019) 0 (2014) 445 0 14 40 258 800 1070 1510
2021-03-31 11:30 2.12 178 1620 (2019) 0 (2014) 445 0 14 40 258 800 1070 1510
2021-03-31 10:30 2.16 189 1620 (2019) 0 (2014) 445 0 14 40 258 800 1070 1510
2021-03-31 09:30 2.14 183 1620 (2019) 0 (2014) 445 0 14 40 258 800 1070 1510
2021-03-31 08:30 2.16 189 1620 (2019) 0 (2014) 445 0 14 40 258 800 1070 1510
2021-03-31 07:30 2.19 198 1620 (2019) 0 (2014) 445 0 14 40 258 800 1070 1510
2021-03-31 06:30 2.20 201 1620 (2019) 0 (2014) 445 0 14 40 258 800 1070 1510
2021-03-31 05:30 2.22 207 1620 (2019) 0 (2014) 445 0 14 40 258 800 1070 1510
2021-03-31 04:30 2.23 210 1620 (2019) 0 (2014) 445 0 14 40 258 800 1070 1510
2021-03-31 03:30 2.19 198 1620 (2019) 0 (2014) 445 0 14 40 258 800 1070 1510
2021-03-31 02:30 2.20 201 1620 (2019) 0 (2014) 445 0 14 40 258 800 1070 1510
2021-03-31 01:30 2.21 204 1620 (2019) 0 (2014) 445 0 14 40 258 800 1070 1510
2021-03-31 00:30 2.25 216 1620 (2019) 0 (2014) 445 0 14 40 258 800 1070 1510
2021-03-30 23:30 2.29 229 2640 (2018) 0 (2014) 482 0 23 61 253 646 712 2070
2021-03-30 22:30 2.22 207 2640 (2018) 0 (2014) 482 0 23 61 253 646 712 2070
2021-03-30 21:30 2.22 207 2640 (2018) 0 (2014) 482 0 23 61 253 646 712 2070
2021-03-30 20:30 2.30 232 2640 (2018) 0 (2014) 482 0 23 61 253 646 712 2070
2021-03-30 19:30 2.26 219 2640 (2018) 0 (2014) 482 0 23 61 253 646 712 2070
2021-03-30 18:30 2.32 239 2640 (2018) 0 (2014) 482 0 23 61 253 646 712 2070
2021-03-30 17:30 2.31 235 2640 (2018) 0 (2014) 482 0 23 61 253 646 712 2070
2021-03-30 16:30 2.36 253 2640 (2018) 0 (2014) 482 0 23 61 253 646 712 2070
2021-03-30 15:30 2.37 256 2640 (2018) 0 (2014) 482 0 23 61 253 646 712 2070
2021-03-30 14:30 2.39 263 2640 (2018) 0 (2014) 482 0 23 61 253 646 712 2070
2021-03-30 13:30 2.38 260 2640 (2018) 0 (2014) 482 0 23 61 253 646 712 2070
2021-03-30 12:30 2.41 270 2640 (2018) 0 (2014) 482 0 23 61 253 646 712 2070
2021-03-30 11:30 2.41 270 2640 (2018) 0 (2014) 482 0 23 61 253 646 712 2070
2021-03-30 10:30 2.42 274 2640 (2018) 0 (2014) 482 0 23 61 253 646 712 2070
2021-03-30 09:30 2.44 282 2640 (2018) 0 (2014) 482 0 23 61 253 646 712 2070
2021-03-30 08:30 2.44 282 2640 (2018) 0 (2014) 482 0 23 61 253 646 712 2070
2021-03-30 07:30 2.46 289 2640 (2018) 0 (2014) 482 0 23 61 253 646 712 2070
2021-03-30 06:30 2.48 297 2640 (2018) 0 (2014) 482 0 23 61 253 646 712 2070
2021-03-30 05:30 2.49 301 2640 (2018) 0 (2014) 482 0 23 61 253 646 712 2070
2021-03-30 04:30 2.49 301 2640 (2018) 0 (2014) 482 0 23 61 253 646 712 2070
2021-03-30 03:30 2.51 309 2640 (2018) 0 (2014) 482 0 23 61 253 646 712 2070
2021-03-30 02:30 2.53 317 2640 (2018) 0 (2014) 482 0 23 61 253 646 712 2070
2021-03-30 01:30 2.53 317 2640 (2018) 0 (2014) 482 0 23 61 253 646 712 2070
2021-03-30 00:30 2.55 326 2640 (2018) 0 (2014) 482 0 23 61 253 646 712 2070
2021-03-29 23:30 2.56 330 2210 (2018) 0 (2014) 477 0 34 59 192 737 928 1880
2021-03-29 22:30 2.57 334 2210 (2018) 0 (2014) 477 0 34 59 192 737 928 1880
2021-03-29 21:30 2.58 338 2210 (2018) 0 (2014) 477 0 34 59 192 737 928 1880
2021-03-29 20:30 2.60 347 2210 (2018) 0 (2014) 477 0 34 59 192 737 928 1880
2021-03-29 19:30 2.61 351 2210 (2018) 0 (2014) 477 0 34 59 192 737 928 1880
2021-03-29 18:30 2.61 351 2210 (2018) 0 (2014) 477 0 34 59 192 737 928 1880
2021-03-29 17:30 2.65 369 2210 (2018) 0 (2014) 477 0 34 59 192 737 928 1880
2021-03-29 16:30 2.66 374 2210 (2018) 0 (2014) 477 0 34 59 192 737 928 1880
2021-03-29 15:30 2.67 379 2210 (2018) 0 (2014) 477 0 34 59 192 737 928 1880
2021-03-29 14:30 2.70 393 2210 (2018) 0 (2014) 477 0 34 59 192 737 928 1880
2021-03-29 13:30 2.73 407 2210 (2018) 0 (2014) 477 0 34 59 192 737 928 1880
2021-03-29 12:30 2.72 402 2210 (2018) 0 (2014) 477 0 34 59 192 737 928 1880
2021-03-29 11:30 2.76 422 2210 (2018) 0 (2014) 477 0 34 59 192 737 928 1880
2021-03-29 10:30 2.77 427 2210 (2018) 0 (2014) 477 0 34 59 192 737 928 1880
2021-03-29 09:30 2.80 443 2210 (2018) 0 (2014) 477 0 34 59 192 737 928 1880
2021-03-29 08:30 2.81 448 2210 (2018) 0 (2014) 477 0 34 59 192 737 928 1880
2021-03-29 07:30 2.85 469 2210 (2018) 0 (2014) 477 0 34 59 192 737 928 1880
2021-03-29 06:30 2.87 480 2210 (2018) 0 (2014) 477 0 34 59 192 737 928 1880
2021-03-29 05:30 2.89 491 2210 (2018) 0 (2014) 477 0 34 59 192 737 928 1880
2021-03-29 04:30 2.93 514 2210 (2018) 0 (2014) 477 0 34 59 192 737 928 1880
2021-03-29 03:30 2.96 531 2210 (2018) 0 (2014) 477 0 34 59 192 737 928 1880
2021-03-29 02:30 2.97 537 2210 (2018) 0 (2014) 477 0 34 59 192 737 928 1880
2021-03-29 01:30 3.02 568 2210 (2018) 0 (2014) 477 0 34 59 192 737 928 1880
2021-03-29 00:30 3.05 587 2210 (2018) 0 (2014) 477 0 34 59 192 737 928 1880
2021-03-28 23:30 3.09 612 6060 (2018) 1 (2014) 767 1 44 75 229 678 755 4480
2021-03-28 22:30 3.12 632 6060 (2018) 1 (2014) 767 1 44 75 229 678 755 4480
2021-03-28 21:30 3.18 673 6060 (2018) 1 (2014) 767 1 44 75 229 678 755 4480
2021-03-28 20:30 3.23 708 6060 (2018) 1 (2014) 767 1 44 75 229 678 755 4480
2021-03-28 19:30 3.29 753 6060 (2018) 1 (2014) 767 1 44 75 229 678 755 4480
2021-03-28 18:30 3.37 815 6060 (2018) 1 (2014) 767 1 44 75 229 678 755 4480
2021-03-28 17:30 3.42 855 6060 (2018) 1 (2014) 767 1 44 75 229 678 755 4480
2021-03-28 16:30 3.47 897 6060 (2018) 1 (2014) 767 1 44 75 229 678 755 4480
2021-03-28 15:30 3.59 1000 6060 (2018) 1 (2014) 767 1 44 75 229 678 755 4480
2021-03-28 14:30 3.69 1100 6060 (2018) 1 (2014) 767 1 44 75 229 678 755 4480
2021-03-28 13:30 3.77 1180 6060 (2018) 1 (2014) 767 1 44 75 229 678 755 4480
2021-03-28 12:30 3.90 1310 6060 (2018) 1 (2014) 767 1 44 75 229 678 755 4480
2021-03-28 11:30 3.99 1410 6060 (2018) 1 (2014) 767 1 44 75 229 678 755 4480
2021-03-28 10:30 3.97 1390 6060 (2018) 1 (2014) 767 1 44 75 229 678 755 4480
2021-03-28 09:30 3.86 1270 6060 (2018) 1 (2014) 767 1 44 75 229 678 755 4480
2021-03-28 08:30 3.48 906 6060 (2018) 1 (2014) 767 1 44 75 229 678 755 4480
2021-03-28 07:30 2.87 480 6060 (2018) 1 (2014) 767 1 44 75 229 678 755 4480
2021-03-28 06:30 2.75 417 6060 (2018) 1 (2014) 767 1 44 75 229 678 755 4480
2021-03-28 05:30 2.77 427 6060 (2018) 1 (2014) 767 1 44 75 229 678 755 4480
2021-03-28 04:30 2.78 432 6060 (2018) 1 (2014) 767 1 44 75 229 678 755 4480
2021-03-28 03:30 2.79 438 6060 (2018) 1 (2014) 767 1 44 75 229 678 755 4480
2021-03-28 02:30 2.79 438 6060 (2018) 1 (2014) 767 1 44 75 229 678 755 4480
2021-03-28 01:30 2.83 458 6060 (2018) 1 (2014) 767 1 44 75 229 678 755 4480
2021-03-28 00:30 2.83 458 6060 (2018) 1 (2014) 767 1 44 75 229 678 755 4480
2021-03-27 23:30 2.84 464 2580 (2018) 1 (2014) 591 1 63 108 251 756 1210 2360
2021-03-27 22:30 2.86 475 2580 (2018) 1 (2014) 591 1 63 108 251 756 1210 2360
2021-03-27 21:30 2.88 486 2580 (2018) 1 (2014) 591 1 63 108 251 756 1210 2360
2021-03-27 20:30 2.93 514 2580 (2018) 1 (2014) 591 1 63 108 251 756 1210 2360
2021-03-27 19:30 2.93 514 2580 (2018) 1 (2014) 591 1 63 108 251 756 1210 2360
2021-03-27 18:30 2.96 531 2580 (2018) 1 (2014) 591 1 63 108 251 756 1210 2360
2021-03-27 17:30 2.96 531 2580 (2018) 1 (2014) 591 1 63 108 251 756 1210 2360
2021-03-27 16:30 2.99 549 2580 (2018) 1 (2014) 591 1 63 108 251 756 1210 2360
2021-03-27 15:30 3.01 562 2580 (2018) 1 (2014) 591 1 63 108 251 756 1210 2360
2021-03-27 14:30 3.03 574 2580 (2018) 1 (2014) 591 1 63 108 251 756 1210 2360
2021-03-27 13:30 3.05 587 2580 (2018) 1 (2014) 591 1 63 108 251 756 1210 2360
2021-03-27 12:30 3.07 599 2580 (2018) 1 (2014) 591 1 63 108 251 756 1210 2360
2021-03-27 11:30 3.10 619 2580 (2018) 1 (2014) 591 1 63 108 251 756 1210 2360
2021-03-27 10:30 3.13 639 2580 (2018) 1 (2014) 591 1 63 108 251 756 1210 2360
2021-03-27 09:30 3.15 652 2580 (2018) 1 (2014) 591 1 63 108 251 756 1210 2360
2021-03-27 08:30 3.19 680 2580 (2018) 1 (2014) 591 1 63 108 251 756 1210 2360
2021-03-27 07:30 3.22 701 2580 (2018) 1 (2014) 591 1 63 108 251 756 1210 2360
2021-03-27 06:30 3.26 730 2580 (2018) 1 (2014) 591 1 63 108 251 756 1210 2360
2021-03-27 05:30 3.29 753 2580 (2018) 1 (2014) 591 1 63 108 251 756 1210 2360
2021-03-27 04:30 3.32 776 2580 (2018) 1 (2014) 591 1 63 108 251 756 1210 2360
2021-03-27 03:30 3.36 807 2580 (2018) 1 (2014) 591 1 63 108 251 756 1210 2360
2021-03-27 02:30 3.40 839 2580 (2018) 1 (2014) 591 1 63 108 251 756 1210 2360
2021-03-27 01:30 3.44 872 2580 (2018) 1 (2014) 591 1 63 108 251 756 1210 2360
2021-03-27 00:30 3.49 914 2580 (2018) 1 (2014) 591 1 63 108 251 756 1210 2360
2021-03-26 23:30 3.49 914 1870 (2010) 1 (2014) 461 1 8 20 179 898 1090 1670
2021-03-26 22:30 3.57 985 1870 (2010) 1 (2014) 461 1 8 20 179 898 1090 1670
2021-03-26 21:30 3.63 1040 1870 (2010) 1 (2014) 461 1 8 20 179 898 1090 1670
2021-03-26 20:30 3.68 1090 1870 (2010) 1 (2014) 461 1 8 20 179 898 1090 1670
2021-03-26 19:30 3.73 1140 1870 (2010) 1 (2014) 461 1 8 20 179 898 1090 1670
2021-03-26 18:30 3.78 1190 1870 (2010) 1 (2014) 461 1 8 20 179 898 1090 1670
2021-03-26 17:30 3.79 1200 1870 (2010) 1 (2014) 461 1 8 20 179 898 1090 1670
2021-03-26 16:30 3.84 1250 1870 (2010) 1 (2014) 461 1 8 20 179 898 1090 1670
2021-03-26 15:30 3.83 1240 1870 (2010) 1 (2014) 461 1 8 20 179 898 1090 1670
2021-03-26 14:30 3.75 1160 1870 (2010) 1 (2014) 461 1 8 20 179 898 1090 1670
2021-03-26 13:30 3.66 1070 1870 (2010) 1 (2014) 461 1 8 20 179 898 1090 1670
2021-03-26 12:30 3.54 958 1870 (2010) 1 (2014) 461 1 8 20 179 898 1090 1670
2021-03-26 11:30 3.39 831 1870 (2010) 1 (2014) 461 1 8 20 179 898 1090 1670
2021-03-26 10:30 3.17 666 1870 (2010) 1 (2014) 461 1 8 20 179 898 1090 1670
2021-03-26 09:30 2.94 520 1870 (2010) 1 (2014) 461 1 8 20 179 898 1090 1670
2021-03-26 08:30 2.69 388 1870 (2010) 1 (2014) 461 1 8 20 179 898 1090 1670
2021-03-26 07:30 2.47 293 1870 (2010) 1 (2014) 461 1 8 20 179 898 1090 1670
2021-03-26 06:30 2.37 256 1870 (2010) 1 (2014) 461 1 8 20 179 898 1090 1670
2021-03-26 05:30 2.25 216 1870 (2010) 1 (2014) 461 1 8 20 179 898 1090 1670
2021-03-26 04:30 2.20 201 1870 (2010) 1 (2014) 461 1 8 20 179 898 1090 1670
2021-03-26 03:30 2.18 195 1870 (2010) 1 (2014) 461 1 8 20 179 898 1090 1670
2021-03-26 02:30 2.16 189 1870 (2010) 1 (2014) 461 1 8 20 179 898 1090 1670
2021-03-26 01:30 2.15 186 1870 (2010) 1 (2014) 461 1 8 20 179 898 1090 1670
2021-03-26 00:30 2.14 183 1870 (2010) 1 (2014) 461 1 8 20 179 898 1090 1670
2021-03-25 23:30 2.10 172 3360 (2020) 0 (2017) 376 0 2 4 83 269 300 2450
2021-03-25 22:30 2.12 178 3360 (2020) 0 (2017) 376 0 2 4 83 269 300 2450
2021-03-25 21:30 2.15 186 3360 (2020) 0 (2017) 376 0 2 4 83 269 300 2450
2021-03-25 20:30 2.09 170 3360 (2020) 0 (2017) 376 0 2 4 83 269 300 2450
2021-03-25 19:30 2.15 186 3360 (2020) 0 (2017) 376 0 2 4 83 269 300 2450
2021-03-25 18:30 2.15 186 3360 (2020) 0 (2017) 376 0 2 4 83 269 300 2450
2021-03-25 17:30 2.16 189 3360 (2020) 0 (2017) 376 0 2 4 83 269 300 2450
2021-03-25 16:30 2.14 183 3360 (2020) 0 (2017) 376 0 2 4 83 269 300 2450
2021-03-25 15:30 2.13 180 3360 (2020) 0 (2017) 376 0 2 4 83 269 300 2450
2021-03-25 14:30 2.14 183 3360 (2020) 0 (2017) 376 0 2 4 83 269 300 2450
2021-03-25 13:30 2.13 180 3360 (2020) 0 (2017) 376 0 2 4 83 269 300 2450
2021-03-25 12:30 2.14 183 3360 (2020) 0 (2017) 376 0 2 4 83 269 300 2450
2021-03-25 11:30 2.15 186 3360 (2020) 0 (2017) 376 0 2 4 83 269 300 2450
2021-03-25 10:30 2.15 186 3360 (2020) 0 (2017) 376 0 2 4 83 269 300 2450
2021-03-25 09:30 2.17 192 3360 (2020) 0 (2017) 376 0 2 4 83 269 300 2450
2021-03-25 08:30 2.19 198 3360 (2020) 0 (2017) 376 0 2 4 83 269 300 2450
2021-03-25 07:30 2.20 201 3360 (2020) 0 (2017) 376 0 2 4 83 269 300 2450
2021-03-25 06:30 2.21 204 3360 (2020) 0 (2017) 376 0 2 4 83 269 300 2450
2021-03-25 05:30 2.20 201 3360 (2020) 0 (2017) 376 0 2 4 83 269 300 2450
2021-03-25 04:30 2.22 207 3360 (2020) 0 (2017) 376 0 2 4 83 269 300 2450
2021-03-25 03:30 2.21 204 3360 (2020) 0 (2017) 376 0 2 4 83 269 300 2450
2021-03-25 02:30 2.23 210 3360 (2020) 0 (2017) 376 0 2 4 83 269 300 2450
2021-03-25 01:30 2.24 213 3360 (2020) 0 (2017) 376 0 2 4 83 269 300 2450
2021-03-25 00:30 2.25 216 3360 (2020) 0 (2017) 376 0 2 4 83 269 300 2450
2021-03-24 23:30 2.25 216 1640 (2020) 0 (2017) 232 0 5 7 31 163 379 1350
2021-03-24 22:30 2.25 216 1640 (2020) 0 (2017) 232 0 5 7 31 163 379 1350
2021-03-24 21:30 2.26 219 1640 (2020) 0 (2017) 232 0 5 7 31 163 379 1350
2021-03-24 20:30 2.27 222 1640 (2020) 0 (2017) 232 0 5 7 31 163 379 1350
2021-03-24 19:30 2.26 219 1640 (2020) 0 (2017) 232 0 5 7 31 163 379 1350
2021-03-24 18:30 2.27 222 1640 (2020) 0 (2017) 232 0 5 7 31 163 379 1350
2021-03-24 17:30 2.26 219 1640 (2020) 0 (2017) 232 0 5 7 31 163 379 1350
2021-03-24 16:30 2.23 210 1640 (2020) 0 (2017) 232 0 5 7 31 163 379 1350
2021-03-24 15:30 2.23 210 1640 (2020) 0 (2017) 232 0 5 7 31 163 379 1350
2021-03-24 14:30 2.26 219 1640 (2020) 0 (2017) 232 0 5 7 31 163 379 1350
2021-03-24 13:30 2.23 210 1640 (2020) 0 (2017) 232 0 5 7 31 163 379 1350
2021-03-24 12:30 2.24 213 1640 (2020) 0 (2017) 232 0 5 7 31 163 379 1350
2021-03-24 11:30 2.22 207 1640 (2020) 0 (2017) 232 0 5 7 31 163 379 1350
2021-03-24 10:30 2.23 210 1640 (2020) 0 (2017) 232 0 5 7 31 163 379 1350
2021-03-24 09:30 2.18 195 1640 (2020) 0 (2017) 232 0 5 7 31 163 379 1350
2021-03-24 08:30 2.19 198 1640 (2020) 0 (2017) 232 0 5 7 31 163 379 1350
2021-03-24 07:30 2.20 201 1640 (2020) 0 (2017) 232 0 5 7 31 163 379 1350
2021-03-24 06:30 2.20 201 1640 (2020) 0 (2017) 232 0 5 7 31 163 379 1350
2021-03-24 05:30 2.20 201 1640 (2020) 0 (2017) 232 0 5 7 31 163 379 1350
2021-03-24 04:30 2.19 198 1640 (2020) 0 (2017) 232 0 5 7 31 163 379 1350
2021-03-24 03:30 2.19 198 1640 (2020) 0 (2017) 232 0 5 7 31 163 379 1350
2021-03-24 02:30 2.17 192 1640 (2020) 0 (2017) 232 0 5 7 31 163 379 1350
2021-03-24 01:30 2.19 198 1640 (2020) 0 (2017) 232 0 5 7 31 163 379 1350
2021-03-24 00:30 2.20 201 1640 (2020) 0 (2017) 232 0 5 7 31 163 379 1350
2021-03-23 23:30 2.20 201 1540 (2012) 0 (2017) 247 0 1 2 68 175 446 1330
2021-03-23 22:30 2.20 201 1540 (2012) 0 (2017) 247 0 1 2 68 175 446 1330
2021-03-23 21:30 2.19 198 1540 (2012) 0 (2017) 247 0 1 2 68 175 446 1330
2021-03-23 20:30 2.21 204 1540 (2012) 0 (2017) 247 0 1 2 68 175 446 1330
2021-03-23 19:30 2.20 201 1540 (2012) 0 (2017) 247 0 1 2 68 175 446 1330
2021-03-23 18:30 2.20 201 1540 (2012) 0 (2017) 247 0 1 2 68 175 446 1330
2021-03-23 17:30 2.22 207 1540 (2012) 0 (2017) 247 0 1 2 68 175 446 1330
2021-03-23 16:30 2.20 201 1540 (2012) 0 (2017) 247 0 1 2 68 175 446 1330
2021-03-23 15:30 2.22 207 1540 (2012) 0 (2017) 247 0 1 2 68 175 446 1330
2021-03-23 14:30 2.27 222 1540 (2012) 0 (2017) 247 0 1 2 68 175 446 1330
2021-03-23 13:30 2.30 232 1540 (2012) 0 (2017) 247 0 1 2 68 175 446 1330
2021-03-23 12:30 2.22 207 1540 (2012) 0 (2017) 247 0 1 2 68 175 446 1330
2021-03-23 11:30 2.21 204 1540 (2012) 0 (2017) 247 0 1 2 68 175 446 1330
2021-03-23 10:30 2.21 204 1540 (2012) 0 (2017) 247 0 1 2 68 175 446 1330
2021-03-23 09:30 2.26 219 1540 (2012) 0 (2017) 247 0 1 2 68 175 446 1330
2021-03-23 08:30 2.25 216 1540 (2012) 0 (2017) 247 0 1 2 68 175 446 1330
2021-03-23 07:30 2.27 222 1540 (2012) 0 (2017) 247 0 1 2 68 175 446 1330
2021-03-23 06:30 2.28 226 1540 (2012) 0 (2017) 247 0 1 2 68 175 446 1330
2021-03-23 05:30 2.28 226 1540 (2012) 0 (2017) 247 0 1 2 68 175 446 1330
2021-03-23 04:30 2.28 226 1540 (2012) 0 (2017) 247 0 1 2 68 175 446 1330
2021-03-23 03:30 2.28 226 1540 (2012) 0 (2017) 247 0 1 2 68 175 446 1330
2021-03-23 02:30 2.29 229 1540 (2012) 0 (2017) 247 0 1 2 68 175 446 1330
2021-03-23 01:30 2.32 239 1540 (2012) 0 (2017) 247 0 1 2 68 175 446 1330
2021-03-23 00:30 2.32 239 1540 (2012) 0 (2017) 247 0 1 2 68 175 446 1330
2021-03-22 23:30 2.31 235 5720 (2012) 0 (2017) 606 0 1 4 48 225 489 4270
2021-03-22 22:30 2.32 239 5720 (2012) 0 (2017) 606 0 1 4 48 225 489 4270
2021-03-22 21:30 2.34 246 5720 (2012) 0 (2017) 606 0 1 4 48 225 489 4270
2021-03-22 20:30 2.35 249 5720 (2012) 0 (2017) 606 0 1 4 48 225 489 4270
2021-03-22 19:30 2.35 249 5720 (2012) 0 (2017) 606 0 1 4 48 225 489 4270
2021-03-22 18:30 2.36 253 5720 (2012) 0 (2017) 606 0 1 4 48 225 489 4270
2021-03-22 17:30 2.39 263 5720 (2012) 0 (2017) 606 0 1 4 48 225 489 4270
2021-03-22 16:30 2.36 253 5720 (2012) 0 (2017) 606 0 1 4 48 225 489 4270
2021-03-22 15:30 2.40 267 5720 (2012) 0 (2017) 606 0 1 4 48 225 489 4270
2021-03-22 14:30 2.40 267 5720 (2012) 0 (2017) 606 0 1 4 48 225 489 4270
2021-03-22 13:30 2.40 267 5720 (2012) 0 (2017) 606 0 1 4 48 225 489 4270
2021-03-22 12:30 2.41 270 5720 (2012) 0 (2017) 606 0 1 4 48 225 489 4270
2021-03-22 11:30 2.40 267 5720 (2012) 0 (2017) 606 0 1 4 48 225 489 4270
2021-03-22 10:30 2.42 274 5720 (2012) 0 (2017) 606 0 1 4 48 225 489 4270
2021-03-22 09:30 2.44 282 5720 (2012) 0 (2017) 606 0 1 4 48 225 489 4270
2021-03-22 08:30 2.44 282 5720 (2012) 0 (2017) 606 0 1 4 48 225 489 4270
2021-03-22 07:30 2.47 293 5720 (2012) 0 (2017) 606 0 1 4 48 225 489 4270
2021-03-22 06:30 2.47 293 5720 (2012) 0 (2017) 606 0 1 4 48 225 489 4270
2021-03-22 05:30 2.48 297 5720 (2012) 0 (2017) 606 0 1 4 48 225 489 4270
2021-03-22 04:30 2.50 305 5720 (2012) 0 (2017) 606 0 1 4 48 225 489 4270
2021-03-22 03:30 2.51 309 5720 (2012) 0 (2017) 606 0 1 4 48 225 489 4270
2021-03-22 02:30 2.52 313 5720 (2012) 0 (2017) 606 0 1 4 48 225 489 4270
2021-03-22 01:30 2.52 313 5720 (2012) 0 (2017) 606 0 1 4 48 225 489 4270
2021-03-22 00:30 2.53 317 5720 (2012) 0 (2017) 606 0 1 4 48 225 489 4270
2021-03-21 23:30 2.56 330 4620 (2012) 0 (2017) 600 0 1 2 65 380 881 3710
2021-03-21 22:30 2.55 326 4620 (2012) 0 (2017) 600 0 1 2 65 380 881 3710
2021-03-21 21:30 2.56 330 4620 (2012) 0 (2017) 600 0 1 2 65 380 881 3710
2021-03-21 20:30 2.58 338 4620 (2012) 0 (2017) 600 0 1 2 65 380 881 3710
2021-03-21 19:30 2.56 330 4620 (2012) 0 (2017) 600 0 1 2 65 380 881 3710
2021-03-21 18:30 2.59 343 4620 (2012) 0 (2017) 600 0 1 2 65 380 881 3710
2021-03-21 17:30 2.59 343 4620 (2012) 0 (2017) 600 0 1 2 65 380 881 3710
2021-03-21 16:30 2.60 347 4620 (2012) 0 (2017) 600 0 1 2 65 380 881 3710
2021-03-21 15:30 2.62 356 4620 (2012) 0 (2017) 600 0 1 2 65 380 881 3710
2021-03-21 14:30 2.64 365 4620 (2012) 0 (2017) 600 0 1 2 65 380 881 3710
2021-03-21 13:30 2.64 365 4620 (2012) 0 (2017) 600 0 1 2 65 380 881 3710
2021-03-21 12:30 2.66 374 4620 (2012) 0 (2017) 600 0 1 2 65 380 881 3710
2021-03-21 11:30 2.67 379 4620 (2012) 0 (2017) 600 0 1 2 65 380 881 3710
2021-03-21 10:30 2.69 388 4620 (2012) 0 (2017) 600 0 1 2 65 380 881 3710
2021-03-21 09:30 2.70 393 4620 (2012) 0 (2017) 600 0 1 2 65 380 881 3710
2021-03-21 08:30 2.70 393 4620 (2012) 0 (2017) 600 0 1 2 65 380 881 3710
2021-03-21 07:30 2.73 407 4620 (2012) 0 (2017) 600 0 1 2 65 380 881 3710
2021-03-21 06:30 2.73 407 4620 (2012) 0 (2017) 600 0 1 2 65 380 881 3710
2021-03-21 05:30 2.74 412 4620 (2012) 0 (2017) 600 0 1 2 65 380 881 3710
2021-03-21 04:30 2.78 432 4620 (2012) 0 (2017) 600 0 1 2 65 380 881 3710
2021-03-21 03:30 2.78 432 4620 (2012) 0 (2017) 600 0 1 2 65 380 881 3710
2021-03-21 02:30 2.80 443 4620 (2012) 0 (2017) 600 0 1 2 65 380 881 3710
2021-03-21 01:30 2.81 448 4620 (2012) 0 (2017) 600 0 1 2 65 380 881 3710
2021-03-21 00:30 2.81 448 4620 (2012) 0 (2017) 600 0 1 2 65 380 881 3710
2021-03-20 23:30 2.82 453 5240 (2020) 0 (2017) 557 0 1 1 34 378 526 3860
2021-03-20 22:30 2.83 458 5240 (2020) 0 (2017) 557 0 1 1 34 378 526 3860
2021-03-20 21:30 2.86 475 5240 (2020) 0 (2017) 557 0 1 1 34 378 526 3860
2021-03-20 20:30 2.86 475 5240 (2020) 0 (2017) 557 0 1 1 34 378 526 3860
2021-03-20 19:30 2.86 475 5240 (2020) 0 (2017) 557 0 1 1 34 378 526 3860
2021-03-20 18:30 2.89 491 5240 (2020) 0 (2017) 557 0 1 1 34 378 526 3860
2021-03-20 17:30 2.89 491 5240 (2020) 0 (2017) 557 0 1 1 34 378 526 3860
2021-03-20 16:30 2.91 502 5240 (2020) 0 (2017) 557 0 1 1 34 378 526 3860
2021-03-20 15:30 2.94 520 5240 (2020) 0 (2017) 557 0 1 1 34 378 526 3860
2021-03-20 14:30 2.94 520 5240 (2020) 0 (2017) 557 0 1 1 34 378 526 3860
2021-03-20 13:30 2.96 531 5240 (2020) 0 (2017) 557 0 1 1 34 378 526 3860
2021-03-20 12:30 2.97 537 5240 (2020) 0 (2017) 557 0 1 1 34 378 526 3860
2021-03-20 11:30 2.99 549 5240 (2020) 0 (2017) 557 0 1 1 34 378 526 3860
2021-03-20 10:30 3.00 555 5240 (2020) 0 (2017) 557 0 1 1 34 378 526 3860
2021-03-20 09:30 3.02 568 5240 (2020) 0 (2017) 557 0 1 1 34 378 526 3860
2021-03-20 08:30 3.06 593 5240 (2020) 0 (2017) 557 0 1 1 34 378 526 3860
2021-03-20 07:30 3.04 580 5240 (2020) 0 (2017) 557 0 1 1 34 378 526 3860
2021-03-20 06:30 3.07 599 5240 (2020) 0 (2017) 557 0 1 1 34 378 526 3860
2021-03-20 05:30 3.09 612 5240 (2020) 0 (2017) 557 0 1 1 34 378 526 3860
2021-03-20 04:30 3.12 632 5240 (2020) 0 (2017) 557 0 1 1 34 378 526 3860
2021-03-20 03:30 3.13 639 5240 (2020) 0 (2017) 557 0 1 1 34 378 526 3860
2021-03-20 02:30 3.13 639 5240 (2020) 0 (2017) 557 0 1 1 34 378 526 3860
2021-03-20 01:30 3.16 659 5240 (2020) 0 (2017) 557 0 1 1 34 378 526 3860
2021-03-20 00:30 3.20 687 5240 (2020) 0 (2017) 557 0 1 1 34 378 526 3860
2021-03-19 23:30 3.22 701 3390 (2020) 0 (2017) 465 0 1 1 60 639 841 2650
2021-03-19 22:30 3.23 708 3390 (2020) 0 (2017) 465 0 1 1 60 639 841 2650
2021-03-19 21:30 3.28 745 3390 (2020) 0 (2017) 465 0 1 1 60 639 841 2650
2021-03-19 20:30 3.28 745 3390 (2020) 0 (2017) 465 0 1 1 60 639 841 2650
2021-03-19 19:30 3.32 776 3390 (2020) 0 (2017) 465 0 1 1 60 639 841 2650
2021-03-19 18:30 3.32 776 3390 (2020) 0 (2017) 465 0 1 1 60 639 841 2650
2021-03-19 17:30 3.36 807 3390 (2020) 0 (2017) 465 0 1 1 60 639 841 2650
2021-03-19 16:30 3.38 823 3390 (2020) 0 (2017) 465 0 1 1 60 639 841 2650
2021-03-19 15:30 3.39 831 3390 (2020) 0 (2017) 465 0 1 1 60 639 841 2650
2021-03-19 14:30 3.43 864 3390 (2020) 0 (2017) 465 0 1 1 60 639 841 2650
2021-03-19 13:30 3.44 872 3390 (2020) 0 (2017) 465 0 1 1 60 639 841 2650
2021-03-19 12:30 3.46 889 3390 (2020) 0 (2017) 465 0 1 1 60 639 841 2650
2021-03-19 11:30 3.49 914 3390 (2020) 0 (2017) 465 0 1 1 60 639 841 2650
2021-03-19 10:30 3.53 949 3390 (2020) 0 (2017) 465 0 1 1 60 639 841 2650
2021-03-19 09:30 3.54 958 3390 (2020) 0 (2017) 465 0 1 1 60 639 841 2650
2021-03-19 08:30 3.55 967 3390 (2020) 0 (2017) 465 0 1 1 60 639 841 2650
2021-03-19 07:30 3.59 1000 3390 (2020) 0 (2017) 465 0 1 1 60 639 841 2650
2021-03-19 06:30 3.59 1000 3390 (2020) 0 (2017) 465 0 1 1 60 639 841 2650
2021-03-19 05:30 3.58 994 3390 (2020) 0 (2017) 465 0 1 1 60 639 841 2650
2021-03-19 04:30 3.61 1020 3390 (2020) 0 (2017) 465 0 1 1 60 639 841 2650
2021-03-19 03:30 3.61 1020 3390 (2020) 0 (2017) 465 0 1 1 60 639 841 2650
2021-03-19 02:30 3.61 1020 3390 (2020) 0 (2017) 465 0 1 1 60 639 841 2650
2021-03-19 01:30 3.61 1020 3390 (2020) 0 (2017) 465 0 1 1 60 639 841 2650
2021-03-19 00:30 3.63 1040 3390 (2020) 0 (2017) 465 0 1 1 60 639 841 2650
2021-03-18 23:30 3.62 1030 2190 (2013) 0 (2017) 313 0 1 1 114 328 383 1670
2021-03-18 22:30 3.65 1060 2190 (2013) 0 (2017) 313 0 1 1 114 328 383 1670
2021-03-18 21:30 3.64 1050 2190 (2013) 0 (2017) 313 0 1 1 114 328 383 1670
2021-03-18 20:30 3.64 1050 2190 (2013) 0 (2017) 313 0 1 1 114 328 383 1670
2021-03-18 19:30 3.61 1020 2190 (2013) 0 (2017) 313 0 1 1 114 328 383 1670
2021-03-18 18:30 3.58 994 2190 (2013) 0 (2017) 313 0 1 1 114 328 383 1670
2021-03-18 17:30 3.57 985 2190 (2013) 0 (2017) 313 0 1 1 114 328 383 1670
2021-03-18 16:30 3.52 941 2190 (2013) 0 (2017) 313 0 1 1 114 328 383 1670
2021-03-18 15:30 3.49 914 2190 (2013) 0 (2017) 313 0 1 1 114 328 383 1670
2021-03-18 14:30 3.46 889 2190 (2013) 0 (2017) 313 0 1 1 114 328 383 1670
2021-03-18 13:30 3.45 880 2190 (2013) 0 (2017) 313 0 1 1 114 328 383 1670
2021-03-18 12:30 3.40 839 2190 (2013) 0 (2017) 313 0 1 1 114 328 383 1670
2021-03-18 11:30 3.38 823 2190 (2013) 0 (2017) 313 0 1 1 114 328 383 1670
2021-03-18 10:30 3.36 807 2190 (2013) 0 (2017) 313 0 1 1 114 328 383 1670
2021-03-18 09:30 3.33 783 2190 (2013) 0 (2017) 313 0 1 1 114 328 383 1670
2021-03-18 08:30 3.29 753 2190 (2013) 0 (2017) 313 0 1 1 114 328 383 1670
2021-03-18 07:30 3.27 738 2190 (2013) 0 (2017) 313 0 1 1 114 328 383 1670
2021-03-18 06:30 3.24 716 2190 (2013) 0 (2017) 313 0 1 1 114 328 383 1670
2021-03-18 05:30 3.20 687 2190 (2013) 0 (2017) 313 0 1 1 114 328 383 1670
2021-03-18 04:30 3.19 680 2190 (2013) 0 (2017) 313 0 1 1 114 328 383 1670
2021-03-18 03:30 3.21 694 2190 (2013) 0 (2017) 313 0 1 1 114 328 383 1670
2021-03-18 02:30 3.21 694 2190 (2013) 0 (2017) 313 0 1 1 114 328 383 1670
2021-03-18 01:30 3.17 666 2190 (2013) 0 (2017) 313 0 1 1 114 328 383 1670
2021-03-18 00:30 3.15 652 2190 (2013) 0 (2017) 313 0 1 1 114 328 383 1670
2021-03-17 23:30 3.16 659 675 (2013) 0 (2014) 208 0 0 0 14 448 485 633
2021-03-17 22:30 3.15 652 675 (2013) 0 (2014) 208 0 0 0 14 448 485 633
2021-03-17 21:30 3.16 659 675 (2013) 0 (2014) 208 0 0 0 14 448 485 633
2021-03-17 20:30 3.17 666 675 (2013) 0 (2014) 208 0 0 0 14 448 485 633
2021-03-17 19:30 3.15 652 675 (2013) 0 (2014) 208 0 0 0 14 448 485 633
2021-03-17 18:30 3.17 666 675 (2013) 0 (2014) 208 0 0 0 14 448 485 633
2021-03-17 16:30 3.21 694 675 (2013) 0 (2014) 208 0 0 0 14 448 485 633
2021-03-17 15:30 3.20 687 675 (2013) 0 (2014) 208 0 0 0 14 448 485 633
2021-03-17 14:30 3.24 716 675 (2013) 0 (2014) 208 0 0 0 14 448 485 633
2021-03-17 13:30 3.24 716 675 (2013) 0 (2014) 208 0 0 0 14 448 485 633
2021-03-17 12:30 3.28 745 675 (2013) 0 (2014) 208 0 0 0 14 448 485 633
2021-03-17 11:30 3.30 760 675 (2013) 0 (2014) 208 0 0 0 14 448 485 633
2021-03-17 10:30 3.32 776 675 (2013) 0 (2014) 208 0 0 0 14 448 485 633
2021-03-17 09:30 3.32 776 675 (2013) 0 (2014) 208 0 0 0 14 448 485 633
2021-03-17 08:30 3.36 807 675 (2013) 0 (2014) 208 0 0 0 14 448 485 633
2021-03-17 07:30 3.36 807 675 (2013) 0 (2014) 208 0 0 0 14 448 485 633
2021-03-17 06:30 3.41 847 675 (2013) 0 (2014) 208 0 0 0 14 448 485 633
2021-03-17 05:30 3.41 847 675 (2013) 0 (2014) 208 0 0 0 14 448 485 633
2021-03-17 04:30 3.45 880 675 (2013) 0 (2014) 208 0 0 0 14 448 485 633
2021-03-17 03:30 3.50 923 675 (2013) 0 (2014) 208 0 0 0 14 448 485 633
2021-03-17 02:30 3.50 923 675 (2013) 0 (2014) 208 0 0 0 14 448 485 633
2021-03-17 01:30 3.54 958 675 (2013) 0 (2014) 208 0 0 0 14 448 485 633
2021-03-17 00:30 3.57 985 675 (2013) 0 (2014) 208 0 0 0 14 448 485 633
2021-03-16 23:30 3.61 1020 816 (2015) 0 (2014) 267 0 0 0 19 752 780 811
2021-03-16 22:30 3.64 1050 816 (2015) 0 (2014) 267 0 0 0 19 752 780 811
2021-03-16 21:30 3.67 1080 816 (2015) 0 (2014) 267 0 0 0 19 752 780 811
2021-03-16 20:30 3.68 1090 816 (2015) 0 (2014) 267 0 0 0 19 752 780 811
2021-03-16 19:30 3.73 1140 816 (2015) 0 (2014) 267 0 0 0 19 752 780 811
2021-03-16 18:30 3.77 1180 816 (2015) 0 (2014) 267 0 0 0 19 752 780 811
2021-03-16 17:30 3.80 1210 816 (2015) 0 (2014) 267 0 0 0 19 752 780 811
2021-03-16 16:30 3.87 1280 816 (2015) 0 (2014) 267 0 0 0 19 752 780 811
2021-03-16 15:30 3.89 1300 816 (2015) 0 (2014) 267 0 0 0 19 752 780 811
2021-03-16 14:30 3.92 1330 816 (2015) 0 (2014) 267 0 0 0 19 752 780 811
2021-03-16 13:30 3.98 1400 816 (2015) 0 (2014) 267 0 0 0 19 752 780 811
2021-03-16 12:30 4.05 1470 816 (2015) 0 (2014) 267 0 0 0 19 752 780 811
2021-03-16 11:30 4.12 1550 816 (2015) 0 (2014) 267 0 0 0 19 752 780 811
2021-03-16 10:30 4.16 1590 816 (2015) 0 (2014) 267 0 0 0 19 752 780 811
2021-03-16 09:30 4.19 1620 816 (2015) 0 (2014) 267 0 0 0 19 752 780 811
2021-03-16 08:30 4.27 1700 816 (2015) 0 (2014) 267 0 0 0 19 752 780 811
2021-03-16 07:30 4.32 1760 816 (2015) 0 (2014) 267 0 0 0 19 752 780 811
2021-03-16 06:30 4.40 1840 816 (2015) 0 (2014) 267 0 0 0 19 752 780 811
2021-03-16 05:30 4.47 1920 816 (2015) 0 (2014) 267 0 0 0 19 752 780 811
2021-03-16 04:30 4.53 1980 816 (2015) 0 (2014) 267 0 0 0 19 752 780 811
2021-03-16 03:30 4.61 2080 816 (2015) 0 (2014) 267 0 0 0 19 752 780 811
2021-03-16 02:30 4.72 2200 816 (2015) 0 (2014) 267 0 0 0 19 752 780 811
2021-03-16 01:30 4.83 2340 816 (2015) 0 (2014) 267 0 0 0 19 752 780 811
2021-03-16 00:30 4.98 2520 816 (2015) 0 (2014) 267 0 0 0 19 752 780 811
2021-03-15 23:30 5.13 2720 2210 (2020) 0 (2014) 648 0 0 0 29 1740 1930 2170
2021-03-15 22:30 5.28 2910 2210 (2020) 0 (2014) 648 0 0 0 29 1740 1930 2170
2021-03-15 21:30 5.43 3090 2210 (2020) 0 (2014) 648 0 0 0 29 1740 1930 2170
2021-03-15 20:30 5.54 3230 2210 (2020) 0 (2014) 648 0 0 0 29 1740 1930 2170
2021-03-15 19:30 5.66 3380 2210 (2020) 0 (2014) 648 0 0 0 29 1740 1930 2170
2021-03-15 18:30 5.68 3410 2210 (2020) 0 (2014) 648 0 0 0 29 1740 1930 2170
2021-03-15 17:30 5.65 3370 2210 (2020) 0 (2014) 648 0 0 0 29 1740 1930 2170
2021-03-15 16:30 5.45 3120 2210 (2020) 0 (2014) 648 0 0 0 29 1740 1930 2170
2021-03-15 15:30 5.24 2860 2210 (2020) 0 (2014) 648 0 0 0 29 1740 1930 2170
2021-03-15 14:30 5.00 2550 2210 (2020) 0 (2014) 648 0 0 0 29 1740 1930 2170
2021-03-15 13:30 4.82 2320 2210 (2020) 0 (2014) 648 0 0 0 29 1740 1930 2170
2021-03-15 12:30 4.65 2120 2210 (2020) 0 (2014) 648 0 0 0 29 1740 1930 2170
2021-03-15 11:30 4.58 2040 2210 (2020) 0 (2014) 648 0 0 0 29 1740 1930 2170
2021-03-15 10:30 4.55 2010 2210 (2020) 0 (2014) 648 0 0 0 29 1740 1930 2170
2021-03-15 09:30 4.46 1910 2210 (2020) 0 (2014) 648 0 0 0 29 1740 1930 2170
2021-03-15 08:30 4.41 1850 2210 (2020) 0 (2014) 648 0 0 0 29 1740 1930 2170
2021-03-15 07:30 4.37 1810 2210 (2020) 0 (2014) 648 0 0 0 29 1740 1930 2170
2021-03-15 06:30 4.34 1780 2210 (2020) 0 (2014) 648 0 0 0 29 1740 1930 2170
2021-03-15 05:30 4.33 1770 2210 (2020) 0 (2014) 648 0 0 0 29 1740 1930 2170
2021-03-15 04:30 4.36 1800 2210 (2020) 0 (2014) 648 0 0 0 29 1740 1930 2170
2021-03-15 03:30 4.38 1820 2210 (2020) 0 (2014) 648 0 0 0 29 1740 1930 2170
2021-03-15 02:30 4.41 1850 2210 (2020) 0 (2014) 648 0 0 0 29 1740 1930 2170
2021-03-15 01:30 4.35 1790 2210 (2020) 0 (2014) 648 0 0 0 29 1740 1930 2170
2021-03-15 00:30 4.40 1840 2210 (2020) 0 (2014) 648 0 0 0 29 1740 1930 2170
2021-03-14 23:30 4.46 1910 2950 (2019) 0 (2014) 528 0 0 0 44 977 1180 2470
2021-03-14 22:30 4.51 1960 2950 (2019) 0 (2014) 528 0 0 0 44 977 1180 2470
2021-03-14 21:30 4.61 2080 2950 (2019) 0 (2014) 528 0 0 0 44 977 1180 2470
2021-03-14 20:30 4.63 2100 2950 (2019) 0 (2014) 528 0 0 0 44 977 1180 2470
2021-03-14 19:30 4.71 2190 2950 (2019) 0 (2014) 528 0 0 0 44 977 1180 2470
2021-03-14 18:30 4.81 2310 2950 (2019) 0 (2014) 528 0 0 0 44 977 1180 2470
2021-03-14 17:30 4.90 2420 2950 (2019) 0 (2014) 528 0 0 0 44 977 1180 2470
2021-03-14 16:30 5.00 2550 2950 (2019) 0 (2014) 528 0 0 0 44 977 1180 2470
2021-03-14 15:30 5.09 2670 2950 (2019) 0 (2014) 528 0 0 0 44 977 1180 2470
2021-03-14 14:30 5.22 2840 2950 (2019) 0 (2014) 528 0 0 0 44 977 1180 2470
2021-03-14 13:30 5.31 2940 2950 (2019) 0 (2014) 528 0 0 0 44 977 1180 2470
2021-03-14 12:30 5.45 3120 2950 (2019) 0 (2014) 528 0 0 0 44 977 1180 2470
2021-03-14 11:30 5.56 3250 2950 (2019) 0 (2014) 528 0 0 0 44 977 1180 2470
2021-03-14 10:30 5.67 3390 2950 (2019) 0 (2014) 528 0 0 0 44 977 1180 2470
2021-03-14 09:30 5.83 3610 2950 (2019) 0 (2014) 528 0 0 0 44 977 1180 2470
2021-03-14 08:30 5.99 3830 2950 (2019) 0 (2014) 528 0 0 0 44 977 1180 2470
2021-03-14 07:30 6.20 4090 2950 (2019) 0 (2014) 528 0 0 0 44 977 1180 2470
2021-03-14 06:30 6.40 4340 2950 (2019) 0 (2014) 528 0 0 0 44 977 1180 2470
2021-03-14 05:30 6.64 4660 2950 (2019) 0 (2014) 528 0 0 0 44 977 1180 2470
2021-03-14 04:30 6.92 5030 2950 (2019) 0 (2014) 528 0 0 0 44 977 1180 2470
2021-03-14 03:30 7.24 5470 2950 (2019) 0 (2014) 528 0 0 0 44 977 1180 2470
2021-03-14 01:30 7.59 5970 2950 (2019) 0 (2014) 528 0 0 0 44 977 1180 2470
2021-03-14 00:30 7.89 6410 2950 (2019) 0 (2014) 528 0 0 0 44 977 1180 2470
2021-03-13 23:30 8.19 6870 3420 (2019) 0 (2014) 403 0 0 0 65 326 412 2550
2021-03-13 22:30 8.38 7190 3420 (2019) 0 (2014) 403 0 0 0 65 326 412 2550
2021-03-13 21:30 8.55 7480 3420 (2019) 0 (2014) 403 0 0 0 65 326 412 2550
2021-03-13 20:30 8.66 7680 3420 (2019) 0 (2014) 403 0 0 0 65 326 412 2550
2021-03-13 19:30 8.80 7920 3420 (2019) 0 (2014) 403 0 0 0 65 326 412 2550
2021-03-13 18:30 8.88 8070 3420 (2019) 0 (2014) 403 0 0 0 65 326 412 2550
2021-03-13 17:30 9.01 8300 3420 (2019) 0 (2014) 403 0 0 0 65 326 412 2550
2021-03-13 16:30 9.09 8450 3420 (2019) 0 (2014) 403 0 0 0 65 326 412 2550
2021-03-13 15:30 9.13 8520 3420 (2019) 0 (2014) 403 0 0 0 65 326 412 2550
2021-03-13 14:30 9.17 8600 3420 (2019) 0 (2014) 403 0 0 0 65 326 412 2550
2021-03-13 13:30 9.19 8630 3420 (2019) 0 (2014) 403 0 0 0 65 326 412 2550
2021-03-13 12:30 9.14 8540 3420 (2019) 0 (2014) 403 0 0 0 65 326 412 2550
2021-03-13 11:30 9.23 8710 3420 (2019) 0 (2014) 403 0 0 0 65 326 412 2550
2021-03-13 10:30 9.25 8750 3420 (2019) 0 (2014) 403 0 0 0 65 326 412 2550
2021-03-13 09:30 9.33 8900 3420 (2019) 0 (2014) 403 0 0 0 65 326 412 2550
2021-03-13 08:30 9.44 9110 3420 (2019) 0 (2014) 403 0 0 0 65 326 412 2550
2021-03-13 07:30 9.51 9240 3420 (2019) 0 (2014) 403 0 0 0 65 326 412 2550
2021-03-13 06:30 9.63 9470 3420 (2019) 0 (2014) 403 0 0 0 65 326 412 2550
2021-03-13 05:30 9.70 9610 3420 (2019) 0 (2014) 403 0 0 0 65 326 412 2550
2021-03-13 04:30 9.74 9690 3420 (2019) 0 (2014) 403 0 0 0 65 326 412 2550
2021-03-13 03:30 9.67 9550 3420 (2019) 0 (2014) 403 0 0 0 65 326 412 2550
2021-03-13 02:30 9.59 9390 3420 (2019) 0 (2014) 403 0 0 0 65 326 412 2550
2021-03-13 01:30 9.31 8860 3420 (2019) 0 (2014) 403 0 0 0 65 326 412 2550
2021-03-13 00:30 9.01 8300 3420 (2019) 0 (2014) 403 0 0 0 65 326 412 2550
2021-03-12 23:30 8.51 7420 1100 (2020) 0 (2014) 259 0 0 0 87 515 569 957
2021-03-12 22:30 7.99 6560 1100 (2020) 0 (2014) 259 0 0 0 87 515 569 957
2021-03-12 21:30 7.51 5850 1100 (2020) 0 (2014) 259 0 0 0 87 515 569 957
2021-03-12 20:30 7.06 5230 1100 (2020) 0 (2014) 259 0 0 0 87 515 569 957
2021-03-12 19:30 6.89 4990 1100 (2020) 0 (2014) 259 0 0 0 87 515 569 957
2021-03-12 18:30 6.64 4660 1100 (2020) 0 (2014) 259 0 0 0 87 515 569 957
2021-03-12 17:30 6.29 4200 1100 (2020) 0 (2014) 259 0 0 0 87 515 569 957
2021-03-12 16:30 6.05 3910 1100 (2020) 0 (2014) 259 0 0 0 87 515 569 957
2021-03-12 15:30 6.13 4000 1100 (2020) 0 (2014) 259 0 0 0 87 515 569 957
2021-03-12 14:30 6.25 4150 1100 (2020) 0 (2014) 259 0 0 0 87 515 569 957
2021-03-12 13:30 6.32 4240 1100 (2020) 0 (2014) 259 0 0 0 87 515 569 957
2021-03-12 12:30 6.18 4070 1100 (2020) 0 (2014) 259 0 0 0 87 515 569 957
2021-03-12 11:30 5.76 3510 1100 (2020) 0 (2014) 259 0 0 0 87 515 569 957
2021-03-12 10:30 5.38 3030 1100 (2020) 0 (2014) 259 0 0 0 87 515 569 957
2021-03-12 09:30 5.06 2630 1100 (2020) 0 (2014) 259 0 0 0 87 515 569 957
2021-03-12 08:30 4.86 2370 1100 (2020) 0 (2014) 259 0 0 0 87 515 569 957
2021-03-12 07:30 4.77 2260 1100 (2020) 0 (2014) 259 0 0 0 87 515 569 957
2021-03-12 06:30 4.75 2240 1100 (2020) 0 (2014) 259 0 0 0 87 515 569 957
2021-03-12 05:30 4.62 2090 1100 (2020) 0 (2014) 259 0 0 0 87 515 569 957
2021-03-12 04:30 4.36 1800 1100 (2020) 0 (2014) 259 0 0 0 87 515 569 957
2021-03-12 03:30 4.03 1450 1100 (2020) 0 (2014) 259 0 0 0 87 515 569 957
2021-03-12 02:30 3.72 1130 1100 (2020) 0 (2014) 259 0 0 0 87 515 569 957
2021-03-12 01:30 3.47 897 1100 (2020) 0 (2014) 259 0 0 0 87 515 569 957
2021-03-12 00:30 3.33 783 1100 (2020) 0 (2014) 259 0 0 0 87 515 569 957
2021-03-11 23:30 3.13 639 952 (2015) 0 (2014) 255 0 0 0 57 651 796 908
2021-03-11 22:30 2.78 432 952 (2015) 0 (2014) 255 0 0 0 57 651 796 908
2021-03-11 21:30 2.75 417 952 (2015) 0 (2014) 255 0 0 0 57 651 796 908
2021-03-11 20:30 2.78 432 952 (2015) 0 (2014) 255 0 0 0 57 651 796 908
2021-03-11 19:30 2.93 514 952 (2015) 0 (2014) 255 0 0 0 57 651 796 908
2021-03-11 18:30 3.11 625 952 (2015) 0 (2014) 255 0 0 0 57 651 796 908
2021-03-11 17:30 3.28 745 952 (2015) 0 (2014) 255 0 0 0 57 651 796 908
2021-03-11 16:30 2.90 497 952 (2015) 0 (2014) 255 0 0 0 57 651 796 908
2021-03-11 15:30 1.70 86 952 (2015) 0 (2014) 255 0 0 0 57 651 796 908
2021-03-11 14:30 0.72 5 952 (2015) 0 (2014) 255 0 0 0 57 651 796 908
2021-03-11 13:30 0.65 4 952 (2015) 0 (2014) 255 0 0 0 57 651 796 908
2021-03-11 12:30 0.64 4 952 (2015) 0 (2014) 255 0 0 0 57 651 796 908
2021-03-11 11:30 0.58 3 952 (2015) 0 (2014) 255 0 0 0 57 651 796 908
2021-03-11 10:30 0.55 2 952 (2015) 0 (2014) 255 0 0 0 57 651 796 908
2021-03-11 09:30 0.61 3 952 (2015) 0 (2014) 255 0 0 0 57 651 796 908
2021-03-11 08:30 0.63 4 952 (2015) 0 (2014) 255 0 0 0 57 651 796 908
2021-03-11 07:30 0.63 4 952 (2015) 0 (2014) 255 0 0 0 57 651 796 908
2021-03-11 06:30 0.63 4 952 (2015) 0 (2014) 255 0 0 0 57 651 796 908
2021-03-11 05:30 0.54 2 952 (2015) 0 (2014) 255 0 0 0 57 651 796 908
2021-03-11 04:30 0.61 3 952 (2015) 0 (2014) 255 0 0 0 57 651 796 908
2021-03-11 03:30 0.61 3 952 (2015) 0 (2014) 255 0 0 0 57 651 796 908
2021-03-11 02:30 0.61 3 952 (2015) 0 (2014) 255 0 0 0 57 651 796 908
2021-03-11 01:30 0.61 3 952 (2015) 0 (2014) 255 0 0 0 57 651 796 908
2021-03-11 00:30 0.59 3 952 (2015) 0 (2014) 255 0 0 0 57 651 796 908
2021-03-10 23:30 0.61 3 2030 (2019) 0 (2014) 245 0 0 0 8 318 423 1550
2021-03-10 22:30 0.59 3 2030 (2019) 0 (2014) 245 0 0 0 8 318 423 1550
2021-03-10 21:30 0.57 3 2030 (2019) 0 (2014) 245 0 0 0 8 318 423 1550
2021-03-10 20:30 0.52 2 2030 (2019) 0 (2014) 245 0 0 0 8 318 423 1550
2021-03-10 19:30 0.56 2 2030 (2019) 0 (2014) 245 0 0 0 8 318 423 1550
2021-03-10 18:30 0.54 2 2030 (2019) 0 (2014) 245 0 0 0 8 318 423 1550
2021-03-10 17:30 0.54 2 2030 (2019) 0 (2014) 245 0 0 0 8 318 423 1550
2021-03-10 16:30 0.60 3 2030 (2019) 0 (2014) 245 0 0 0 8 318 423 1550
2021-03-10 15:30 0.55 2 2030 (2019) 0 (2014) 245 0 0 0 8 318 423 1550
2021-03-10 14:30 0.56 2 2030 (2019) 0 (2014) 245 0 0 0 8 318 423 1550
2021-03-10 13:30 0.55 2 2030 (2019) 0 (2014) 245 0 0 0 8 318 423 1550
2021-03-10 12:30 0.53 2 2030 (2019) 0 (2014) 245 0 0 0 8 318 423 1550
2021-03-10 11:30 0.56 2 2030 (2019) 0 (2014) 245 0 0 0 8 318 423 1550
2021-03-10 10:30 0.56 2 2030 (2019) 0 (2014) 245 0 0 0 8 318 423 1550
2021-03-10 09:30 0.53 2 2030 (2019) 0 (2014) 245 0 0 0 8 318 423 1550
2021-03-10 08:30 0.54 2 2030 (2019) 0 (2014) 245 0 0 0 8 318 423 1550
2021-03-10 07:30 0.54 2 2030 (2019) 0 (2014) 245 0 0 0 8 318 423 1550
2021-03-10 06:30 0.53 2 2030 (2019) 0 (2014) 245 0 0 0 8 318 423 1550
2021-03-10 05:30 0.57 3 2030 (2019) 0 (2014) 245 0 0 0 8 318 423 1550
2021-03-10 04:30 0.61 3 2030 (2019) 0 (2014) 245 0 0 0 8 318 423 1550
2021-03-10 03:30 0.57 3 2030 (2019) 0 (2014) 245 0 0 0 8 318 423 1550
2021-03-10 02:30 0.56 2 2030 (2019) 0 (2014) 245 0 0 0 8 318 423 1550
2021-03-10 01:30 0.59 3 2030 (2019) 0 (2014) 245 0 0 0 8 318 423 1550
2021-03-10 00:30 0.61 3 2030 (2019) 0 (2014) 245 0 0 0 8 318 423 1550
2021-03-09 23:30 0.58 3 564 (2011) 0 (2014) 119 0 0 0 2 214 376 555
2021-03-09 22:30 0.61 3 564 (2011) 0 (2014) 119 0 0 0 2 214 376 555
2021-03-09 21:30 0.57 3 564 (2011) 0 (2014) 119 0 0 0 2 214 376 555
2021-03-09 20:30 0.58 3 564 (2011) 0 (2014) 119 0 0 0 2 214 376 555
2021-03-09 19:30 0.57 3 564 (2011) 0 (2014) 119 0 0 0 2 214 376 555
2021-03-09 18:30 0.52 2 564 (2011) 0 (2014) 119 0 0 0 2 214 376 555
2021-03-09 17:30 0.56 2 564 (2011) 0 (2014) 119 0 0 0 2 214 376 555
2021-03-09 16:30 0.56 2 564 (2011) 0 (2014) 119 0 0 0 2 214 376 555
2021-03-09 15:30 0.54 2 564 (2011) 0 (2014) 119 0 0 0 2 214 376 555
2021-03-09 14:30 0.57 3 564 (2011) 0 (2014) 119 0 0 0 2 214 376 555
2021-03-09 13:30 0.55 2 564 (2011) 0 (2014) 119 0 0 0 2 214 376 555
2021-03-09 12:30 0.52 2 564 (2011) 0 (2014) 119 0 0 0 2 214 376 555
2021-03-09 11:30 0.61 3 564 (2011) 0 (2014) 119 0 0 0 2 214 376 555
2021-03-09 10:30 0.58 3 564 (2011) 0 (2014) 119 0 0 0 2 214 376 555
2021-03-09 09:30 0.56 2 564 (2011) 0 (2014) 119 0 0 0 2 214 376 555
2021-03-09 08:30 0.56 2 564 (2011) 0 (2014) 119 0 0 0 2 214 376 555
2021-03-09 07:30 0.62 3 564 (2011) 0 (2014) 119 0 0 0 2 214 376 555
2021-03-09 06:30 0.61 3 564 (2011) 0 (2014) 119 0 0 0 2 214 376 555
2021-03-09 05:30 0.62 3 564 (2011) 0 (2014) 119 0 0 0 2 214 376 555
2021-03-09 04:30 0.62 3 564 (2011) 0 (2014) 119 0 0 0 2 214 376 555
2021-03-09 03:30 0.62 3 564 (2011) 0 (2014) 119 0 0 0 2 214 376 555
2021-03-09 02:30 0.61 3 564 (2011) 0 (2014) 119 0 0 0 2 214 376 555
2021-03-09 01:30 0.62 3 564 (2011) 0 (2014) 119 0 0 0 2 214 376 555
2021-03-09 00:30 0.62 3 564 (2011) 0 (2014) 119 0 0 0 2 214 376 555
2021-03-08 23:30 0.62 3 236 (2011) 0 (2014) 35 0 0 0 4 54 71 190
2021-03-08 22:30 0.62 3 236 (2011) 0 (2014) 35 0 0 0 4 54 71 190
2021-03-08 21:30 0.63 4 236 (2011) 0 (2014) 35 0 0 0 4 54 71 190
2021-03-08 20:30 0.63 4 236 (2011) 0 (2014) 35 0 0 0 4 54 71 190
2021-03-08 19:30 0.63 4 236 (2011) 0 (2014) 35 0 0 0 4 54 71 190
2021-03-08 18:30 0.62 3 236 (2011) 0 (2014) 35 0 0 0 4 54 71 190
2021-03-08 17:30 0.63 4 236 (2011) 0 (2014) 35 0 0 0 4 54 71 190
2021-03-08 16:30 0.55 2 236 (2011) 0 (2014) 35 0 0 0 4 54 71 190
2021-03-08 15:30 0.55 2 236 (2011) 0 (2014) 35 0 0 0 4 54 71 190
2021-03-08 14:30 0.63 4 236 (2011) 0 (2014) 35 0 0 0 4 54 71 190
2021-03-08 13:30 0.63 4 236 (2011) 0 (2014) 35 0 0 0 4 54 71 190
2021-03-08 12:30 0.62 3 236 (2011) 0 (2014) 35 0 0 0 4 54 71 190
2021-03-08 11:30 0.63 4 236 (2011) 0 (2014) 35 0 0 0 4 54 71 190
2021-03-08 10:30 0.63 4 236 (2011) 0 (2014) 35 0 0 0 4 54 71 190
2021-03-08 09:30 0.61 3 236 (2011) 0 (2014) 35 0 0 0 4 54 71 190
2021-03-08 08:30 0.63 4 236 (2011) 0 (2014) 35 0 0 0 4 54 71 190
2021-03-08 07:30 0.63 4 236 (2011) 0 (2014) 35 0 0 0 4 54 71 190
2021-03-08 06:30 0.63 4 236 (2011) 0 (2014) 35 0 0 0 4 54 71 190
2021-03-08 05:30 0.63 4 236 (2011) 0 (2014) 35 0 0 0 4 54 71 190
2021-03-08 04:30 0.64 4 236 (2011) 0 (2014) 35 0 0 0 4 54 71 190
2021-03-08 03:30 0.63 4 236 (2011) 0 (2014) 35 0 0 0 4 54 71 190
2021-03-08 02:30 0.63 4 236 (2011) 0 (2014) 35 0 0 0 4 54 71 190
2021-03-08 01:30 0.62 3 236 (2011) 0 (2014) 35 0 0 0 4 54 71 190
2021-03-08 00:30 0.63 4 236 (2011) 0 (2014) 35 0 0 0 4 54 71 190
2021-03-07 23:30 0.64 4 335 (2011) 0 (2014) 48 0 0 0 8 35 78 276
2021-03-07 22:30 0.64 4 335 (2011) 0 (2014) 48 0 0 0 8 35 78 276
2021-03-07 21:30 0.64 4 335 (2011) 0 (2014) 48 0 0 0 8 35 78 276
2021-03-07 20:30 0.64 4 335 (2011) 0 (2014) 48 0 0 0 8 35 78 276
2021-03-07 19:30 0.64 4 335 (2011) 0 (2014) 48 0 0 0 8 35 78 276
2021-03-07 18:30 0.64 4 335 (2011) 0 (2014) 48 0 0 0 8 35 78 276
2021-03-07 17:30 0.64 4 335 (2011) 0 (2014) 48 0 0 0 8 35 78 276
2021-03-07 16:30 0.64 4 335 (2011) 0 (2014) 48 0 0 0 8 35 78 276
2021-03-07 15:30 0.64 4 335 (2011) 0 (2014) 48 0 0 0 8 35 78 276
2021-03-07 14:30 0.57 3 335 (2011) 0 (2014) 48 0 0 0 8 35 78 276
2021-03-07 13:30 0.59 3 335 (2011) 0 (2014) 48 0 0 0 8 35 78 276
2021-03-07 12:30 0.60 3 335 (2011) 0 (2014) 48 0 0 0 8 35 78 276
2021-03-07 11:30 0.63 4 335 (2011) 0 (2014) 48 0 0 0 8 35 78 276
2021-03-07 10:30 0.63 4 335 (2011) 0 (2014) 48 0 0 0 8 35 78 276
2021-03-07 09:30 0.62 3 335 (2011) 0 (2014) 48 0 0 0 8 35 78 276
2021-03-07 08:30 0.64 4 335 (2011) 0 (2014) 48 0 0 0 8 35 78 276
2021-03-07 07:30 0.64 4 335 (2011) 0 (2014) 48 0 0 0 8 35 78 276
2021-03-07 06:30 0.64 4 335 (2011) 0 (2014) 48 0 0 0 8 35 78 276
2021-03-07 05:30 0.64 4 335 (2011) 0 (2014) 48 0 0 0 8 35 78 276
2021-03-07 04:30 0.64 4 335 (2011) 0 (2014) 48 0 0 0 8 35 78 276
2021-03-07 03:30 0.64 4 335 (2011) 0 (2014) 48 0 0 0 8 35 78 276
2021-03-07 02:30 0.64 4 335 (2011) 0 (2014) 48 0 0 0 8 35 78 276
2021-03-07 01:30 0.64 4 335 (2011) 0 (2014) 48 0 0 0 8 35 78 276
2021-03-07 00:30 0.64 4 335 (2011) 0 (2014) 48 0 0 0 8 35 78 276
2021-03-06 23:30 0.64 4 819 (2011) 0 (2014) 87 0 0 0 4 57 72 600
2021-03-06 22:30 0.64 4 819 (2011) 0 (2014) 87 0 0 0 4 57 72 600
2021-03-06 21:30 0.64 4 819 (2011) 0 (2014) 87 0 0 0 4 57 72 600
2021-03-06 20:30 0.65 4 819 (2011) 0 (2014) 87 0 0 0 4 57 72 600
2021-03-06 19:30 0.65 4 819 (2011) 0 (2014) 87 0 0 0 4 57 72 600
2021-03-06 18:30 0.65 4 819 (2011) 0 (2014) 87 0 0 0 4 57 72 600
2021-03-06 17:30 0.65 4 819 (2011) 0 (2014) 87 0 0 0 4 57 72 600
2021-03-06 16:30 0.65 4 819 (2011) 0 (2014) 87 0 0 0 4 57 72 600
2021-03-06 15:30 0.65 4 819 (2011) 0 (2014) 87 0 0 0 4 57 72 600
2021-03-06 14:30 0.64 4 819 (2011) 0 (2014) 87 0 0 0 4 57 72 600
2021-03-06 13:30 0.62 3 819 (2011) 0 (2014) 87 0 0 0 4 57 72 600
2021-03-06 12:30 0.65 4 819 (2011) 0 (2014) 87 0 0 0 4 57 72 600
2021-03-06 11:30 0.65 4 819 (2011) 0 (2014) 87 0 0 0 4 57 72 600
2021-03-06 10:30 0.65 4 819 (2011) 0 (2014) 87 0 0 0 4 57 72 600
2021-03-06 09:30 0.65 4 819 (2011) 0 (2014) 87 0 0 0 4 57 72 600
2021-03-06 08:30 0.65 4 819 (2011) 0 (2014) 87 0 0 0 4 57 72 600
2021-03-06 07:30 0.66 4 819 (2011) 0 (2014) 87 0 0 0 4 57 72 600
2021-03-06 06:30 0.66 4 819 (2011) 0 (2014) 87 0 0 0 4 57 72 600
2021-03-06 05:30 0.66 4 819 (2011) 0 (2014) 87 0 0 0 4 57 72 600
2021-03-06 04:30 0.66 4 819 (2011) 0 (2014) 87 0 0 0 4 57 72 600
2021-03-06 03:30 0.66 4 819 (2011) 0 (2014) 87 0 0 0 4 57 72 600
2021-03-06 02:30 0.66 4 819 (2011) 0 (2014) 87 0 0 0 4 57 72 600
2021-03-06 01:30 0.66 4 819 (2011) 0 (2014) 87 0 0 0 4 57 72 600
2021-03-06 00:30 0.66 4 819 (2011) 0 (2014) 87 0 0 0 4 57 72 600
2021-03-05 23:30 0.67 4 508 (2011) 0 (2014) 60 0 0 0 6 57 72 380
2021-03-05 22:30 0.67 4 508 (2011) 0 (2014) 60 0 0 0 6 57 72 380
2021-03-05 21:30 0.67 4 508 (2011) 0 (2014) 60 0 0 0 6 57 72 380
2021-03-05 20:30 0.67 4 508 (2011) 0 (2014) 60 0 0 0 6 57 72 380
2021-03-05 19:30 0.67 4 508 (2011) 0 (2014) 60 0 0 0 6 57 72 380
2021-03-05 18:30 0.67 4 508 (2011) 0 (2014) 60 0 0 0 6 57 72 380
2021-03-05 17:30 0.67 4 508 (2011) 0 (2014) 60 0 0 0 6 57 72 380
2021-03-05 16:30 0.67 4 508 (2011) 0 (2014) 60 0 0 0 6 57 72 380
2021-03-05 15:30 0.68 5 508 (2011) 0 (2014) 60 0 0 0 6 57 72 380
2021-03-05 14:30 0.62 3 508 (2011) 0 (2014) 60 0 0 0 6 57 72 380
2021-03-05 13:30 0.69 5 508 (2011) 0 (2014) 60 0 0 0 6 57 72 380
2021-03-05 12:30 0.69 5 508 (2011) 0 (2014) 60 0 0 0 6 57 72 380
2021-03-05 11:30 0.69 5 508 (2011) 0 (2014) 60 0 0 0 6 57 72 380
2021-03-05 10:30 0.70 5 508 (2011) 0 (2014) 60 0 0 0 6 57 72 380
2021-03-05 09:30 0.71 5 508 (2011) 0 (2014) 60 0 0 0 6 57 72 380
2021-03-05 08:30 0.71 5 508 (2011) 0 (2014) 60 0 0 0 6 57 72 380
2021-03-05 07:30 0.71 5 508 (2011) 0 (2014) 60 0 0 0 6 57 72 380
2021-03-05 06:30 0.72 5 508 (2011) 0 (2014) 60 0 0 0 6 57 72 380
2021-03-05 05:30 0.73 6 508 (2011) 0 (2014) 60 0 0 0 6 57 72 380
2021-03-05 04:30 0.68 5 508 (2011) 0 (2014) 60 0 0 0 6 57 72 380
2021-03-05 03:30 0.74 6 508 (2011) 0 (2014) 60 0 0 0 6 57 72 380
2021-03-05 02:30 0.74 6 508 (2011) 0 (2014) 60 0 0 0 6 57 72 380
2021-03-05 01:30 0.76 6 508 (2011) 0 (2014) 60 0 0 0 6 57 72 380
2021-03-05 00:30 0.77 7 508 (2011) 0 (2014) 60 0 0 0 6 57 72 380
2021-03-04 23:30 0.77 7 103 (2020) 0 (2014) 31 0 0 0 10 74 90 101
2021-03-04 22:30 0.77 7 103 (2020) 0 (2014) 31 0 0 0 10 74 90 101
2021-03-04 21:30 0.73 6 103 (2020) 0 (2014) 31 0 0 0 10 74 90 101
2021-03-04 20:30 0.78 7 103 (2020) 0 (2014) 31 0 0 0 10 74 90 101
2021-03-04 19:30 0.81 8 103 (2020) 0 (2014) 31 0 0 0 10 74 90 101
2021-03-04 18:30 0.82 8 103 (2020) 0 (2014) 31 0 0 0 10 74 90 101
2021-03-04 17:30 0.82 8 103 (2020) 0 (2014) 31 0 0 0 10 74 90 101
2021-03-04 16:30 0.83 9 103 (2020) 0 (2014) 31 0 0 0 10 74 90 101
2021-03-04 15:30 0.84 9 103 (2020) 0 (2014) 31 0 0 0 10 74 90 101
2021-03-04 14:30 0.85 9 103 (2020) 0 (2014) 31 0 0 0 10 74 90 101
2021-03-04 13:30 0.86 10 103 (2020) 0 (2014) 31 0 0 0 10 74 90 101
2021-03-04 12:30 0.87 10 103 (2020) 0 (2014) 31 0 0 0 10 74 90 101
2021-03-04 11:30 0.88 10 103 (2020) 0 (2014) 31 0 0 0 10 74 90 101
2021-03-04 10:30 0.89 11 103 (2020) 0 (2014) 31 0 0 0 10 74 90 101
2021-03-04 09:30 0.90 11 103 (2020) 0 (2014) 31 0 0 0 10 74 90 101
2021-03-04 08:30 0.92 12 103 (2020) 0 (2014) 31 0 0 0 10 74 90 101
2021-03-04 07:30 0.92 12 103 (2020) 0 (2014) 31 0 0 0 10 74 90 101
2021-03-04 06:30 0.93 12 103 (2020) 0 (2014) 31 0 0 0 10 74 90 101
2021-03-04 05:30 0.95 13 103 (2020) 0 (2014) 31 0 0 0 10 74 90 101
2021-03-04 04:30 0.96 14 103 (2020) 0 (2014) 31 0 0 0 10 74 90 101
2021-03-04 03:30 0.97 14 103 (2020) 0 (2014) 31 0 0 0 10 74 90 101
2021-03-04 02:30 0.98 15 103 (2020) 0 (2014) 31 0 0 0 10 74 90 101
2021-03-04 01:30 0.99 15 103 (2020) 0 (2014) 31 0 0 0 10 74 90 101
2021-03-04 00:30 1.00 16 103 (2020) 0 (2014) 31 0 0 0 10 74 90 101
2021-03-03 23:30 1.01 16 138 (2011) 0 (2014) 43 0 0 0 15 99 119 137
2021-03-03 22:30 1.03 17 138 (2011) 0 (2014) 43 0 0 0 15 99 119 137
2021-03-03 21:30 1.04 18 138 (2011) 0 (2014) 43 0 0 0 15 99 119 137
2021-03-03 20:30 1.05 18 138 (2011) 0 (2014) 43 0 0 0 15 99 119 137
2021-03-03 19:30 1.06 19 138 (2011) 0 (2014) 43 0 0 0 15 99 119 137
2021-03-03 18:30 1.07 19 138 (2011) 0 (2014) 43 0 0 0 15 99 119 137
2021-03-03 17:30 1.08 20 138 (2011) 0 (2014) 43 0 0 0 15 99 119 137
2021-03-03 16:30 1.09 21 138 (2011) 0 (2014) 43 0 0 0 15 99 119 137
2021-03-03 15:30 1.04 18 138 (2011) 0 (2014) 43 0 0 0 15 99 119 137
2021-03-03 14:30 1.11 22 138 (2011) 0 (2014) 43 0 0 0 15 99 119 137
2021-03-03 13:30 1.09 21 138 (2011) 0 (2014) 43 0 0 0 15 99 119 137
2021-03-03 12:30 1.10 21 138 (2011) 0 (2014) 43 0 0 0 15 99 119 137
2021-03-03 11:30 1.12 22 138 (2011) 0 (2014) 43 0 0 0 15 99 119 137
2021-03-03 10:30 1.09 21 138 (2011) 0 (2014) 43 0 0 0 15 99 119 137
2021-03-03 09:30 1.15 24 138 (2011) 0 (2014) 43 0 0 0 15 99 119 137
2021-03-03 08:30 1.16 25 138 (2011) 0 (2014) 43 0 0 0 15 99 119 137
2021-03-03 07:30 1.17 26 138 (2011) 0 (2014) 43 0 0 0 15 99 119 137
2021-03-03 06:30 1.18 26 138 (2011) 0 (2014) 43 0 0 0 15 99 119 137
2021-03-03 05:30 1.19 27 138 (2011) 0 (2014) 43 0 0 0 15 99 119 137
2021-03-03 04:30 1.21 29 138 (2011) 0 (2014) 43 0 0 0 15 99 119 137
2021-03-03 03:30 1.22 29 138 (2011) 0 (2014) 43 0 0 0 15 99 119 137
2021-03-03 02:30 1.22 29 138 (2011) 0 (2014) 43 0 0 0 15 99 119 137
2021-03-03 01:30 1.23 30 138 (2011) 0 (2014) 43 0 0 0 15 99 119 137
2021-03-03 00:30 1.24 31 138 (2011) 0 (2014) 43 0 0 0 15 99 119 137
2021-03-02 23:30 1.25 32 260 (2011) 0 (2014) 70 0 0 0 25 137 167 243
2021-03-02 22:30 1.25 32 260 (2011) 0 (2014) 70 0 0 0 25 137 167 243
2021-03-02 21:30 1.27 34 260 (2011) 0 (2014) 70 0 0 0 25 137 167 243
2021-03-02 20:30 1.27 34 260 (2011) 0 (2014) 70 0 0 0 25 137 167 243
2021-03-02 19:30 1.29 35 260 (2011) 0 (2014) 70 0 0 0 25 137 167 243
2021-03-02 18:30 1.29 35 260 (2011) 0 (2014) 70 0 0 0 25 137 167 243
2021-03-02 17:30 1.29 35 260 (2011) 0 (2014) 70 0 0 0 25 137 167 243
2021-03-02 16:30 1.29 35 260 (2011) 0 (2014) 70 0 0 0 25 137 167 243
2021-03-02 15:30 1.28 34 260 (2011) 0 (2014) 70 0 0 0 25 137 167 243
2021-03-02 14:30 1.32 38 260 (2011) 0 (2014) 70 0 0 0 25 137 167 243
2021-03-02 13:30 1.33 39 260 (2011) 0 (2014) 70 0 0 0 25 137 167 243
2021-03-02 12:30 1.33 39 260 (2011) 0 (2014) 70 0 0 0 25 137 167 243
2021-03-02 11:30 1.33 39 260 (2011) 0 (2014) 70 0 0 0 25 137 167 243
2021-03-02 10:30 1.34 40 260 (2011) 0 (2014) 70 0 0 0 25 137 167 243
2021-03-02 09:30 1.34 40 260 (2011) 0 (2014) 70 0 0 0 25 137 167 243
2021-03-02 08:30 1.36 42 260 (2011) 0 (2014) 70 0 0 0 25 137 167 243
2021-03-02 07:30 1.36 42 260 (2011) 0 (2014) 70 0 0 0 25 137 167 243
2021-03-02 06:30 1.35 41 260 (2011) 0 (2014) 70 0 0 0 25 137 167 243
2021-03-02 05:30 1.35 41 260 (2011) 0 (2014) 70 0 0 0 25 137 167 243
2021-03-02 04:30 1.35 41 260 (2011) 0 (2014) 70 0 0 0 25 137 167 243
2021-03-02 03:30 1.33 39 260 (2011) 0 (2014) 70 0 0 0 25 137 167 243
2021-03-02 02:30 1.32 38 260 (2011) 0 (2014) 70 0 0 0 25 137 167 243
2021-03-02 01:30 1.30 36 260 (2011) 0 (2014) 70 0 0 0 25 137 167 243
2021-03-02 00:30 1.27 34 260 (2011) 0 (2014) 70 0 0 0 25 137 167 243
2021-03-01 23:30 1.20 28 433 (2011) 0 (2014) 111 0 0 0 40 231 279 395
2021-03-01 22:30 1.09 21 433 (2011) 0 (2014) 111 0 0 0 40 231 279 395
2021-03-01 21:30 0.90 11 433 (2011) 0 (2014) 111 0 0 0 40 231 279 395
2021-03-01 20:30 0.75 6 433 (2011) 0 (2014) 111 0 0 0 40 231 279 395
2021-03-01 19:30 0.72 5 433 (2011) 0 (2014) 111 0 0 0 40 231 279 395
2021-03-01 18:30 0.71 5 433 (2011) 0 (2014) 111 0 0 0 40 231 279 395
2021-03-01 17:30 0.71 5 433 (2011) 0 (2014) 111 0 0 0 40 231 279 395
2021-03-01 16:30 0.71 5 433 (2011) 0 (2014) 111 0 0 0 40 231 279 395
2021-03-01 15:30 0.72 5 433 (2011) 0 (2014) 111 0 0 0 40 231 279 395
2021-03-01 14:30 0.71 5 433 (2011) 0 (2014) 111 0 0 0 40 231 279 395
2021-03-01 13:30 0.66 4 433 (2011) 0 (2014) 111 0 0 0 40 231 279 395
2021-03-01 12:30 0.70 5 433 (2011) 0 (2014) 111 0 0 0 40 231 279 395
2021-03-01 11:30 0.73 6 433 (2011) 0 (2014) 111 0 0 0 40 231 279 395
2021-03-01 10:30 0.73 6 433 (2011) 0 (2014) 111 0 0 0 40 231 279 395
2021-03-01 09:30 0.74 6 433 (2011) 0 (2014) 111 0 0 0 40 231 279 395
2021-03-01 08:30 0.74 6 433 (2011) 0 (2014) 111 0 0 0 40 231 279 395
2021-03-01 07:30 0.75 6 433 (2011) 0 (2014) 111 0 0 0 40 231 279 395
2021-03-01 06:30 0.76 6 433 (2011) 0 (2014) 111 0 0 0 40 231 279 395
2021-03-01 05:30 0.76 6 433 (2011) 0 (2014) 111 0 0 0 40 231 279 395
2021-03-01 04:30 0.77 7 433 (2011) 0 (2014) 111 0 0 0 40 231 279 395
2021-03-01 03:30 0.77 7 433 (2011) 0 (2014) 111 0 0 0 40 231 279 395
2021-03-01 02:30 0.76 6 433 (2011) 0 (2014) 111 0 0 0 40 231 279 395
2021-03-01 01:30 0.78 7 433 (2011) 0 (2014) 111 0 0 0 40 231 279 395
2021-03-01 00:30 0.79 7 433 (2011) 0 (2014) 111 0 0 0 40 231 279 395
2021-02-28 23:30 0.76 6 515 (2013) 0 (2014) 139 0 0 0 47 273 349 496
2021-02-28 22:30 0.78 7 515 (2013) 0 (2014) 139 0 0 0 47 273 349 496
2021-02-28 21:30 0.72 5 515 (2013) 0 (2014) 139 0 0 0 47 273 349 496
2021-02-28 20:30 0.77 7 515 (2013) 0 (2014) 139 0 0 0 47 273 349 496
2021-02-28 19:30 0.81 8 515 (2013) 0 (2014) 139 0 0 0 47 273 349 496
2021-02-28 18:30 0.76 6 515 (2013) 0 (2014) 139 0 0 0 47 273 349 496
2021-02-28 17:30 0.76 6 515 (2013) 0 (2014) 139 0 0 0 47 273 349 496
2021-02-28 16:30 0.81 8 515 (2013) 0 (2014) 139 0 0 0 47 273 349 496
2021-02-28 15:30 0.79 7 515 (2013) 0 (2014) 139 0 0 0 47 273 349 496
2021-02-28 14:30 0.80 8 515 (2013) 0 (2014) 139 0 0 0 47 273 349 496
2021-02-28 13:30 0.87 10 515 (2013) 0 (2014) 139 0 0 0 47 273 349 496
2021-02-28 12:30 0.85 9 515 (2013) 0 (2014) 139 0 0 0 47 273 349 496
2021-02-28 11:30 0.88 10 515 (2013) 0 (2014) 139 0 0 0 47 273 349 496
2021-02-28 10:30 0.89 11 515 (2013) 0 (2014) 139 0 0 0 47 273 349 496
2021-02-28 09:30 0.89 11 515 (2013) 0 (2014) 139 0 0 0 47 273 349 496
2021-02-28 08:30 0.89 11 515 (2013) 0 (2014) 139 0 0 0 47 273 349 496
2021-02-28 07:30 0.90 11 515 (2013) 0 (2014) 139 0 0 0 47 273 349 496
2021-02-28 06:30 0.91 12 515 (2013) 0 (2014) 139 0 0 0 47 273 349 496
2021-02-28 05:30 0.92 12 515 (2013) 0 (2014) 139 0 0 0 47 273 349 496
2021-02-28 04:30 0.93 12 515 (2013) 0 (2014) 139 0 0 0 47 273 349 496
2021-02-28 03:30 0.95 13 515 (2013) 0 (2014) 139 0 0 0 47 273 349 496
2021-02-28 02:30 0.94 13 515 (2013) 0 (2014) 139 0 0 0 47 273 349 496
2021-02-28 01:30 0.96 14 515 (2013) 0 (2014) 139 0 0 0 47 273 349 496
2021-02-28 00:30 0.93 12 515 (2013) 0 (2014) 139 0 0 0 47 273 349 496
2021-02-27 23:30 0.98 15 1180 (2013) 0 (2014) 235 0 0 0 31 335 546 1080
2021-02-27 22:30 0.99 15 1180 (2013) 0 (2014) 235 0 0 0 31 335 546 1080
2021-02-27 21:30 0.96 14 1180 (2013) 0 (2014) 235 0 0 0 31 335 546 1080
2021-02-27 20:30 0.98 15 1180 (2013) 0 (2014) 235 0 0 0 31 335 546 1080
2021-02-27 19:30 1.00 16 1180 (2013) 0 (2014) 235 0 0 0 31 335 546 1080
2021-02-27 18:30 0.99 15 1180 (2013) 0 (2014) 235 0 0 0 31 335 546 1080
2021-02-27 17:30 0.97 14 1180 (2013) 0 (2014) 235 0 0 0 31 335 546 1080
2021-02-27 16:30 0.98 15 1180 (2013) 0 (2014) 235 0 0 0 31 335 546 1080
2021-02-27 15:30 1.02 17 1180 (2013) 0 (2014) 235 0 0 0 31 335 546 1080
2021-02-27 14:30 1.03 17 1180 (2013) 0 (2014) 235 0 0 0 31 335 546 1080
2021-02-27 13:30 1.07 19 1180 (2013) 0 (2014) 235 0 0 0 31 335 546 1080
2021-02-27 12:30 1.03 17 1180 (2013) 0 (2014) 235 0 0 0 31 335 546 1080
2021-02-27 11:30 1.05 18 1180 (2013) 0 (2014) 235 0 0 0 31 335 546 1080
2021-02-27 10:30 1.05 18 1180 (2013) 0 (2014) 235 0 0 0 31 335 546 1080
2021-02-27 09:30 1.11 22 1180 (2013) 0 (2014) 235 0 0 0 31 335 546 1080
2021-02-27 08:30 1.13 23 1180 (2013) 0 (2014) 235 0 0 0 31 335 546 1080
2021-02-27 07:30 1.14 24 1180 (2013) 0 (2014) 235 0 0 0 31 335 546 1080
2021-02-27 06:30 1.15 24 1180 (2013) 0 (2014) 235 0 0 0 31 335 546 1080
2021-02-27 05:30 1.16 25 1180 (2013) 0 (2014) 235 0 0 0 31 335 546 1080
2021-02-27 04:30 1.18 26 1180 (2013) 0 (2014) 235 0 0 0 31 335 546 1080
2021-02-27 03:30 1.18 26 1180 (2013) 0 (2014) 235 0 0 0 31 335 546 1080
2021-02-27 02:30 1.20 28 1180 (2013) 0 (2014) 235 0 0 0 31 335 546 1080
2021-02-27 01:30 1.15 24 1180 (2013) 0 (2014) 235 0 0 0 31 335 546 1080
2021-02-27 00:30 1.22 29 1180 (2013) 0 (2014) 235 0 0 0 31 335 546 1080
2021-02-26 23:30 1.23 30 1760 (2018) 0 (2015) 338 0 0 0 42 645 706 1460
2021-02-26 22:30 1.24 31 1760 (2018) 0 (2015) 338 0 0 0 42 645 706 1460
2021-02-26 21:30 1.24 31 1760 (2018) 0 (2015) 338 0 0 0 42 645 706 1460
2021-02-26 20:30 1.25 32 1760 (2018) 0 (2015) 338 0 0 0 42 645 706 1460
2021-02-26 19:30 1.27 34 1760 (2018) 0 (2015) 338 0 0 0 42 645 706 1460
2021-02-26 18:30 1.26 33 1760 (2018) 0 (2015) 338 0 0 0 42 645 706 1460
2021-02-26 17:30 1.29 35 1760 (2018) 0 (2015) 338 0 0 0 42 645 706 1460
2021-02-26 16:30 1.28 34 1760 (2018) 0 (2015) 338 0 0 0 42 645 706 1460
2021-02-26 15:30 1.31 37 1760 (2018) 0 (2015) 338 0 0 0 42 645 706 1460
2021-02-26 14:30 1.31 37 1760 (2018) 0 (2015) 338 0 0 0 42 645 706 1460
2021-02-26 13:30 1.32 38 1760 (2018) 0 (2015) 338 0 0 0 42 645 706 1460
2021-02-26 12:30 1.33 39 1760 (2018) 0 (2015) 338 0 0 0 42 645 706 1460
2021-02-26 11:30 1.34 40 1760 (2018) 0 (2015) 338 0 0 0 42 645 706 1460
2021-02-26 10:30 1.37 43 1760 (2018) 0 (2015) 338 0 0 0 42 645 706 1460
2021-02-26 09:30 1.38 44 1760 (2018) 0 (2015) 338 0 0 0 42 645 706 1460
2021-02-26 08:30 1.40 46 1760 (2018) 0 (2015) 338 0 0 0 42 645 706 1460
2021-02-26 07:30 1.41 47 1760 (2018) 0 (2015) 338 0 0 0 42 645 706 1460
2021-02-26 06:30 1.42 48 1760 (2018) 0 (2015) 338 0 0 0 42 645 706 1460
2021-02-26 05:30 1.42 48 1760 (2018) 0 (2015) 338 0 0 0 42 645 706 1460
2021-02-26 04:30 1.44 50 1760 (2018) 0 (2015) 338 0 0 0 42 645 706 1460
2021-02-26 03:30 1.44 50 1760 (2018) 0 (2015) 338 0 0 0 42 645 706 1460
2021-02-26 02:30 1.46 53 1760 (2018) 0 (2015) 338 0 0 0 42 645 706 1460
2021-02-26 01:30 1.48 55 1760 (2018) 0 (2015) 338 0 0 0 42 645 706 1460
2021-02-26 00:30 1.50 58 1760 (2018) 0 (2015) 338 0 0 0 42 645 706 1460
2021-02-25 23:30 1.50 58 6240 (2018) 0 (2015) 761 0 0 0 3 746 1150 4840
2021-02-25 22:30 1.52 60 6240 (2018) 0 (2015) 761 0 0 0 3 746 1150 4840
2021-02-25 21:30 1.52 60 6240 (2018) 0 (2015) 761 0 0 0 3 746 1150 4840
2021-02-25 20:30 1.54 63 6240 (2018) 0 (2015) 761 0 0 0 3 746 1150 4840
2021-02-25 19:30 1.56 65 6240 (2018) 0 (2015) 761 0 0 0 3 746 1150 4840
2021-02-25 18:30 1.56 65 6240 (2018) 0 (2015) 761 0 0 0 3 746 1150 4840
2021-02-25 17:30 1.58 68 6240 (2018) 0 (2015) 761 0 0 0 3 746 1150 4840
2021-02-25 16:30 1.58 68 6240 (2018) 0 (2015) 761 0 0 0 3 746 1150 4840
2021-02-25 15:30 1.59 70 6240 (2018) 0 (2015) 761 0 0 0 3 746 1150 4840
2021-02-25 14:30 1.59 70 6240 (2018) 0 (2015) 761 0 0 0 3 746 1150 4840
2021-02-25 13:30 1.60 71 6240 (2018) 0 (2015) 761 0 0 0 3 746 1150 4840
2021-02-25 12:30 1.62 74 6240 (2018) 0 (2015) 761 0 0 0 3 746 1150 4840
2021-02-25 11:30 1.61 72 6240 (2018) 0 (2015) 761 0 0 0 3 746 1150 4840
2021-02-25 10:30 1.62 74 6240 (2018) 0 (2015) 761 0 0 0 3 746 1150 4840
2021-02-25 09:30 1.63 75 6240 (2018) 0 (2015) 761 0 0 0 3 746 1150 4840
2021-02-25 08:30 1.62 74 6240 (2018) 0 (2015) 761 0 0 0 3 746 1150 4840
2021-02-25 07:30 1.62 74 6240 (2018) 0 (2015) 761 0 0 0 3 746 1150 4840
2021-02-25 06:30 1.63 75 6240 (2018) 0 (2015) 761 0 0 0 3 746 1150 4840
2021-02-25 05:30 1.61 72 6240 (2018) 0 (2015) 761 0 0 0 3 746 1150 4840
2021-02-25 04:30 1.58 68 6240 (2018) 0 (2015) 761 0 0 0 3 746 1150 4840
2021-02-25 03:30 1.54 63 6240 (2018) 0 (2015) 761 0 0 0 3 746 1150 4840
2021-02-25 02:30 1.45 52 6240 (2018) 0 (2015) 761 0 0 0 3 746 1150 4840
2021-02-25 01:30 1.13 23 6240 (2018) 0 (2015) 761 0 0 0 3 746 1150 4840
2021-02-25 00:30 0.63 4 6240 (2018) 0 (2015) 761 0 0 0 3 746 1150 4840
2021-02-24 23:30 0.63 4 5580 (2018) 0 (2015) 536 0 0 0 3 123 345 4100
2021-02-24 22:30 0.56 2 5580 (2018) 0 (2015) 536 0 0 0 3 123 345 4100
2021-02-24 21:30 0.58 3 5580 (2018) 0 (2015) 536 0 0 0 3 123 345 4100
2021-02-24 20:30 0.63 4 5580 (2018) 0 (2015) 536 0 0 0 3 123 345 4100
2021-02-24 19:30 0.58 3 5580 (2018) 0 (2015) 536 0 0 0 3 123 345 4100
2021-02-24 18:30 0.57 3 5580 (2018) 0 (2015) 536 0 0 0 3 123 345 4100
2021-02-24 17:30 0.56 2 5580 (2018) 0 (2015) 536 0 0 0 3 123 345 4100
2021-02-24 16:30 0.56 2 5580 (2018) 0 (2015) 536 0 0 0 3 123 345 4100
2021-02-24 15:30 0.58 3 5580 (2018) 0 (2015) 536 0 0 0 3 123 345 4100
2021-02-24 14:30 0.62 3 5580 (2018) 0 (2015) 536 0 0 0 3 123 345 4100
2021-02-24 13:30 0.56 2 5580 (2018) 0 (2015) 536 0 0 0 3 123 345 4100
2021-02-24 12:30 0.56 2 5580 (2018) 0 (2015) 536 0 0 0 3 123 345 4100
2021-02-24 11:30 0.63 4 5580 (2018) 0 (2015) 536 0 0 0 3 123 345 4100
2021-02-24 10:30 0.62 3 5580 (2018) 0 (2015) 536 0 0 0 3 123 345 4100
2021-02-24 09:30 0.55 2 5580 (2018) 0 (2015) 536 0 0 0 3 123 345 4100
2021-02-24 08:30 0.62 3 5580 (2018) 0 (2015) 536 0 0 0 3 123 345 4100
2021-02-24 07:30 0.63 4 5580 (2018) 0 (2015) 536 0 0 0 3 123 345 4100
2021-02-24 06:30 0.63 4 5580 (2018) 0 (2015) 536 0 0 0 3 123 345 4100
2021-02-24 05:30 0.63 4 5580 (2018) 0 (2015) 536 0 0 0 3 123 345 4100
2021-02-24 04:30 0.63 4 5580 (2018) 0 (2015) 536 0 0 0 3 123 345 4100
2021-02-24 03:30 0.63 4 5580 (2018) 0 (2015) 536 0 0 0 3 123 345 4100
2021-02-24 02:30 0.63 4 5580 (2018) 0 (2015) 536 0 0 0 3 123 345 4100
2021-02-24 01:30 0.63 4 5580 (2018) 0 (2015) 536 0 0 0 3 123 345 4100
2021-02-24 00:30 0.63 4 5580 (2018) 0 (2015) 536 0 0 0 3 123 345 4100
2021-02-23 23:30 0.63 4 577 (2019) 0 (2015) 84 0 0 0 3 125 187 473
2021-02-23 22:30 0.64 4 577 (2019) 0 (2015) 84 0 0 0 3 125 187 473
2021-02-23 21:30 0.64 4 577 (2019) 0 (2015) 84 0 0 0 3 125 187 473
2021-02-23 20:30 0.64 4 577 (2019) 0 (2015) 84 0 0 0 3 125 187 473
2021-02-23 19:30 0.64 4 577 (2019) 0 (2015) 84 0 0 0 3 125 187 473
2021-02-23 18:30 0.64 4 577 (2019) 0 (2015) 84 0 0 0 3 125 187 473
2021-02-23 17:30 0.63 4 577 (2019) 0 (2015) 84 0 0 0 3 125 187 473
2021-02-23 16:30 0.63 4 577 (2019) 0 (2015) 84 0 0 0 3 125 187 473
2021-02-23 15:30 0.60 3 577 (2019) 0 (2015) 84 0 0 0 3 125 187 473
2021-02-23 14:30 0.57 3 577 (2019) 0 (2015) 84 0 0 0 3 125 187 473
2021-02-23 13:30 0.61 3 577 (2019) 0 (2015) 84 0 0 0 3 125 187 473
2021-02-23 12:30 0.64 4 577 (2019) 0 (2015) 84 0 0 0 3 125 187 473
2021-02-23 11:30 0.64 4 577 (2019) 0 (2015) 84 0 0 0 3 125 187 473
2021-02-23 10:30 0.64 4 577 (2019) 0 (2015) 84 0 0 0 3 125 187 473
2021-02-23 09:30 0.64 4 577 (2019) 0 (2015) 84 0 0 0 3 125 187 473
2021-02-23 08:30 0.64 4 577 (2019) 0 (2015) 84 0 0 0 3 125 187 473
2021-02-23 07:30 0.64 4 577 (2019) 0 (2015) 84 0 0 0 3 125 187 473
2021-02-23 06:30 0.64 4 577 (2019) 0 (2015) 84 0 0 0 3 125 187 473
2021-02-23 05:30 0.64 4 577 (2019) 0 (2015) 84 0 0 0 3 125 187 473
2021-02-23 04:30 0.64 4 577 (2019) 0 (2015) 84 0 0 0 3 125 187 473
2021-02-23 03:30 0.64 4 577 (2019) 0 (2015) 84 0 0 0 3 125 187 473
2021-02-23 02:30 0.64 4 577 (2019) 0 (2015) 84 0 0 0 3 125 187 473
2021-02-23 01:30 0.64 4 577 (2019) 0 (2015) 84 0 0 0 3 125 187 473
2021-02-23 00:30 0.64 4 577 (2019) 0 (2015) 84 0 0 0 3 125 187 473
2021-02-22 23:30 0.65 4 518 (2019) 0 (2016) 91 0 0 0 4 74 224 492
2021-02-22 22:30 0.64 4 518 (2019) 0 (2016) 91 0 0 0 4 74 224 492
2021-02-22 21:30 0.64 4 518 (2019) 0 (2016) 91 0 0 0 4 74 224 492
2021-02-22 20:30 0.65 4 518 (2019) 0 (2016) 91 0 0 0 4 74 224 492
2021-02-22 19:30 0.65 4 518 (2019) 0 (2016) 91 0 0 0 4 74 224 492
2021-02-22 18:30 0.65 4 518 (2019) 0 (2016) 91 0 0 0 4 74 224 492
2021-02-22 17:30 0.65 4 518 (2019) 0 (2016) 91 0 0 0 4 74 224 492
2021-02-22 16:30 0.66 4 518 (2019) 0 (2016) 91 0 0 0 4 74 224 492
2021-02-22 15:30 0.65 4 518 (2019) 0 (2016) 91 0 0 0 4 74 224 492
2021-02-22 14:30 0.65 4 518 (2019) 0 (2016) 91 0 0 0 4 74 224 492
2021-02-22 13:30 0.63 4 518 (2019) 0 (2016) 91 0 0 0 4 74 224 492
2021-02-22 12:30 0.66 4 518 (2019) 0 (2016) 91 0 0 0 4 74 224 492
2021-02-22 11:30 0.66 4 518 (2019) 0 (2016) 91 0 0 0 4 74 224 492
2021-02-22 10:30 0.65 4 518 (2019) 0 (2016) 91 0 0 0 4 74 224 492
2021-02-22 09:30 0.64 4 518 (2019) 0 (2016) 91 0 0 0 4 74 224 492
2021-02-22 08:30 0.65 4 518 (2019) 0 (2016) 91 0 0 0 4 74 224 492
2021-02-22 07:30 0.63 4 518 (2019) 0 (2016) 91 0 0 0 4 74 224 492
2021-02-22 06:30 0.64 4 518 (2019) 0 (2016) 91 0 0 0 4 74 224 492
2021-02-22 05:30 0.63 4 518 (2019) 0 (2016) 91 0 0 0 4 74 224 492
2021-02-22 04:30 0.59 3 518 (2019) 0 (2016) 91 0 0 0 4 74 224 492
2021-02-22 03:30 0.40 1 518 (2019) 0 (2016) 91 0 0 0 4 74 224 492
2021-02-22 02:30 0.63 4 518 (2019) 0 (2016) 91 0 0 0 4 74 224 492
2021-02-22 01:30 0.64 4 518 (2019) 0 (2016) 91 0 0 0 4 74 224 492
2021-02-22 00:30 0.62 3 518 (2019) 0 (2016) 91 0 0 0 4 74 224 492
2021-02-21 23:30 0.62 3 577 (2019) 0 (2016) 65 0 0 0 6 53 78 434
2021-02-21 22:30 0.62 3 577 (2019) 0 (2016) 65 0 0 0 6 53 78 434
2021-02-21 21:30 0.60 3 577 (2019) 0 (2016) 65 0 0 0 6 53 78 434
2021-02-21 20:30 0.57 3 577 (2019) 0 (2016) 65 0 0 0 6 53 78 434
2021-02-21 19:30 0.47 1 577 (2019) 0 (2016) 65 0 0 0 6 53 78 434
2021-02-21 18:30 0.49 2 577 (2019) 0 (2016) 65 0 0 0 6 53 78 434
2021-02-21 17:30 0.54 2 577 (2019) 0 (2016) 65 0 0 0 6 53 78 434
2021-02-21 16:30 0.63 4 577 (2019) 0 (2016) 65 0 0 0 6 53 78 434
2021-02-21 15:30 0.65 4 577 (2019) 0 (2016) 65 0 0 0 6 53 78 434
2021-02-21 14:30 0.65 4 577 (2019) 0 (2016) 65 0 0 0 6 53 78 434
2021-02-21 13:30 0.64 4 577 (2019) 0 (2016) 65 0 0 0 6 53 78 434
2021-02-21 12:30 0.60 3 577 (2019) 0 (2016) 65 0 0 0 6 53 78 434
2021-02-21 11:30 0.61 3 577 (2019) 0 (2016) 65 0 0 0 6 53 78 434
2021-02-21 10:30 0.61 3 577 (2019) 0 (2016) 65 0 0 0 6 53 78 434
2021-02-21 09:30 0.62 3 577 (2019) 0 (2016) 65 0 0 0 6 53 78 434
2021-02-21 08:30 0.62 3 577 (2019) 0 (2016) 65 0 0 0 6 53 78 434
2021-02-21 07:30 0.62 3 577 (2019) 0 (2016) 65 0 0 0 6 53 78 434
2021-02-21 06:30 0.63 4 577 (2019) 0 (2016) 65 0 0 0 6 53 78 434
2021-02-21 05:30 0.63 4 577 (2019) 0 (2016) 65 0 0 0 6 53 78 434
2021-02-21 04:30 0.63 4 577 (2019) 0 (2016) 65 0 0 0 6 53 78 434
2021-02-21 03:30 0.63 4 577 (2019) 0 (2016) 65 0 0 0 6 53 78 434
2021-02-21 02:30 0.62 3 577 (2019) 0 (2016) 65 0 0 0 6 53 78 434
2021-02-21 01:30 0.61 3 577 (2019) 0 (2016) 65 0 0 0 6 53 78 434
2021-02-21 00:30 0.61 3 577 (2019) 0 (2016) 65 0 0 0 6 53 78 434
2021-02-20 23:30 0.61 3 88 (2020) 0 (2015) 19 0 0 0 5 32 44 78
2021-02-20 22:30 0.60 3 88 (2020) 0 (2015) 19 0 0 0 5 32 44 78
2021-02-20 21:30 0.60 3 88 (2020) 0 (2015) 19 0 0 0 5 32 44 78
2021-02-20 20:30 0.60 3 88 (2020) 0 (2015) 19 0 0 0 5 32 44 78
2021-02-20 19:30 0.61 3 88 (2020) 0 (2015) 19 0 0 0 5 32 44 78
2021-02-20 18:30 0.60 3 88 (2020) 0 (2015) 19 0 0 0 5 32 44 78
2021-02-20 17:30 0.61 3 88 (2020) 0 (2015) 19 0 0 0 5 32 44 78
2021-02-20 16:30 0.61 3 88 (2020) 0 (2015) 19 0 0 0 5 32 44 78
2021-02-20 15:30 0.62 3 88 (2020) 0 (2015) 19 0 0 0 5 32 44 78
2021-02-20 14:30 0.62 3 88 (2020) 0 (2015) 19 0 0 0 5 32 44 78
2021-02-20 13:30 0.76 6 88 (2020) 0 (2015) 19 0 0 0 5 32 44 78
2021-02-20 12:30 0.51 2 88 (2020) 0 (2015) 19 0 0 0 5 32 44 78
2021-02-20 11:30 0.86 10 88 (2020) 0 (2015) 19 0 0 0 5 32 44 78
2021-02-20 10:30 0.62 3 88 (2020) 0 (2015) 19 0 0 0 5 32 44 78
2021-02-20 09:30 0.64 4 88 (2020) 0 (2015) 19 0 0 0 5 32 44 78
2021-02-20 08:30 0.63 4 88 (2020) 0 (2015) 19 0 0 0 5 32 44 78
2021-02-20 07:30 0.62 3 88 (2020) 0 (2015) 19 0 0 0 5 32 44 78
2021-02-20 06:30 0.61 3 88 (2020) 0 (2015) 19 0 0 0 5 32 44 78
2021-02-20 05:30 0.62 3 88 (2020) 0 (2015) 19 0 0 0 5 32 44 78
2021-02-20 04:30 0.63 4 88 (2020) 0 (2015) 19 0 0 0 5 32 44 78
2021-02-20 03:30 0.64 4 88 (2020) 0 (2015) 19 0 0 0 5 32 44 78
2021-02-20 02:30 0.65 4 88 (2020) 0 (2015) 19 0 0 0 5 32 44 78
2021-02-20 01:30 0.64 4 88 (2020) 0 (2015) 19 0 0 0 5 32 44 78
2021-02-20 00:30 0.63 4 88 (2020) 0 (2015) 19 0 0 0 5 32 44 78
2021-02-19 23:30 0.64 4 114 (2020) 0 (2015) 27 0 0 0 12 50 60 100
2021-02-19 22:30 0.65 4 114 (2020) 0 (2015) 27 0 0 0 12 50 60 100
2021-02-19 21:30 0.62 3 114 (2020) 0 (2015) 27 0 0 0 12 50 60 100
2021-02-19 20:30 0.63 4 114 (2020) 0 (2015) 27 0 0 0 12 50 60 100
2021-02-19 19:30 0.62 3 114 (2020) 0 (2015) 27 0 0 0 12 50 60 100
2021-02-19 18:30 0.62 3 114 (2020) 0 (2015) 27 0 0 0 12 50 60 100
2021-02-19 17:30 0.67 4 114 (2020) 0 (2015) 27 0 0 0 12 50 60 100
2021-02-19 16:30 0.68 5 114 (2020) 0 (2015) 27 0 0 0 12 50 60 100
2021-02-19 15:30 0.66 4 114 (2020) 0 (2015) 27 0 0 0 12 50 60 100
2021-02-19 14:30 0.61 3 114 (2020) 0 (2015) 27 0 0 0 12 50 60 100
2021-02-19 13:30 0.60 3 114 (2020) 0 (2015) 27 0 0 0 12 50 60 100
2021-02-19 12:30 0.61 3 114 (2020) 0 (2015) 27 0 0 0 12 50 60 100
2021-02-19 11:30 0.62 3 114 (2020) 0 (2015) 27 0 0 0 12 50 60 100
2021-02-19 10:30 0.63 4 114 (2020) 0 (2015) 27 0 0 0 12 50 60 100
2021-02-19 09:30 0.64 4 114 (2020) 0 (2015) 27 0 0 0 12 50 60 100
2021-02-19 08:30 0.65 4 114 (2020) 0 (2015) 27 0 0 0 12 50 60 100
2021-02-19 07:30 0.66 4 114 (2020) 0 (2015) 27 0 0 0 12 50 60 100
2021-02-19 06:30 0.63 4 114 (2020) 0 (2015) 27 0 0 0 12 50 60 100
2021-02-19 05:30 0.61 3 114 (2020) 0 (2015) 27 0 0 0 12 50 60 100
2021-02-19 04:30 0.61 3 114 (2020) 0 (2015) 27 0 0 0 12 50 60 100
2021-02-19 03:30 0.62 3 114 (2020) 0 (2015) 27 0 0 0 12 50 60 100
2021-02-19 02:30 0.63 4 114 (2020) 0 (2015) 27 0 0 0 12 50 60 100
2021-02-19 01:30 0.64 4 114 (2020) 0 (2015) 27 0 0 0 12 50 60 100
2021-02-19 00:30 0.64 4 114 (2020) 0 (2015) 27 0 0 0 12 50 60 100
2021-02-18 23:30 0.64 4 153 (2020) 0 (2016) 44 0 0 0 19 79 100 145
2021-02-18 22:30 0.65 4 153 (2020) 0 (2016) 44 0 0 0 19 79 100 145
2021-02-18 21:30 0.65 4 153 (2020) 0 (2016) 44 0 0 0 19 79 100 145
2021-02-18 20:30 0.65 4 153 (2020) 0 (2016) 44 0 0 0 19 79 100 145
2021-02-18 19:30 0.65 4 153 (2020) 0 (2016) 44 0 0 0 19 79 100 145
2021-02-18 18:30 0.65 4 153 (2020) 0 (2016) 44 0 0 0 19 79 100 145
2021-02-18 17:30 0.63 4 153 (2020) 0 (2016) 44 0 0 0 19 79 100 145
2021-02-18 16:30 0.63 4 153 (2020) 0 (2016) 44 0 0 0 19 79 100 145
2021-02-18 15:30 0.63 4 153 (2020) 0 (2016) 44 0 0 0 19 79 100 145
2021-02-18 14:30 0.64 4 153 (2020) 0 (2016) 44 0 0 0 19 79 100 145
2021-02-18 13:30 0.65 4 153 (2020) 0 (2016) 44 0 0 0 19 79 100 145
2021-02-18 12:30 0.66 4 153 (2020) 0 (2016) 44 0 0 0 19 79 100 145
2021-02-18 11:30 0.65 4 153 (2020) 0 (2016) 44 0 0 0 19 79 100 145
2021-02-18 10:30 0.65 4 153 (2020) 0 (2016) 44 0 0 0 19 79 100 145
2021-02-18 09:30 0.65 4 153 (2020) 0 (2016) 44 0 0 0 19 79 100 145
2021-02-18 08:30 0.66 4 153 (2020) 0 (2016) 44 0 0 0 19 79 100 145
2021-02-18 07:30 0.65 4 153 (2020) 0 (2016) 44 0 0 0 19 79 100 145
2021-02-18 06:30 0.65 4 153 (2020) 0 (2016) 44 0 0 0 19 79 100 145
2021-02-18 05:30 0.65 4 153 (2020) 0 (2016) 44 0 0 0 19 79 100 145
2021-02-18 04:30 0.64 4 153 (2020) 0 (2016) 44 0 0 0 19 79 100 145
2021-02-18 03:30 0.64 4 153 (2020) 0 (2016) 44 0 0 0 19 79 100 145
2021-02-18 02:30 0.64 4 153 (2020) 0 (2016) 44 0 0 0 19 79 100 145
2021-02-18 01:30 0.64 4 153 (2020) 0 (2016) 44 0 0 0 19 79 100 145
2021-02-18 00:30 0.64 4 153 (2020) 0 (2016) 44 0 0 0 19 79 100 145
2021-02-17 23:30 0.64 4 254 (2012) 0 (2017) 72 0 0 0 26 143 170 238
2021-02-17 22:30 0.64 4 254 (2012) 0 (2017) 72 0 0 0 26 143 170 238
2021-02-17 21:30 0.64 4 254 (2012) 0 (2017) 72 0 0 0 26 143 170 238
2021-02-17 20:30 0.64 4 254 (2012) 0 (2017) 72 0 0 0 26 143 170 238
2021-02-17 19:30 0.64 4 254 (2012) 0 (2017) 72 0 0 0 26 143 170 238
2021-02-17 18:30 0.64 4 254 (2012) 0 (2017) 72 0 0 0 26 143 170 238
2021-02-17 17:30 0.64 4 254 (2012) 0 (2017) 72 0 0 0 26 143 170 238
2021-02-17 16:30 0.65 4 254 (2012) 0 (2017) 72 0 0 0 26 143 170 238
2021-02-17 15:30 0.65 4 254 (2012) 0 (2017) 72 0 0 0 26 143 170 238
2021-02-17 14:30 0.65 4 254 (2012) 0 (2017) 72 0 0 0 26 143 170 238
2021-02-17 13:30 0.65 4 254 (2012) 0 (2017) 72 0 0 0 26 143 170 238
2021-02-17 12:30 0.65 4 254 (2012) 0 (2017) 72 0 0 0 26 143 170 238
2021-02-17 11:30 0.65 4 254 (2012) 0 (2017) 72 0 0 0 26 143 170 238
2021-02-17 10:30 0.65 4 254 (2012) 0 (2017) 72 0 0 0 26 143 170 238
2021-02-17 09:30 0.66 4 254 (2012) 0 (2017) 72 0 0 0 26 143 170 238
2021-02-17 08:30 0.67 4 254 (2012) 0 (2017) 72 0 0 0 26 143 170 238
2021-02-17 07:30 0.67 4 254 (2012) 0 (2017) 72 0 0 0 26 143 170 238
2021-02-17 06:30 254 (2012) 0 (2017) 72 0 0 0 26 143 170 238
2021-02-17 05:30 254 (2012) 0 (2017) 72 0 0 0 26 143 170 238
2021-02-17 04:30 254 (2012) 0 (2017) 72 0 0 0 26 143 170 238
2021-02-17 03:30 254 (2012) 0 (2017) 72 0 0 0 26 143 170 238
2021-02-17 02:30 254 (2012) 0 (2017) 72 0 0 0 26 143 170 238
2021-02-17 01:30 254 (2012) 0 (2017) 72 0 0 0 26 143 170 238
2021-02-17 00:30 254 (2012) 0 (2017) 72 0 0 0 26 143 170 238
2021-02-16 23:30 265 (2020) 0 (2017) 76 0 0 0 35 157 173 243
2021-02-16 22:30 265 (2020) 0 (2017) 76 0 0 0 35 157 173 243
2021-02-16 21:30 265 (2020) 0 (2017) 76 0 0 0 35 157 173 243
2021-02-16 20:30 265 (2020) 0 (2017) 76 0 0 0 35 157 173 243
2021-02-16 19:30 265 (2020) 0 (2017) 76 0 0 0 35 157 173 243
2021-02-16 18:30 265 (2020) 0 (2017) 76 0 0 0 35 157 173 243
2021-02-16 17:30 265 (2020) 0 (2017) 76 0 0 0 35 157 173 243
2021-02-16 16:30 265 (2020) 0 (2017) 76 0 0 0 35 157 173 243
2021-02-16 15:30 265 (2020) 0 (2017) 76 0 0 0 35 157 173 243
2021-02-16 14:30 265 (2020) 0 (2017) 76 0 0 0 35 157 173 243
2021-02-16 13:30 265 (2020) 0 (2017) 76 0 0 0 35 157 173 243
2021-02-16 12:30 265 (2020) 0 (2017) 76 0 0 0 35 157 173 243
2021-02-16 11:30 265 (2020) 0 (2017) 76 0 0 0 35 157 173 243
2021-02-16 10:30 265 (2020) 0 (2017) 76 0 0 0 35 157 173 243
2021-02-16 09:30 265 (2020) 0 (2017) 76 0 0 0 35 157 173 243
2021-02-16 08:30 265 (2020) 0 (2017) 76 0 0 0 35 157 173 243
2021-02-16 07:30 265 (2020) 0 (2017) 76 0 0 0 35 157 173 243
2021-02-16 06:30 265 (2020) 0 (2017) 76 0 0 0 35 157 173 243
2021-02-16 05:30 265 (2020) 0 (2017) 76 0 0 0 35 157 173 243
2021-02-16 04:30 265 (2020) 0 (2017) 76 0 0 0 35 157 173 243
2021-02-16 02:30 265 (2020) 0 (2017) 76 0 0 0 35 157 173 243
2021-02-16 01:30 265 (2020) 0 (2017) 76 0 0 0 35 157 173 243
2021-02-16 00:30 265 (2020) 0 (2017) 76 0 0 0 35 157 173 243
2021-02-15 23:30 377 (2020) 0 (2016) 85 0 0 0 2 201 269 356
2021-02-15 22:30 377 (2020) 0 (2016) 85 0 0 0 2 201 269 356
2021-02-15 21:30 377 (2020) 0 (2016) 85 0 0 0 2 201 269 356
2021-02-15 20:30 377 (2020) 0 (2016) 85 0 0 0 2 201 269 356
2021-02-15 19:30 377 (2020) 0 (2016) 85 0 0 0 2 201 269 356
2021-02-15 18:30 377 (2020) 0 (2016) 85 0 0 0 2 201 269 356
2021-02-15 17:30 377 (2020) 0 (2016) 85 0 0 0 2 201 269 356
2021-02-15 16:30 377 (2020) 0 (2016) 85 0 0 0 2 201 269 356
2021-02-15 15:30 377 (2020) 0 (2016) 85 0 0 0 2 201 269 356
2021-02-15 14:30 377 (2020) 0 (2016) 85 0 0 0 2 201 269 356
2021-02-15 13:30 377 (2020) 0 (2016) 85 0 0 0 2 201 269 356
2021-02-15 12:30 377 (2020) 0 (2016) 85 0 0 0 2 201 269 356
2021-02-15 11:30 377 (2020) 0 (2016) 85 0 0 0 2 201 269 356
2021-02-15 10:30 377 (2020) 0 (2016) 85 0 0 0 2 201 269 356
2021-02-15 09:30 0.71 5 377 (2020) 0 (2016) 85 0 0 0 2 201 269 356
2021-02-15 08:30 0.38 1 377 (2020) 0 (2016) 85 0 0 0 2 201 269 356
2021-02-15 07:30 0.59 3 377 (2020) 0 (2016) 85 0 0 0 2 201 269 356
2021-02-15 06:30 0.50 2 377 (2020) 0 (2016) 85 0 0 0 2 201 269 356
2021-02-15 05:30 0.77 7 377 (2020) 0 (2016) 85 0 0 0 2 201 269 356
2021-02-15 04:30 0.76 6 377 (2020) 0 (2016) 85 0 0 0 2 201 269 356
2021-02-15 03:30 0.67 4 377 (2020) 0 (2016) 85 0 0 0 2 201 269 356
2021-02-15 02:30 0.60 3 377 (2020) 0 (2016) 85 0 0 0 2 201 269 356
2021-02-15 01:30 0.53 2 377 (2020) 0 (2016) 85 0 0 0 2 201 269 356
2021-02-15 00:30 0.72 5 377 (2020) 0 (2016) 85 0 0 0 2 201 269 356
2021-02-14 23:30 0.73 6 681 (2020) 0 (2016) 145 0 0 0 1 330 467 640
2021-02-14 22:30 0.68 5 681 (2020) 0 (2016) 145 0 0 0 1 330 467 640
2021-02-14 21:30 0.70 5 681 (2020) 0 (2016) 145 0 0 0 1 330 467 640
2021-02-14 20:30 0.69 5 681 (2020) 0 (2016) 145 0 0 0 1 330 467 640
2021-02-14 19:30 0.70 5 681 (2020) 0 (2016) 145 0 0 0 1 330 467 640
2021-02-14 18:30 0.70 5 681 (2020) 0 (2016) 145 0 0 0 1 330 467 640
2021-02-14 17:30 0.69 5 681 (2020) 0 (2016) 145 0 0 0 1 330 467 640
2021-02-14 16:30 0.71 5 681 (2020) 0 (2016) 145 0 0 0 1 330 467 640
2021-02-14 15:30 0.70 5 681 (2020) 0 (2016) 145 0 0 0 1 330 467 640
2021-02-14 14:30 0.87 10 681 (2020) 0 (2016) 145 0 0 0 1 330 467 640
2021-02-14 13:30 0.66 4 681 (2020) 0 (2016) 145 0 0 0 1 330 467 640
2021-02-14 12:30 0.66 4 681 (2020) 0 (2016) 145 0 0 0 1 330 467 640
2021-02-14 11:30 0.74 6 681 (2020) 0 (2016) 145 0 0 0 1 330 467 640
2021-02-14 10:30 0.66 4 681 (2020) 0 (2016) 145 0 0 0 1 330 467 640
2021-02-14 09:30 0.72 5 681 (2020) 0 (2016) 145 0 0 0 1 330 467 640
2021-02-14 08:30 0.81 8 681 (2020) 0 (2016) 145 0 0 0 1 330 467 640
2021-02-14 07:30 0.69 5 681 (2020) 0 (2016) 145 0 0 0 1 330 467 640
2021-02-14 06:30 0.71 5 681 (2020) 0 (2016) 145 0 0 0 1 330 467 640
2021-02-14 05:30 0.72 5 681 (2020) 0 (2016) 145 0 0 0 1 330 467 640
2021-02-14 04:30 0.71 5 681 (2020) 0 (2016) 145 0 0 0 1 330 467 640
2021-02-14 03:30 0.71 5 681 (2020) 0 (2016) 145 0 0 0 1 330 467 640
2021-02-14 02:30 0.71 5 681 (2020) 0 (2016) 145 0 0 0 1 330 467 640
2021-02-14 01:30 0.72 5 681 (2020) 0 (2016) 145 0 0 0 1 330 467 640
2021-02-14 00:30 0.72 5 681 (2020) 0 (2016) 145 0 0 0 1 330 467 640
2021-02-13 23:30 0.72 5 1200 (2019) 0 (2016) 273 0 0 0 1 589 930 1200
2021-02-13 22:30 0.71 5 1200 (2019) 0 (2016) 273 0 0 0 1 589 930 1200
2021-02-13 21:30 0.72 5 1200 (2019) 0 (2016) 273 0 0 0 1 589 930 1200
2021-02-13 20:30 0.72 5 1200 (2019) 0 (2016) 273 0 0 0 1 589 930 1200
2021-02-13 19:30 0.70 5 1200 (2019) 0 (2016) 273 0 0 0 1 589 930 1200
2021-02-13 18:30 0.71 5 1200 (2019) 0 (2016) 273 0 0 0 1 589 930 1200
2021-02-13 17:30 0.64 4 1200 (2019) 0 (2016) 273 0 0 0 1 589 930 1200
2021-02-13 16:30 0.69 5 1200 (2019) 0 (2016) 273 0 0 0 1 589 930 1200
2021-02-13 15:30 0.64 4 1200 (2019) 0 (2016) 273 0 0 0 1 589 930 1200
2021-02-13 14:30 0.69 5 1200 (2019) 0 (2016) 273 0 0 0 1 589 930 1200
2021-02-13 13:30 0.72 5 1200 (2019) 0 (2016) 273 0 0 0 1 589 930 1200
2021-02-13 12:30 0.66 4 1200 (2019) 0 (2016) 273 0 0 0 1 589 930 1200
2021-02-13 11:30 0.68 5 1200 (2019) 0 (2016) 273 0 0 0 1 589 930 1200
2021-02-13 10:30 0.70 5 1200 (2019) 0 (2016) 273 0 0 0 1 589 930 1200
2021-02-13 09:30 0.72 5 1200 (2019) 0 (2016) 273 0 0 0 1 589 930 1200
2021-02-13 08:30 0.73 6 1200 (2019) 0 (2016) 273 0 0 0 1 589 930 1200
2021-02-13 07:30 0.73 6 1200 (2019) 0 (2016) 273 0 0 0 1 589 930 1200
2021-02-13 06:30 0.68 5 1200 (2019) 0 (2016) 273 0 0 0 1 589 930 1200
2021-02-13 05:30 0.73 6 1200 (2019) 0 (2016) 273 0 0 0 1 589 930 1200
2021-02-13 04:30 0.71 5 1200 (2019) 0 (2016) 273 0 0 0 1 589 930 1200
2021-02-13 03:30 0.65 4 1200 (2019) 0 (2016) 273 0 0 0 1 589 930 1200
2021-02-13 02:30 0.73 6 1200 (2019) 0 (2016) 273 0 0 0 1 589 930 1200
2021-02-13 01:30 0.73 6 1200 (2019) 0 (2016) 273 0 0 0 1 589 930 1200
2021-02-13 00:30 0.74 6 1200 (2019) 0 (2016) 273 0 0 0 1 589 930 1200
2021-02-12 23:30 0.74 6 1910 (2009) 0 (2017) 348 0 0 0 1 203 906 1910
2021-02-12 22:30 0.74 6 1910 (2009) 0 (2017) 348 0 0 0 1 203 906 1910
2021-02-12 21:30 0.74 6 1910 (2009) 0 (2017) 348 0 0 0 1 203 906 1910
2021-02-12 20:30 0.74 6 1910 (2009) 0 (2017) 348 0 0 0 1 203 906 1910
2021-02-12 19:30 0.74 6 1910 (2009) 0 (2017) 348 0 0 0 1 203 906 1910
2021-02-12 18:30 0.74 6 1910 (2009) 0 (2017) 348 0 0 0 1 203 906 1910
2021-02-12 17:30 0.74 6 1910 (2009) 0 (2017) 348 0 0 0 1 203 906 1910
2021-02-12 16:30 0.74 6 1910 (2009) 0 (2017) 348 0 0 0 1 203 906 1910
2021-02-12 15:30 0.68 5 1910 (2009) 0 (2017) 348 0 0 0 1 203 906 1910
2021-02-12 14:30 0.74 6 1910 (2009) 0 (2017) 348 0 0 0 1 203 906 1910
2021-02-12 13:30 0.71 5 1910 (2009) 0 (2017) 348 0 0 0 1 203 906 1910
2021-02-12 12:30 0.75 6 1910 (2009) 0 (2017) 348 0 0 0 1 203 906 1910
2021-02-12 11:30 0.75 6 1910 (2009) 0 (2017) 348 0 0 0 1 203 906 1910
2021-02-12 10:30 0.67 4 1910 (2009) 0 (2017) 348 0 0 0 1 203 906 1910
2021-02-12 09:30 0.73 7 1910 (2009) 0 (2017) 348 0 0 0 1 203 906 1910
2021-02-12 08:30 0.72 7 1910 (2009) 0 (2017) 348 0 0 0 1 203 906 1910
2021-02-12 07:30 0.75 8 1910 (2009) 0 (2017) 348 0 0 0 1 203 906 1910
2021-02-12 06:30 0.68 6 1910 (2009) 0 (2017) 348 0 0 0 1 203 906 1910
2021-02-12 05:30 0.75 8 1910 (2009) 0 (2017) 348 0 0 0 1 203 906 1910
2021-02-12 04:30 0.70 6 1910 (2009) 0 (2017) 348 0 0 0 1 203 906 1910
2021-02-12 03:30 0.76 8 1910 (2009) 0 (2017) 348 0 0 0 1 203 906 1910
2021-02-12 02:30 0.75 8 1910 (2009) 0 (2017) 348 0 0 0 1 203 906 1910
2021-02-12 01:30 0.76 8 1910 (2009) 0 (2017) 348 0 0 0 1 203 906 1910
2021-02-12 00:30 0.76 8 1910 (2009) 0 (2017) 348 0 0 0 1 203 906 1910
2021-02-11 23:30 0.76 8 1510 (2009) 0 (2017) 171 0 0 0 0 167 205 1130
2021-02-11 22:30 0.76 8 1510 (2009) 0 (2017) 171 0 0 0 0 167 205 1130
2021-02-11 21:30 0.76 8 1510 (2009) 0 (2017) 171 0 0 0 0 167 205 1130
2021-02-11 20:30 0.77 8 1510 (2009) 0 (2017) 171 0 0 0 0 167 205 1130
2021-02-11 19:30 0.76 8 1510 (2009) 0 (2017) 171 0 0 0 0 167 205 1130
2021-02-11 18:30 0.77 8 1510 (2009) 0 (2017) 171 0 0 0 0 167 205 1130
2021-02-11 17:30 0.77 8 1510 (2009) 0 (2017) 171 0 0 0 0 167 205 1130
2021-02-11 16:30 0.77 8 1510 (2009) 0 (2017) 171 0 0 0 0 167 205 1130
2021-02-11 15:30 0.78 9 1510 (2009) 0 (2017) 171 0 0 0 0 167 205 1130
2021-02-11 14:30 0.78 9 1510 (2009) 0 (2017) 171 0 0 0 0 167 205 1130
2021-02-11 13:30 0.78 9 1510 (2009) 0 (2017) 171 0 0 0 0 167 205 1130
2021-02-11 12:30 0.78 9 1510 (2009) 0 (2017) 171 0 0 0 0 167 205 1130
2021-02-11 11:30 0.78 9 1510 (2009) 0 (2017) 171 0 0 0 0 167 205 1130
2021-02-11 10:30 0.79 9 1510 (2009) 0 (2017) 171 0 0 0 0 167 205 1130
2021-02-11 09:30 0.79 9 1510 (2009) 0 (2017) 171 0 0 0 0 167 205 1130
2021-02-11 08:30 0.79 9 1510 (2009) 0 (2017) 171 0 0 0 0 167 205 1130
2021-02-11 07:30 0.80 9 1510 (2009) 0 (2017) 171 0 0 0 0 167 205 1130
2021-02-11 06:30 0.80 9 1510 (2009) 0 (2017) 171 0 0 0 0 167 205 1130
2021-02-11 05:30 0.80 9 1510 (2009) 0 (2017) 171 0 0 0 0 167 205 1130
2021-02-11 04:30 0.81 10 1510 (2009) 0 (2017) 171 0 0 0 0 167 205 1130
2021-02-11 03:30 0.81 10 1510 (2009) 0 (2017) 171 0 0 0 0 167 205 1130
2021-02-11 02:30 0.81 10 1510 (2009) 0 (2017) 171 0 0 0 0 167 205 1130
2021-02-11 01:30 0.82 10 1510 (2009) 0 (2017) 171 0 0 0 0 167 205 1130
2021-02-11 00:30 0.83 10 1510 (2009) 0 (2017) 171 0 0 0 0 167 205 1130
2021-02-10 23:30 0.83 10 336 (2019) 0 (2017) 59 0 0 0 0 107 133 284
2021-02-10 22:30 0.84 11 336 (2019) 0 (2017) 59 0 0 0 0 107 133 284
2021-02-10 21:30 0.84 11 336 (2019) 0 (2017) 59 0 0 0 0 107 133 284
2021-02-10 20:30 0.85 11 336 (2019) 0 (2017) 59 0 0 0 0 107 133 284
2021-02-10 19:30 0.86 12 336 (2019) 0 (2017) 59 0 0 0 0 107 133 284
2021-02-10 18:30 0.87 12 336 (2019) 0 (2017) 59 0 0 0 0 107 133 284
2021-02-10 17:30 0.85 11 336 (2019) 0 (2017) 59 0 0 0 0 107 133 284
2021-02-10 16:30 0.85 11 336 (2019) 0 (2017) 59 0 0 0 0 107 133 284
2021-02-10 15:30 0.89 13 336 (2019) 0 (2017) 59 0 0 0 0 107 133 284
2021-02-10 14:30 0.90 13 336 (2019) 0 (2017) 59 0 0 0 0 107 133 284
2021-02-10 13:30 0.88 12 336 (2019) 0 (2017) 59 0 0 0 0 107 133 284
2021-02-10 12:30 0.91 14 336 (2019) 0 (2017) 59 0 0 0 0 107 133 284
2021-02-10 11:30 0.92 14 336 (2019) 0 (2017) 59 0 0 0 0 107 133 284
2021-02-10 10:30 0.92 14 336 (2019) 0 (2017) 59 0 0 0 0 107 133 284
2021-02-10 09:30 0.94 15 336 (2019) 0 (2017) 59 0 0 0 0 107 133 284
2021-02-10 08:30 0.94 15 336 (2019) 0 (2017) 59 0 0 0 0 107 133 284
2021-02-10 07:30 0.95 16 336 (2019) 0 (2017) 59 0 0 0 0 107 133 284
2021-02-10 06:30 0.96 16 336 (2019) 0 (2017) 59 0 0 0 0 107 133 284
2021-02-10 05:30 0.97 17 336 (2019) 0 (2017) 59 0 0 0 0 107 133 284
2021-02-10 04:30 0.98 17 336 (2019) 0 (2017) 59 0 0 0 0 107 133 284
2021-02-10 03:30 0.99 18 336 (2019) 0 (2017) 59 0 0 0 0 107 133 284
2021-02-10 02:30 1.00 18 336 (2019) 0 (2017) 59 0 0 0 0 107 133 284
2021-02-10 01:30 1.01 19 336 (2019) 0 (2017) 59 0 0 0 0 107 133 284
2021-02-10 00:30 1.01 19 336 (2019) 0 (2017) 59 0 0 0 0 107 133 284
2021-02-09 23:30 1.02 19 725 (2019) 0 (2017) 93 0 0 0 0 106 166 572
2021-02-09 22:30 1.03 20 725 (2019) 0 (2017) 93 0 0 0 0 106 166 572
2021-02-09 21:30 1.04 21 725 (2019) 0 (2017) 93 0 0 0 0 106 166 572
2021-02-09 20:30 1.05 21 725 (2019) 0 (2017) 93 0 0 0 0 106 166 572
2021-02-09 19:30 1.06 22 725 (2019) 0 (2017) 93 0 0 0 0 106 166 572
2021-02-09 18:30 1.07 22 725 (2019) 0 (2017) 93 0 0 0 0 106 166 572
2021-02-09 17:30 1.08 23 725 (2019) 0 (2017) 93 0 0 0 0 106 166 572
2021-02-09 16:30 1.08 23 725 (2019) 0 (2017) 93 0 0 0 0 106 166 572
2021-02-09 15:30 1.09 24 725 (2019) 0 (2017) 93 0 0 0 0 106 166 572
2021-02-09 14:30 1.10 24 725 (2019) 0 (2017) 93 0 0 0 0 106 166 572
2021-02-09 13:30 1.11 25 725 (2019) 0 (2017) 93 0 0 0 0 106 166 572
2021-02-09 12:30 1.12 26 725 (2019) 0 (2017) 93 0 0 0 0 106 166 572
2021-02-09 11:30 1.13 26 725 (2019) 0 (2017) 93 0 0 0 0 106 166 572
2021-02-09 10:30 1.09 24 725 (2019) 0 (2017) 93 0 0 0 0 106 166 572
2021-02-09 09:30 1.14 27 725 (2019) 0 (2017) 93 0 0 0 0 106 166 572
2021-02-09 08:30 1.15 28 725 (2019) 0 (2017) 93 0 0 0 0 106 166 572
2021-02-09 07:30 1.12 26 725 (2019) 0 (2017) 93 0 0 0 0 106 166 572
2021-02-09 06:30 1.17 29 725 (2019) 0 (2017) 93 0 0 0 0 106 166 572
2021-02-09 05:30 1.16 29 725 (2019) 0 (2017) 93 0 0 0 0 106 166 572
2021-02-09 04:30 1.13 26 725 (2019) 0 (2017) 93 0 0 0 0 106 166 572
2021-02-09 03:30 1.19 31 725 (2019) 0 (2017) 93 0 0 0 0 106 166 572
2021-02-09 02:30 1.15 28 725 (2019) 0 (2017) 93 0 0 0 0 106 166 572
2021-02-09 01:30 1.15 28 725 (2019) 0 (2017) 93 0 0 0 0 106 166 572
2021-02-09 00:30 1.19 31 725 (2019) 0 (2017) 93 0 0 0 0 106 166 572
2021-02-08 23:30 1.17 29 2390 (2019) 0 (2017) 241 0 0 0 0 148 219 1750
2021-02-08 22:30 1.23 34 2390 (2019) 0 (2017) 241 0 0 0 0 148 219 1750
2021-02-08 21:30 1.20 32 2390 (2019) 0 (2017) 241 0 0 0 0 148 219 1750
2021-02-08 20:30 1.23 34 2390 (2019) 0 (2017) 241 0 0 0 0 148 219 1750
2021-02-08 19:30 1.23 34 2390 (2019) 0 (2017) 241 0 0 0 0 148 219 1750
2021-02-08 18:30 1.27 38 2390 (2019) 0 (2017) 241 0 0 0 0 148 219 1750
2021-02-08 17:30 1.27 38 2390 (2019) 0 (2017) 241 0 0 0 0 148 219 1750
2021-02-08 16:30 1.28 39 2390 (2019) 0 (2017) 241 0 0 0 0 148 219 1750
2021-02-08 15:30 1.29 40 2390 (2019) 0 (2017) 241 0 0 0 0 148 219 1750
2021-02-08 14:30 1.30 41 2390 (2019) 0 (2017) 241 0 0 0 0 148 219 1750
2021-02-08 13:30 1.29 40 2390 (2019) 0 (2017) 241 0 0 0 0 148 219 1750
2021-02-08 12:30 1.32 43 2390 (2019) 0 (2017) 241 0 0 0 0 148 219 1750
2021-02-08 11:30 1.32 43 2390 (2019) 0 (2017) 241 0 0 0 0 148 219 1750
2021-02-08 10:30 1.32 43 2390 (2019) 0 (2017) 241 0 0 0 0 148 219 1750
2021-02-08 09:30 1.34 45 2390 (2019) 0 (2017) 241 0 0 0 0 148 219 1750
2021-02-08 08:30 1.35 46 2390 (2019) 0 (2017) 241 0 0 0 0 148 219 1750
2021-02-08 07:30 1.36 47 2390 (2019) 0 (2017) 241 0 0 0 0 148 219 1750
2021-02-08 06:30 1.36 47 2390 (2019) 0 (2017) 241 0 0 0 0 148 219 1750
2021-02-08 05:30 1.38 49 2390 (2019) 0 (2017) 241 0 0 0 0 148 219 1750
2021-02-08 04:30 1.38 49 2390 (2019) 0 (2017) 241 0 0 0 0 148 219 1750
2021-02-08 03:30 1.40 52 2390 (2019) 0 (2017) 241 0 0 0 0 148 219 1750
2021-02-08 02:30 1.40 52 2390 (2019) 0 (2017) 241 0 0 0 0 148 219 1750
2021-02-08 01:30 1.41 53 2390 (2019) 0 (2017) 241 0 0 0 0 148 219 1750
2021-02-08 00:30 1.42 54 2390 (2019) 0 (2017) 241 0 0 0 0 148 219 1750
2021-02-07 23:30 1.42 54 1800 (2019) 0 (2017) 210 0 0 0 0 213 310 1380
2021-02-07 22:30 1.44 56 1800 (2019) 0 (2017) 210 0 0 0 0 213 310 1380
2021-02-07 21:30 1.44 56 1800 (2019) 0 (2017) 210 0 0 0 0 213 310 1380
2021-02-07 20:30 1.45 58 1800 (2019) 0 (2017) 210 0 0 0 0 213 310 1380
2021-02-07 19:30 1.45 58 1800 (2019) 0 (2017) 210 0 0 0 0 213 310 1380
2021-02-07 18:30 1.46 59 1800 (2019) 0 (2017) 210 0 0 0 0 213 310 1380
2021-02-07 17:30 1.46 59 1800 (2019) 0 (2017) 210 0 0 0 0 213 310 1380
2021-02-07 16:30 1.48 61 1800 (2019) 0 (2017) 210 0 0 0 0 213 310 1380
2021-02-07 15:30 1.50 64 1800 (2019) 0 (2017) 210 0 0 0 0 213 310 1380
2021-02-07 14:30 1.50 64 1800 (2019) 0 (2017) 210 0 0 0 0 213 310 1380
2021-02-07 13:30 1.50 64 1800 (2019) 0 (2017) 210 0 0 0 0 213 310 1380
2021-02-07 12:30 1.51 65 1800 (2019) 0 (2017) 210 0 0 0 0 213 310 1380
2021-02-07 10:30 1.55 71 1800 (2019) 0 (2017) 210 0 0 0 0 213 310 1380
2021-02-07 09:30 1.55 71 1800 (2019) 0 (2017) 210 0 0 0 0 213 310 1380
2021-02-07 08:30 1.56 72 1800 (2019) 0 (2017) 210 0 0 0 0 213 310 1380
2021-02-07 07:30 1.56 72 1800 (2019) 0 (2017) 210 0 0 0 0 213 310 1380
2021-02-07 06:30 1.59 77 1800 (2019) 0 (2017) 210 0 0 0 0 213 310 1380
2021-02-07 05:30 1.60 78 1800 (2019) 0 (2017) 210 0 0 0 0 213 310 1380
2021-02-07 04:30 1.61 80 1800 (2019) 0 (2017) 210 0 0 0 0 213 310 1380
2021-02-07 03:30 1.62 82 1800 (2019) 0 (2017) 210 0 0 0 0 213 310 1380
2021-02-07 02:30 1.62 82 1800 (2019) 0 (2017) 210 0 0 0 0 213 310 1380
2021-02-07 01:30 1.64 85 1800 (2019) 0 (2017) 210 0 0 0 0 213 310 1380
2021-02-07 00:30 1.65 86 1800 (2019) 0 (2017) 210 0 0 0 0 213 310 1380
2021-02-06 23:30 1.68 92 312 (2010) 0 (2017) 50 0 0 0 0 86 134 268
2021-02-06 22:30 1.68 92 312 (2010) 0 (2017) 50 0 0 0 0 86 134 268
2021-02-06 21:30 1.68 92 312 (2010) 0 (2017) 50 0 0 0 0 86 134 268
2021-02-06 20:30 1.71 97 312 (2010) 0 (2017) 50 0 0 0 0 86 134 268
2021-02-06 19:30 1.72 99 312 (2010) 0 (2017) 50 0 0 0 0 86 134 268
2021-02-06 18:30 1.73 100 312 (2010) 0 (2017) 50 0 0 0 0 86 134 268
2021-02-06 17:30 1.73 100 312 (2010) 0 (2017) 50 0 0 0 0 86 134 268
2021-02-06 16:30 1.77 108 312 (2010) 0 (2017) 50 0 0 0 0 86 134 268
2021-02-06 15:30 1.77 108 312 (2010) 0 (2017) 50 0 0 0 0 86 134 268
2021-02-06 14:30 1.79 112 312 (2010) 0 (2017) 50 0 0 0 0 86 134 268
2021-02-06 13:30 1.79 112 312 (2010) 0 (2017) 50 0 0 0 0 86 134 268
2021-02-06 12:30 1.80 114 312 (2010) 0 (2017) 50 0 0 0 0 86 134 268
2021-02-06 11:30 1.83 120 312 (2010) 0 (2017) 50 0 0 0 0 86 134 268
2021-02-06 10:30 1.83 120 312 (2010) 0 (2017) 50 0 0 0 0 86 134 268
2021-02-06 09:30 1.86 126 312 (2010) 0 (2017) 50 0 0 0 0 86 134 268
2021-02-06 08:30 1.85 124 312 (2010) 0 (2017) 50 0 0 0 0 86 134 268
2021-02-06 07:30 1.88 131 312 (2010) 0 (2017) 50 0 0 0 0 86 134 268
2021-02-06 06:30 1.88 131 312 (2010) 0 (2017) 50 0 0 0 0 86 134 268
2021-02-06 05:30 1.90 135 312 (2010) 0 (2017) 50 0 0 0 0 86 134 268
2021-02-06 04:30 1.93 142 312 (2010) 0 (2017) 50 0 0 0 0 86 134 268
2021-02-06 03:30 1.94 144 312 (2010) 0 (2017) 50 0 0 0 0 86 134 268
2021-02-06 02:30 1.94 144 312 (2010) 0 (2017) 50 0 0 0 0 86 134 268
2021-02-06 01:30 1.96 149 312 (2010) 0 (2017) 50 0 0 0 0 86 134 268
2021-02-06 00:30 1.97 152 312 (2010) 0 (2017) 50 0 0 0 0 86 134 268
2021-02-05 23:30 1.98 154 328 (2012) 0 (2017) 34 0 0 0 0 26 38 243
2021-02-05 22:30 1.99 157 328 (2012) 0 (2017) 34 0 0 0 0 26 38 243
2021-02-05 21:30 2.00 159 328 (2012) 0 (2017) 34 0 0 0 0 26 38 243
2021-02-05 20:30 2.02 164 328 (2012) 0 (2017) 34 0 0 0 0 26 38 243
2021-02-05 19:30 2.04 170 328 (2012) 0 (2017) 34 0 0 0 0 26 38 243
2021-02-05 18:30 2.03 167 328 (2012) 0 (2017) 34 0 0 0 0 26 38 243
2021-02-05 17:30 2.04 170 328 (2012) 0 (2017) 34 0 0 0 0 26 38 243
2021-02-05 16:30 2.06 175 328 (2012) 0 (2017) 34 0 0 0 0 26 38 243
2021-02-05 15:30 2.05 172 328 (2012) 0 (2017) 34 0 0 0 0 26 38 243
2021-02-05 14:30 2.05 172 328 (2012) 0 (2017) 34 0 0 0 0 26 38 243
2021-02-05 13:30 2.06 175 328 (2012) 0 (2017) 34 0 0 0 0 26 38 243
2021-02-05 12:30 2.06 175 328 (2012) 0 (2017) 34 0 0 0 0 26 38 243
2021-02-05 11:30 2.07 178 328 (2012) 0 (2017) 34 0 0 0 0 26 38 243
2021-02-05 10:30 2.08 180 328 (2012) 0 (2017) 34 0 0 0 0 26 38 243
2021-02-05 09:30 2.12 192 328 (2012) 0 (2017) 34 0 0 0 0 26 38 243
2021-02-05 08:30 2.13 195 328 (2012) 0 (2017) 34 0 0 0 0 26 38 243
2021-02-05 07:30 2.15 201 328 (2012) 0 (2017) 34 0 0 0 0 26 38 243
2021-02-05 06:30 2.15 201 328 (2012) 0 (2017) 34 0 0 0 0 26 38 243
2021-02-05 05:30 2.15 201 328 (2012) 0 (2017) 34 0 0 0 0 26 38 243
2021-02-05 04:30 2.16 204 328 (2012) 0 (2017) 34 0 0 0 0 26 38 243
2021-02-05 03:30 2.17 207 328 (2012) 0 (2017) 34 0 0 0 0 26 38 243
2021-02-05 02:30 2.18 210 328 (2012) 0 (2017) 34 0 0 0 0 26 38 243
2021-02-05 01:30 2.18 210 328 (2012) 0 (2017) 34 0 0 0 0 26 38 243
2021-02-05 00:30 2.18 210 328 (2012) 0 (2017) 34 0 0 0 0 26 38 243
2021-02-04 23:30 2.19 213 44 (2020) 0 (2017) 9 0 0 0 0 14 22 40
2021-02-04 22:30 2.22 222 44 (2020) 0 (2017) 9 0 0 0 0 14 22 40
2021-02-04 21:30 2.18 210 44 (2020) 0 (2017) 9 0 0 0 0 14 22 40
2021-02-04 20:30 2.22 222 44 (2020) 0 (2017) 9 0 0 0 0 14 22 40
2021-02-04 19:30 2.24 229 44 (2020) 0 (2017) 9 0 0 0 0 14 22 40
2021-02-04 18:30 2.25 232 44 (2020) 0 (2017) 9 0 0 0 0 14 22 40
2021-02-04 17:30 2.25 232 44 (2020) 0 (2017) 9 0 0 0 0 14 22 40
2021-02-04 16:30 2.23 226 44 (2020) 0 (2017) 9 0 0 0 0 14 22 40
2021-02-04 15:30 2.26 235 44 (2020) 0 (2017) 9 0 0 0 0 14 22 40
2021-02-04 14:30 2.25 232 44 (2020) 0 (2017) 9 0 0 0 0 14 22 40
2021-02-04 13:30 2.25 232 44 (2020) 0 (2017) 9 0 0 0 0 14 22 40
2021-02-04 12:30 2.25 232 44 (2020) 0 (2017) 9 0 0 0 0 14 22 40
2021-02-04 11:30 2.31 253 44 (2020) 0 (2017) 9 0 0 0 0 14 22 40
2021-02-04 09:30 2.33 260 44 (2020) 0 (2017) 9 0 0 0 0 14 22 40
2021-02-04 08:30 2.33 260 44 (2020) 0 (2017) 9 0 0 0 0 14 22 40
2021-02-04 07:30 2.35 267 44 (2020) 0 (2017) 9 0 0 0 0 14 22 40
2021-02-04 06:30 2.36 270 44 (2020) 0 (2017) 9 0 0 0 0 14 22 40
2021-02-04 05:30 2.36 270 44 (2020) 0 (2017) 9 0 0 0 0 14 22 40
2021-02-04 04:30 2.38 278 44 (2020) 0 (2017) 9 0 0 0 0 14 22 40
2021-02-04 03:30 2.38 278 44 (2020) 0 (2017) 9 0 0 0 0 14 22 40
2021-02-04 02:30 2.39 282 44 (2020) 0 (2017) 9 0 0 0 0 14 22 40
2021-02-04 01:30 2.39 282 44 (2020) 0 (2017) 9 0 0 0 0 14 22 40
2021-02-04 00:30 2.40 285 44 (2020) 0 (2017) 9 0 0 0 0 14 22 40
2021-02-03 23:30 2.42 293 60 (2020) 0 (2018) 11 0 0 0 1 25 35 54
2021-02-03 22:30 2.42 293 60 (2020) 0 (2018) 11 0 0 0 1 25 35 54
2021-02-03 21:30 2.44 301 60 (2020) 0 (2018) 11 0 0 0 1 25 35 54
2021-02-03 20:30 2.44 301 60 (2020) 0 (2018) 11 0 0 0 1 25 35 54
2021-02-03 19:30 2.48 317 60 (2020) 0 (2018) 11 0 0 0 1 25 35 54
2021-02-03 18:30 2.49 321 60 (2020) 0 (2018) 11 0 0 0 1 25 35 54
2021-02-03 17:30 2.48 317 60 (2020) 0 (2018) 11 0 0 0 1 25 35 54
2021-02-03 16:30 2.51 330 60 (2020) 0 (2018) 11 0 0 0 1 25 35 54
2021-02-03 15:30 2.52 334 60 (2020) 0 (2018) 11 0 0 0 1 25 35 54
2021-02-03 14:30 2.50 326 60 (2020) 0 (2018) 11 0 0 0 1 25 35 54
2021-02-03 13:30 2.54 343 60 (2020) 0 (2018) 11 0 0 0 1 25 35 54
2021-02-03 12:30 2.54 343 60 (2020) 0 (2018) 11 0 0 0 1 25 35 54
2021-02-03 11:30 2.56 351 60 (2020) 0 (2018) 11 0 0 0 1 25 35 54
2021-02-03 10:30 2.58 360 60 (2020) 0 (2018) 11 0 0 0 1 25 35 54
2021-02-03 09:30 2.59 365 60 (2020) 0 (2018) 11 0 0 0 1 25 35 54
2021-02-03 08:30 2.59 365 60 (2020) 0 (2018) 11 0 0 0 1 25 35 54
2021-02-03 07:30 2.60 369 60 (2020) 0 (2018) 11 0 0 0 1 25 35 54
2021-02-03 06:30 2.61 374 60 (2020) 0 (2018) 11 0 0 0 1 25 35 54
2021-02-03 05:30 2.63 383 60 (2020) 0 (2018) 11 0 0 0 1 25 35 54
2021-02-03 04:30 2.65 393 60 (2020) 0 (2018) 11 0 0 0 1 25 35 54
2021-02-03 03:30 2.64 388 60 (2020) 0 (2018) 11 0 0 0 1 25 35 54
2021-02-03 02:30 2.66 398 60 (2020) 0 (2018) 11 0 0 0 1 25 35 54
2021-02-03 01:30 2.67 402 60 (2020) 0 (2018) 11 0 0 0 1 25 35 54
2021-02-03 00:30 2.67 402 60 (2020) 0 (2018) 11 0 0 0 1 25 35 54
2021-02-02 23:30 2.69 412 77 (2020) 0 (2018) 17 0 0 0 1 40 58 73
2021-02-02 22:30 2.70 417 77 (2020) 0 (2018) 17 0 0 0 1 40 58 73
2021-02-02 21:30 2.72 427 77 (2020) 0 (2018) 17 0 0 0 1 40 58 73
2021-02-02 20:30 2.74 438 77 (2020) 0 (2018) 17 0 0 0 1 40 58 73
2021-02-02 19:30 2.76 448 77 (2020) 0 (2018) 17 0 0 0 1 40 58 73
2021-02-02 18:30 2.79 464 77 (2020) 0 (2018) 17 0 0 0 1 40 58 73
2021-02-02 17:30 2.79 464 77 (2020) 0 (2018) 17 0 0 0 1 40 58 73
2021-02-02 16:30 2.81 475 77 (2020) 0 (2018) 17 0 0 0 1 40 58 73
2021-02-02 15:30 2.83 486 77 (2020) 0 (2018) 17 0 0 0 1 40 58 73
2021-02-02 14:30 2.84 491 77 (2020) 0 (2018) 17 0 0 0 1 40 58 73
2021-02-02 13:30 2.85 497 77 (2020) 0 (2018) 17 0 0 0 1 40 58 73
2021-02-02 12:30 2.87 508 77 (2020) 0 (2018) 17 0 0 0 1 40 58 73
2021-02-02 11:30 2.89 520 77 (2020) 0 (2018) 17 0 0 0 1 40 58 73
2021-02-02 10:30 2.92 537 77 (2020) 0 (2018) 17 0 0 0 1 40 58 73
2021-02-02 09:30 2.92 537 77 (2020) 0 (2018) 17 0 0 0 1 40 58 73
2021-02-02 08:30 2.94 549 77 (2020) 0 (2018) 17 0 0 0 1 40 58 73
2021-02-02 07:30 2.96 562 77 (2020) 0 (2018) 17 0 0 0 1 40 58 73
2021-02-02 06:30 2.97 568 77 (2020) 0 (2018) 17 0 0 0 1 40 58 73
2021-02-02 05:30 2.99 580 77 (2020) 0 (2018) 17 0 0 0 1 40 58 73
2021-02-02 04:30 3.03 606 77 (2020) 0 (2018) 17 0 0 0 1 40 58 73
2021-02-02 03:30 3.07 632 77 (2020) 0 (2018) 17 0 0 0 1 40 58 73
2021-02-02 02:30 3.09 645 77 (2020) 0 (2018) 17 0 0 0 1 40 58 73
2021-02-02 01:30 3.12 666 77 (2020) 0 (2018) 17 0 0 0 1 40 58 73
2021-02-02 00:30 3.11 659 77 (2020) 0 (2018) 17 0 0 0 1 40 58 73
2021-02-01 23:30 3.17 701 192 (2013) 0 (2018) 31 0 0 0 1 55 81 162
2021-02-01 22:30 3.19 716 192 (2013) 0 (2018) 31 0 0 0 1 55 81 162
2021-02-01 21:30 3.22 738 192 (2013) 0 (2018) 31 0 0 0 1 55 81 162
2021-02-01 20:30 3.25 760 192 (2013) 0 (2018) 31 0 0 0 1 55 81 162
2021-02-01 19:30 3.27 776 192 (2013) 0 (2018) 31 0 0 0 1 55 81 162
2021-02-01 18:30 3.30 799 192 (2013) 0 (2018) 31 0 0 0 1 55 81 162
2021-02-01 17:30 3.34 831 192 (2013) 0 (2018) 31 0 0 0 1 55 81 162
2021-02-01 16:30 3.40 880 192 (2013) 0 (2018) 31 0 0 0 1 55 81 162
2021-02-01 15:30 3.41 889 192 (2013) 0 (2018) 31 0 0 0 1 55 81 162
2021-02-01 14:30 3.45 923 192 (2013) 0 (2018) 31 0 0 0 1 55 81 162
2021-02-01 13:30 3.49 958 192 (2013) 0 (2018) 31 0 0 0 1 55 81 162
2021-02-01 12:30 3.54 1000 192 (2013) 0 (2018) 31 0 0 0 1 55 81 162
2021-02-01 11:30 3.57 1030 192 (2013) 0 (2018) 31 0 0 0 1 55 81 162
2021-02-01 10:30 3.62 1080 192 (2013) 0 (2018) 31 0 0 0 1 55 81 162
2021-02-01 09:30 3.67 1130 192 (2013) 0 (2018) 31 0 0 0 1 55 81 162
2021-02-01 08:30 3.71 1170 192 (2013) 0 (2018) 31 0 0 0 1 55 81 162
2021-02-01 07:30 3.74 1200 192 (2013) 0 (2018) 31 0 0 0 1 55 81 162
2021-02-01 06:30 3.81 1270 192 (2013) 0 (2018) 31 0 0 0 1 55 81 162
2021-02-01 05:30 3.88 1350 192 (2013) 0 (2018) 31 0 0 0 1 55 81 162
2021-02-01 04:30 3.94 1410 192 (2013) 0 (2018) 31 0 0 0 1 55 81 162
2021-02-01 03:30 3.98 1450 192 (2013) 0 (2018) 31 0 0 0 1 55 81 162
2021-02-01 02:30 4.06 1540 192 (2013) 0 (2018) 31 0 0 0 1 55 81 162
2021-02-01 01:30 4.12 1600 192 (2013) 0 (2018) 31 0 0 0 1 55 81 162
2021-02-01 00:30 4.21 1690 192 (2013) 0 (2018) 31 0 0 0 1 55 81 162
2021-01-31 23:30 4.32 1800 844 (2013) 0 (2015) 88 0 0 0 1 74 99 622
2021-01-31 22:30 4.41 1900 844 (2013) 0 (2015) 88 0 0 0 1 74 99 622
2021-01-31 21:30 4.50 2000 844 (2013) 0 (2015) 88 0 0 0 1 74 99 622
2021-01-31 20:30 4.60 2110 844 (2013) 0 (2015) 88 0 0 0 1 74 99 622
2021-01-31 19:30 4.73 2260 844 (2013) 0 (2015) 88 0 0 0 1 74 99 622
2021-01-31 18:30 4.85 2410 844 (2013) 0 (2015) 88 0 0 0 1 74 99 622
2021-01-31 17:30 4.99 2590 844 (2013) 0 (2015) 88 0 0 0 1 74 99 622
2021-01-31 16:30 5.12 2760 844 (2013) 0 (2015) 88 0 0 0 1 74 99 622
2021-01-31 15:30 5.19 2840 844 (2013) 0 (2015) 88 0 0 0 1 74 99 622
2021-01-31 14:30 5.27 2940 844 (2013) 0 (2015) 88 0 0 0 1 74 99 622
2021-01-31 13:30 5.26 2930 844 (2013) 0 (2015) 88 0 0 0 1 74 99 622
2021-01-31 12:30 5.21 2870 844 (2013) 0 (2015) 88 0 0 0 1 74 99 622
2021-01-31 11:30 5.09 2720 844 (2013) 0 (2015) 88 0 0 0 1 74 99 622
2021-01-31 10:30 4.92 2500 844 (2013) 0 (2015) 88 0 0 0 1 74 99 622
2021-01-31 09:30 4.64 2160 844 (2013) 0 (2015) 88 0 0 0 1 74 99 622
2021-01-31 08:30 4.30 1780 844 (2013) 0 (2015) 88 0 0 0 1 74 99 622
2021-01-31 07:30 3.91 1380 844 (2013) 0 (2015) 88 0 0 0 1 74 99 622
2021-01-31 06:30 3.55 1010 844 (2013) 0 (2015) 88 0 0 0 1 74 99 622
2021-01-31 05:30 3.27 776 844 (2013) 0 (2015) 88 0 0 0 1 74 99 622
2021-01-31 04:30 3.03 606 844 (2013) 0 (2015) 88 0 0 0 1 74 99 622
2021-01-31 03:30 2.88 514 844 (2013) 0 (2015) 88 0 0 0 1 74 99 622
2021-01-31 02:30 2.72 427 844 (2013) 0 (2015) 88 0 0 0 1 74 99 622
2021-01-31 01:30 2.58 360 844 (2013) 0 (2015) 88 0 0 0 1 74 99 622
2021-01-31 00:30 2.52 334 844 (2013) 0 (2015) 88 0 0 0 1 74 99 622
2021-01-30 23:30 2.47 313 805 (2013) 0 (2015) 90 0 0 0 3 92 117 599
2021-01-30 22:30 2.41 289 805 (2013) 0 (2015) 90 0 0 0 3 92 117 599
2021-01-30 21:30 2.39 282 805 (2013) 0 (2015) 90 0 0 0 3 92 117 599
2021-01-30 20:30 2.36 270 805 (2013) 0 (2015) 90 0 0 0 3 92 117 599
2021-01-30 19:30 2.35 267 805 (2013) 0 (2015) 90 0 0 0 3 92 117 599
2021-01-30 18:30 2.35 267 805 (2013) 0 (2015) 90 0 0 0 3 92 117 599
2021-01-30 17:30 2.28 242 805 (2013) 0 (2015) 90 0 0 0 3 92 117 599
2021-01-30 16:30 2.27 239 805 (2013) 0 (2015) 90 0 0 0 3 92 117 599
2021-01-30 15:30 2.26 235 805 (2013) 0 (2015) 90 0 0 0 3 92 117 599
2021-01-30 14:30 2.26 235 805 (2013) 0 (2015) 90 0 0 0 3 92 117 599
2021-01-30 13:30 2.25 232 805 (2013) 0 (2015) 90 0 0 0 3 92 117 599
2021-01-30 12:30 2.26 235 805 (2013) 0 (2015) 90 0 0 0 3 92 117 599
2021-01-30 11:30 2.25 232 805 (2013) 0 (2015) 90 0 0 0 3 92 117 599
2021-01-30 10:30 2.25 232 805 (2013) 0 (2015) 90 0 0 0 3 92 117 599
2021-01-30 09:30 2.25 232 805 (2013) 0 (2015) 90 0 0 0 3 92 117 599
2021-01-30 08:30 2.27 239 805 (2013) 0 (2015) 90 0 0 0 3 92 117 599
2021-01-30 07:30 2.27 239 805 (2013) 0 (2015) 90 0 0 0 3 92 117 599
2021-01-30 06:30 2.27 239 805 (2013) 0 (2015) 90 0 0 0 3 92 117 599
2021-01-30 05:30 2.28 242 805 (2013) 0 (2015) 90 0 0 0 3 92 117 599
2021-01-30 04:30 2.28 242 805 (2013) 0 (2015) 90 0 0 0 3 92 117 599
2021-01-30 03:30 2.30 249 805 (2013) 0 (2015) 90 0 0 0 3 92 117 599
2021-01-30 02:30 2.31 253 805 (2013) 0 (2015) 90 0 0 0 3 92 117 599
2021-01-30 01:30 2.31 253 805 (2013) 0 (2015) 90 0 0 0 3 92 117 599
2021-01-30 00:30 2.32 256 805 (2013) 0 (2015) 90 0 0 0 3 92 117 599
2021-01-29 23:30 2.31 253 151 (2010) 0 (2013) 30 0 0 0 1 40 83 146
2021-01-29 22:30 2.34 263 151 (2010) 0 (2013) 30 0 0 0 1 40 83 146
2021-01-29 21:30 2.35 267 151 (2010) 0 (2013) 30 0 0 0 1 40 83 146
2021-01-29 20:30 2.35 267 151 (2010) 0 (2013) 30 0 0 0 1 40 83 146
2021-01-29 19:30 2.36 270 151 (2010) 0 (2013) 30 0 0 0 1 40 83 146
2021-01-29 18:30 2.39 282 151 (2010) 0 (2013) 30 0 0 0 1 40 83 146
2021-01-29 17:30 2.39 282 151 (2010) 0 (2013) 30 0 0 0 1 40 83 146
2021-01-29 16:30 2.40 285 151 (2010) 0 (2013) 30 0 0 0 1 40 83 146
2021-01-29 15:30 2.40 285 151 (2010) 0 (2013) 30 0 0 0 1 40 83 146
2021-01-29 14:30 2.41 289 151 (2010) 0 (2013) 30 0 0 0 1 40 83 146
2021-01-29 13:30 2.42 293 151 (2010) 0 (2013) 30 0 0 0 1 40 83 146
2021-01-29 12:30 2.44 301 151 (2010) 0 (2013) 30 0 0 0 1 40 83 146
2021-01-29 11:30 2.47 313 151 (2010) 0 (2013) 30 0 0 0 1 40 83 146
2021-01-29 10:30 2.47 313 151 (2010) 0 (2013) 30 0 0 0 1 40 83 146
2021-01-29 09:30 2.49 321 151 (2010) 0 (2013) 30 0 0 0 1 40 83 146
2021-01-29 08:30 2.50 326 151 (2010) 0 (2013) 30 0 0 0 1 40 83 146
2021-01-29 07:30 2.50 326 151 (2010) 0 (2013) 30 0 0 0 1 40 83 146
2021-01-29 06:30 2.52 334 151 (2010) 0 (2013) 30 0 0 0 1 40 83 146
2021-01-29 05:30 2.52 334 151 (2010) 0 (2013) 30 0 0 0 1 40 83 146
2021-01-29 04:30 2.54 343 151 (2010) 0 (2013) 30 0 0 0 1 40 83 146
2021-01-29 03:30 2.56 351 151 (2010) 0 (2013) 30 0 0 0 1 40 83 146
2021-01-29 02:30 2.57 356 151 (2010) 0 (2013) 30 0 0 0 1 40 83 146
2021-01-29 01:30 2.59 365 151 (2010) 0 (2013) 30 0 0 0 1 40 83 146
2021-01-29 00:30 2.60 369 151 (2010) 0 (2013) 30 0 0 0 1 40 83 146
2021-01-28 23:30 2.61 374 222 (2010) 0 (2013) 45 0 0 0 1 81 130 208
2021-01-28 22:30 2.63 383 222 (2010) 0 (2013) 45 0 0 0 1 81 130 208
2021-01-28 21:30 2.64 388 222 (2010) 0 (2013) 45 0 0 0 1 81 130 208
2021-01-28 20:30 2.66 398 222 (2010) 0 (2013) 45 0 0 0 1 81 130 208
2021-01-28 19:30 2.65 393 222 (2010) 0 (2013) 45 0 0 0 1 81 130 208
2021-01-28 18:30 2.68 407 222 (2010) 0 (2013) 45 0 0 0 1 81 130 208
2021-01-28 17:30 2.68 407 222 (2010) 0 (2013) 45 0 0 0 1 81 130 208
2021-01-28 16:30 2.71 422 222 (2010) 0 (2013) 45 0 0 0 1 81 130 208
2021-01-28 15:30 2.73 432 222 (2010) 0 (2013) 45 0 0 0 1 81 130 208
2021-01-28 14:30 2.73 432 222 (2010) 0 (2013) 45 0 0 0 1 81 130 208
2021-01-28 13:30 2.77 453 222 (2010) 0 (2013) 45 0 0 0 1 81 130 208
2021-01-28 12:30 2.78 458 222 (2010) 0 (2013) 45 0 0 0 1 81 130 208
2021-01-28 11:30 2.79 464 222 (2010) 0 (2013) 45 0 0 0 1 81 130 208
2021-01-28 10:30 2.82 480 222 (2010) 0 (2013) 45 0 0 0 1 81 130 208
2021-01-28 09:30 2.84 491 222 (2010) 0 (2013) 45 0 0 0 1 81 130 208
2021-01-28 08:30 2.85 497 222 (2010) 0 (2013) 45 0 0 0 1 81 130 208
2021-01-28 07:30 2.87 508 222 (2010) 0 (2013) 45 0 0 0 1 81 130 208
2021-01-28 06:30 2.90 526 222 (2010) 0 (2013) 45 0 0 0 1 81 130 208
2021-01-28 05:30 2.91 531 222 (2010) 0 (2013) 45 0 0 0 1 81 130 208
2021-01-28 04:30 2.96 562 222 (2010) 0 (2013) 45 0 0 0 1 81 130 208
2021-01-28 03:30 2.96 562 222 (2010) 0 (2013) 45 0 0 0 1 81 130 208
2021-01-28 02:30 2.99 580 222 (2010) 0 (2013) 45 0 0 0 1 81 130 208
2021-01-28 01:30 3.01 593 222 (2010) 0 (2013) 45 0 0 0 1 81 130 208
2021-01-28 00:30 3.01 593 222 (2010) 0 (2013) 45 0 0 0 1 81 130 208
2021-01-27 23:30 3.05 619 358 (2010) 0 (2013) 57 0 0 0 1 42 113 315
2021-01-27 22:30 3.08 639 358 (2010) 0 (2013) 57 0 0 0 1 42 113 315
2021-01-27 21:30 3.10 652 358 (2010) 0 (2013) 57 0 0 0 1 42 113 315
2021-01-27 20:30 3.12 666 358 (2010) 0 (2013) 57 0 0 0 1 42 113 315
2021-01-27 19:30 3.15 687 358 (2010) 0 (2013) 57 0 0 0 1 42 113 315
2021-01-27 18:30 3.19 716 358 (2010) 0 (2013) 57 0 0 0 1 42 113 315
2021-01-27 17:30 3.21 730 358 (2010) 0 (2013) 57 0 0 0 1 42 113 315
2021-01-27 16:30 3.24 753 358 (2010) 0 (2013) 57 0 0 0 1 42 113 315
2021-01-27 15:30 3.25 760 358 (2010) 0 (2013) 57 0 0 0 1 42 113 315
2021-01-27 14:30 3.29 791 358 (2010) 0 (2013) 57 0 0 0 1 42 113 315
2021-01-27 13:30 3.32 815 358 (2010) 0 (2013) 57 0 0 0 1 42 113 315
2021-01-27 12:30 3.35 839 358 (2010) 0 (2013) 57 0 0 0 1 42 113 315
2021-01-27 11:30 3.39 872 358 (2010) 0 (2013) 57 0 0 0 1 42 113 315
2021-01-27 10:30 3.42 897 358 (2010) 0 (2013) 57 0 0 0 1 42 113 315
2021-01-27 09:30 3.46 932 358 (2010) 0 (2013) 57 0 0 0 1 42 113 315
2021-01-27 08:30 3.49 958 358 (2010) 0 (2013) 57 0 0 0 1 42 113 315
2021-01-27 07:30 3.54 1000 358 (2010) 0 (2013) 57 0 0 0 1 42 113 315
2021-01-27 06:30 3.61 1070 358 (2010) 0 (2013) 57 0 0 0 1 42 113 315
2021-01-27 05:30 3.65 1110 358 (2010) 0 (2013) 57 0 0 0 1 42 113 315
2021-01-27 04:30 3.66 1120 358 (2010) 0 (2013) 57 0 0 0 1 42 113 315
2021-01-27 03:30 3.72 1180 358 (2010) 0 (2013) 57 0 0 0 1 42 113 315
2021-01-27 02:30 3.78 1240 358 (2010) 0 (2013) 57 0 0 0 1 42 113 315
2021-01-27 01:30 3.82 1280 358 (2010) 0 (2013) 57 0 0 0 1 42 113 315
2021-01-27 00:30 3.89 1360 358 (2010) 0 (2013) 57 0 0 0 1 42 113 315
2021-01-26 23:30 3.97 1440 672 (2010) 0 (2013) 87 0 0 0 1 70 147 545
2021-01-26 22:30 4.01 1480 672 (2010) 0 (2013) 87 0 0 0 1 70 147 545
2021-01-26 21:30 4.08 1560 672 (2010) 0 (2013) 87 0 0 0 1 70 147 545
2021-01-26 20:30 4.15 1630 672 (2010) 0 (2013) 87 0 0 0 1 70 147 545
2021-01-26 19:30 4.23 1710 672 (2010) 0 (2013) 87 0 0 0 1 70 147 545
2021-01-26 18:30 4.31 1790 672 (2010) 0 (2013) 87 0 0 0 1 70 147 545
2021-01-26 17:30 4.40 1890 672 (2010) 0 (2013) 87 0 0 0 1 70 147 545
2021-01-26 16:30 4.50 2000 672 (2010) 0 (2013) 87 0 0 0 1 70 147 545
2021-01-26 15:30 4.61 2130 672 (2010) 0 (2013) 87 0 0 0 1 70 147 545
2021-01-26 14:30 4.66 2180 672 (2010) 0 (2013) 87 0 0 0 1 70 147 545
2021-01-26 13:30 4.84 2400 672 (2010) 0 (2013) 87 0 0 0 1 70 147 545
2021-01-26 12:30 4.99 2590 672 (2010) 0 (2013) 87 0 0 0 1 70 147 545
2021-01-26 11:30 5.18 2830 672 (2010) 0 (2013) 87 0 0 0 1 70 147 545
2021-01-26 10:30 5.41 3110 672 (2010) 0 (2013) 87 0 0 0 1 70 147 545
2021-01-26 09:30 5.69 3460 672 (2010) 0 (2013) 87 0 0 0 1 70 147 545
2021-01-26 08:30 6.03 3910 672 (2010) 0 (2013) 87 0 0 0 1 70 147 545
2021-01-26 07:30 6.51 4510 672 (2010) 0 (2013) 87 0 0 0 1 70 147 545
2021-01-26 06:30 7.10 5300 672 (2010) 0 (2013) 87 0 0 0 1 70 147 545
2021-01-26 05:30 7.71 6150 672 (2010) 0 (2013) 87 0 0 0 1 70 147 545
2021-01-26 04:30 8.11 6750 672 (2010) 0 (2013) 87 0 0 0 1 70 147 545
2021-01-26 03:30 8.26 6990 672 (2010) 0 (2013) 87 0 0 0 1 70 147 545
2021-01-26 02:30 8.24 6960 672 (2010) 0 (2013) 87 0 0 0 1 70 147 545
2021-01-26 01:30 8.07 6680 672 (2010) 0 (2013) 87 0 0 0 1 70 147 545
2021-01-26 00:30 7.95 6500 672 (2010) 0 (2013) 87 0 0 0 1 70 147 545
2021-01-25 23:30 7.69 6120 1670 (2010) 0 (2013) 180 0 0 0 1 136 193 1240
2021-01-25 22:30 7.45 5780 1670 (2010) 0 (2013) 180 0 0 0 1 136 193 1240
2021-01-25 21:30 7.13 5340 1670 (2010) 0 (2013) 180 0 0 0 1 136 193 1240
2021-01-25 20:30 6.79 4880 1670 (2010) 0 (2013) 180 0 0 0 1 136 193 1240
2021-01-25 19:30 6.38 4340 1670 (2010) 0 (2013) 180 0 0 0 1 136 193 1240
2021-01-25 18:30 5.87 3700 1670 (2010) 0 (2013) 180 0 0 0 1 136 193 1240
2021-01-25 17:30 5.24 2900 1670 (2010) 0 (2013) 180 0 0 0 1 136 193 1240
2021-01-25 16:30 4.28 1760 1670 (2010) 0 (2013) 180 0 0 0 1 136 193 1240
2021-01-25 15:30 2.83 486 1670 (2010) 0 (2013) 180 0 0 0 1 136 193 1240
2021-01-25 14:30 2.74 438 1670 (2010) 0 (2013) 180 0 0 0 1 136 193 1240
2021-01-25 13:30 2.76 448 1670 (2010) 0 (2013) 180 0 0 0 1 136 193 1240
2021-01-25 12:30 2.86 502 1670 (2010) 0 (2013) 180 0 0 0 1 136 193 1240
2021-01-25 11:30 2.73 432 1670 (2010) 0 (2013) 180 0 0 0 1 136 193 1240
2021-01-25 10:30 2.45 305 1670 (2010) 0 (2013) 180 0 0 0 1 136 193 1240
2021-01-25 09:30 2.12 192 1670 (2010) 0 (2013) 180 0 0 0 1 136 193 1240
2021-01-25 08:30 1.79 112 1670 (2010) 0 (2013) 180 0 0 0 1 136 193 1240
2021-01-25 07:30 1.27 38 1670 (2010) 0 (2013) 180 0 0 0 1 136 193 1240
2021-01-25 06:30 0.82 10 1670 (2010) 0 (2013) 180 0 0 0 1 136 193 1240
2021-01-25 05:30 0.79 9 1670 (2010) 0 (2013) 180 0 0 0 1 136 193 1240
2021-01-25 04:30 0.72 7 1670 (2010) 0 (2013) 180 0 0 0 1 136 193 1240
2021-01-25 03:30 0.68 6 1670 (2010) 0 (2013) 180 0 0 0 1 136 193 1240
2021-01-25 02:30 0.65 5 1670 (2010) 0 (2013) 180 0 0 0 1 136 193 1240
2021-01-25 01:30 0.65 5 1670 (2010) 0 (2013) 180 0 0 0 1 136 193 1240
2021-01-25 00:30 0.66 5 1670 (2010) 0 (2013) 180 0 0 0 1 136 193 1240
2021-01-24 23:30 0.66 5 3020 (2010) 0 (2012) 296 0 0 0 1 169 181 2170
2021-01-24 22:30 0.66 5 3020 (2010) 0 (2012) 296 0 0 0 1 169 181 2170
2021-01-24 21:30 0.66 5 3020 (2010) 0 (2012) 296 0 0 0 1 169 181 2170
2021-01-24 20:30 0.66 5 3020 (2010) 0 (2012) 296 0 0 0 1 169 181 2170
2021-01-24 19:30 0.67 5 3020 (2010) 0 (2012) 296 0 0 0 1 169 181 2170
2021-01-24 18:30 0.66 5 3020 (2010) 0 (2012) 296 0 0 0 1 169 181 2170
2021-01-24 17:30 0.67 5 3020 (2010) 0 (2012) 296 0 0 0 1 169 181 2170
2021-01-24 16:30 0.66 5 3020 (2010) 0 (2012) 296 0 0 0 1 169 181 2170
2021-01-24 15:30 0.66 5 3020 (2010) 0 (2012) 296 0 0 0 1 169 181 2170
2021-01-24 14:30 0.66 5 3020 (2010) 0 (2012) 296 0 0 0 1 169 181 2170
2021-01-24 13:30 0.66 5 3020 (2010) 0 (2012) 296 0 0 0 1 169 181 2170
2021-01-24 12:30 0.65 5 3020 (2010) 0 (2012) 296 0 0 0 1 169 181 2170
2021-01-24 11:30 0.66 5 3020 (2010) 0 (2012) 296 0 0 0 1 169 181 2170
2021-01-24 10:30 0.66 5 3020 (2010) 0 (2012) 296 0 0 0 1 169 181 2170
2021-01-24 09:30 0.66 5 3020 (2010) 0 (2012) 296 0 0 0 1 169 181 2170
2021-01-24 08:30 0.66 5 3020 (2010) 0 (2012) 296 0 0 0 1 169 181 2170
2021-01-24 07:30 0.66 5 3020 (2010) 0 (2012) 296 0 0 0 1 169 181 2170
2021-01-24 06:30 0.66 5 3020 (2010) 0 (2012) 296 0 0 0 1 169 181 2170
2021-01-24 05:30 0.66 5 3020 (2010) 0 (2012) 296 0 0 0 1 169 181 2170
2021-01-24 04:30 0.66 5 3020 (2010) 0 (2012) 296 0 0 0 1 169 181 2170
2021-01-24 03:30 0.66 5 3020 (2010) 0 (2012) 296 0 0 0 1 169 181 2170
2021-01-24 02:30 0.65 5 3020 (2010) 0 (2012) 296 0 0 0 1 169 181 2170
2021-01-24 01:30 0.65 5 3020 (2010) 0 (2012) 296 0 0 0 1 169 181 2170
2021-01-24 00:30 0.65 5 3020 (2010) 0 (2012) 296 0 0 0 1 169 181 2170
2021-01-23 23:30 0.66 5 478 (2010) 0 (2013) 91 0 0 0 1 150 278 455
2021-01-23 22:30 0.66 5 478 (2010) 0 (2013) 91 0 0 0 1 150 278 455
2021-01-23 21:30 0.59 4 478 (2010) 0 (2013) 91 0 0 0 1 150 278 455
2021-01-23 20:30 0.61 4 478 (2010) 0 (2013) 91 0 0 0 1 150 278 455
2021-01-23 19:30 0.66 5 478 (2010) 0 (2013) 91 0 0 0 1 150 278 455
2021-01-23 18:30 0.66 5 478 (2010) 0 (2013) 91 0 0 0 1 150 278 455
2021-01-23 17:30 0.64 5 478 (2010) 0 (2013) 91 0 0 0 1 150 278 455
2021-01-23 16:30 0.59 4 478 (2010) 0 (2013) 91 0 0 0 1 150 278 455
2021-01-23 15:30 0.63 5 478 (2010) 0 (2013) 91 0 0 0 1 150 278 455
2021-01-23 14:30 0.63 5 478 (2010) 0 (2013) 91 0 0 0 1 150 278 455
2021-01-23 13:30 0.60 4 478 (2010) 0 (2013) 91 0 0 0 1 150 278 455
2021-01-23 12:30 0.61 4 478 (2010) 0 (2013) 91 0 0 0 1 150 278 455
2021-01-23 11:30 0.61 4 478 (2010) 0 (2013) 91 0 0 0 1 150 278 455
2021-01-23 10:30 0.62 4 478 (2010) 0 (2013) 91 0 0 0 1 150 278 455
2021-01-23 09:30 0.58 4 478 (2010) 0 (2013) 91 0 0 0 1 150 278 455
2021-01-23 08:30 0.65 5 478 (2010) 0 (2013) 91 0 0 0 1 150 278 455
2021-01-23 07:30 0.66 5 478 (2010) 0 (2013) 91 0 0 0 1 150 278 455
2021-01-23 06:30 0.66 5 478 (2010) 0 (2013) 91 0 0 0 1 150 278 455
2021-01-23 05:30 0.66 5 478 (2010) 0 (2013) 91 0 0 0 1 150 278 455
2021-01-23 04:30 0.66 5 478 (2010) 0 (2013) 91 0 0 0 1 150 278 455
2021-01-23 03:30 0.66 5 478 (2010) 0 (2013) 91 0 0 0 1 150 278 455
2021-01-23 02:30 0.66 5 478 (2010) 0 (2013) 91 0 0 0 1 150 278 455
2021-01-23 01:30 0.66 5 478 (2010) 0 (2013) 91 0 0 0 1 150 278 455
2021-01-23 00:30 0.66 5 478 (2010) 0 (2013) 91 0 0 0 1 150 278 455
2021-01-22 23:30 0.66 5 656 (2010) 0 (2013) 77 0 0 0 1 13 103 531
2021-01-22 22:30 0.66 5 656 (2010) 0 (2013) 77 0 0 0 1 13 103 531
2021-01-22 21:30 0.66 5 656 (2010) 0 (2013) 77 0 0 0 1 13 103 531
2021-01-22 20:30 0.66 5 656 (2010) 0 (2013) 77 0 0 0 1 13 103 531
2021-01-22 19:30 0.66 5 656 (2010) 0 (2013) 77 0 0 0 1 13 103 531
2021-01-22 18:30 0.66 5 656 (2010) 0 (2013) 77 0 0 0 1 13 103 531
2021-01-22 17:30 0.66 5 656 (2010) 0 (2013) 77 0 0 0 1 13 103 531
2021-01-22 16:30 0.66 5 656 (2010) 0 (2013) 77 0 0 0 1 13 103 531
2021-01-22 15:30 0.66 5 656 (2010) 0 (2013) 77 0 0 0 1 13 103 531
2021-01-22 14:30 0.66 5 656 (2010) 0 (2013) 77 0 0 0 1 13 103 531
2021-01-22 13:30 0.65 5 656 (2010) 0 (2013) 77 0 0 0 1 13 103 531
2021-01-22 12:30 0.61 4 656 (2010) 0 (2013) 77 0 0 0 1 13 103 531
2021-01-22 11:30 0.66 5 656 (2010) 0 (2013) 77 0 0 0 1 13 103 531
2021-01-22 10:30 0.62 4 656 (2010) 0 (2013) 77 0 0 0 1 13 103 531
2021-01-22 09:30 0.66 5 656 (2010) 0 (2013) 77 0 0 0 1 13 103 531
2021-01-22 08:30 0.66 5 656 (2010) 0 (2013) 77 0 0 0 1 13 103 531
2021-01-22 07:30 0.66 5 656 (2010) 0 (2013) 77 0 0 0 1 13 103 531
2021-01-22 06:30 0.66 5 656 (2010) 0 (2013) 77 0 0 0 1 13 103 531
2021-01-22 05:30 0.66 5 656 (2010) 0 (2013) 77 0 0 0 1 13 103 531
2021-01-22 04:30 0.66 5 656 (2010) 0 (2013) 77 0 0 0 1 13 103 531
2021-01-22 03:30 0.66 5 656 (2010) 0 (2013) 77 0 0 0 1 13 103 531
2021-01-22 02:30 0.66 5 656 (2010) 0 (2013) 77 0 0 0 1 13 103 531
2021-01-22 01:30 0.66 5 656 (2010) 0 (2013) 77 0 0 0 1 13 103 531
2021-01-22 00:30 0.66 5 656 (2010) 0 (2013) 77 0 0 0 1 13 103 531
2021-01-21 23:30 0.66 5 330 (2020) 0 (2013) 32 0 0 0 1 13 19 238
2021-01-21 22:30 0.66 5 330 (2020) 0 (2013) 32 0 0 0 1 13 19 238
2021-01-21 21:30 0.66 5 330 (2020) 0 (2013) 32 0 0 0 1 13 19 238
2021-01-21 20:30 0.66 5 330 (2020) 0 (2013) 32 0 0 0 1 13 19 238
2021-01-21 19:30 0.67 5 330 (2020) 0 (2013) 32 0 0 0 1 13 19 238
2021-01-21 18:30 0.67 5 330 (2020) 0 (2013) 32 0 0 0 1 13 19 238
2021-01-21 17:30 0.67 5 330 (2020) 0 (2013) 32 0 0 0 1 13 19 238
2021-01-21 16:30 0.67 5 330 (2020) 0 (2013) 32 0 0 0 1 13 19 238
2021-01-21 15:30 0.66 5 330 (2020) 0 (2013) 32 0 0 0 1 13 19 238
2021-01-21 14:30 0.66 5 330 (2020) 0 (2013) 32 0 0 0 1 13 19 238
2021-01-21 13:30 0.66 5 330 (2020) 0 (2013) 32 0 0 0 1 13 19 238
2021-01-21 12:30 0.66 5 330 (2020) 0 (2013) 32 0 0 0 1 13 19 238
2021-01-21 11:30 0.66 5 330 (2020) 0 (2013) 32 0 0 0 1 13 19 238
2021-01-21 10:30 0.66 5 330 (2020) 0 (2013) 32 0 0 0 1 13 19 238
2021-01-21 09:30 0.66 5 330 (2020) 0 (2013) 32 0 0 0 1 13 19 238
2021-01-21 08:30 0.66 5 330 (2020) 0 (2013) 32 0 0 0 1 13 19 238
2021-01-21 07:30 0.67 5 330 (2020) 0 (2013) 32 0 0 0 1 13 19 238
2021-01-21 06:30 0.66 5 330 (2020) 0 (2013) 32 0 0 0 1 13 19 238
2021-01-21 05:30 0.67 5 330 (2020) 0 (2013) 32 0 0 0 1 13 19 238
2021-01-21 04:30 0.67 5 330 (2020) 0 (2013) 32 0 0 0 1 13 19 238
2021-01-21 03:30 0.67 5 330 (2020) 0 (2013) 32 0 0 0 1 13 19 238
2021-01-21 02:30 0.66 5 330 (2020) 0 (2013) 32 0 0 0 1 13 19 238
2021-01-21 01:30 0.66 5 330 (2020) 0 (2013) 32 0 0 0 1 13 19 238
2021-01-21 00:30 0.67 5 330 (2020) 0 (2013) 32 0 0 0 1 13 19 238
2021-01-20 23:30 0.63 5 598 (2020) 0 (2013) 55 0 0 0 1 13 23 430
2021-01-20 22:30 0.67 5 598 (2020) 0 (2013) 55 0 0 0 1 13 23 430
2021-01-20 21:30 0.67 5 598 (2020) 0 (2013) 55 0 0 0 1 13 23 430
2021-01-20 20:30 0.67 5 598 (2020) 0 (2013) 55 0 0 0 1 13 23 430
2021-01-20 19:30 0.67 5 598 (2020) 0 (2013) 55 0 0 0 1 13 23 430
2021-01-20 18:30 0.67 5 598 (2020) 0 (2013) 55 0 0 0 1 13 23 430
2021-01-20 17:30 0.67 5 598 (2020) 0 (2013) 55 0 0 0 1 13 23 430
2021-01-20 16:30 0.67 5 598 (2020) 0 (2013) 55 0 0 0 1 13 23 430
2021-01-20 15:30 0.67 5 598 (2020) 0 (2013) 55 0 0 0 1 13 23 430
2021-01-20 14:30 0.60 4 598 (2020) 0 (2013) 55 0 0 0 1 13 23 430
2021-01-20 13:30 0.59 4 598 (2020) 0 (2013) 55 0 0 0 1 13 23 430
2021-01-20 12:30 0.67 5 598 (2020) 0 (2013) 55 0 0 0 1 13 23 430
2021-01-20 11:30 0.67 5 598 (2020) 0 (2013) 55 0 0 0 1 13 23 430
2021-01-20 10:30 0.67 5 598 (2020) 0 (2013) 55 0 0 0 1 13 23 430
2021-01-20 09:30 0.67 5 598 (2020) 0 (2013) 55 0 0 0 1 13 23 430
2021-01-20 08:30 0.67 5 598 (2020) 0 (2013) 55 0 0 0 1 13 23 430
2021-01-20 07:30 0.67 5 598 (2020) 0 (2013) 55 0 0 0 1 13 23 430
2021-01-20 06:30 0.67 5 598 (2020) 0 (2013) 55 0 0 0 1 13 23 430
2021-01-20 05:30 0.67 5 598 (2020) 0 (2013) 55 0 0 0 1 13 23 430
2021-01-20 04:30 0.68 6 598 (2020) 0 (2013) 55 0 0 0 1 13 23 430
2021-01-20 03:30 0.67 5 598 (2020) 0 (2013) 55 0 0 0 1 13 23 430
2021-01-20 02:30 0.67 5 598 (2020) 0 (2013) 55 0 0 0 1 13 23 430
2021-01-20 01:30 0.68 6 598 (2020) 0 (2013) 55 0 0 0 1 13 23 430
2021-01-20 00:30 0.68 6 598 (2020) 0 (2013) 55 0 0 0 1 13 23 430
2021-01-19 23:30 0.68 6 1580 (2020) 0 (2013) 141 0 0 0 2 21 38 1120
2021-01-19 22:30 0.68 6 1580 (2020) 0 (2013) 141 0 0 0 2 21 38 1120
2021-01-19 21:30 0.68 6 1580 (2020) 0 (2013) 141 0 0 0 2 21 38 1120
2021-01-19 20:30 0.68 6 1580 (2020) 0 (2013) 141 0 0 0 2 21 38 1120
2021-01-19 19:30 0.68 6 1580 (2020) 0 (2013) 141 0 0 0 2 21 38 1120
2021-01-19 18:30 0.68 6 1580 (2020) 0 (2013) 141 0 0 0 2 21 38 1120
2021-01-19 17:30 0.68 6 1580 (2020) 0 (2013) 141 0 0 0 2 21 38 1120
2021-01-19 16:30 0.68 6 1580 (2020) 0 (2013) 141 0 0 0 2 21 38 1120
2021-01-19 15:30 0.61 4 1580 (2020) 0 (2013) 141 0 0 0 2 21 38 1120
2021-01-19 14:30 0.60 4 1580 (2020) 0 (2013) 141 0 0 0 2 21 38 1120
2021-01-19 13:30 0.68 6 1580 (2020) 0 (2013) 141 0 0 0 2 21 38 1120
2021-01-19 12:30 0.61 4 1580 (2020) 0 (2013) 141 0 0 0 2 21 38 1120
2021-01-19 11:30 0.68 6 1580 (2020) 0 (2013) 141 0 0 0 2 21 38 1120
2021-01-19 10:30 0.66 5 1580 (2020) 0 (2013) 141 0 0 0 2 21 38 1120
2021-01-19 09:30 0.68 6 1580 (2020) 0 (2013) 141 0 0 0 2 21 38 1120
2021-01-19 08:30 0.68 6 1580 (2020) 0 (2013) 141 0 0 0 2 21 38 1120
2021-01-19 07:30 0.68 6 1580 (2020) 0 (2013) 141 0 0 0 2 21 38 1120
2021-01-19 06:30 0.68 6 1580 (2020) 0 (2013) 141 0 0 0 2 21 38 1120
2021-01-19 05:30 0.68 6 1580 (2020) 0 (2013) 141 0 0 0 2 21 38 1120
2021-01-19 04:30 0.68 6 1580 (2020) 0 (2013) 141 0 0 0 2 21 38 1120
2021-01-19 03:30 0.69 6 1580 (2020) 0 (2013) 141 0 0 0 2 21 38 1120
2021-01-19 02:30 0.68 6 1580 (2020) 0 (2013) 141 0 0 0 2 21 38 1120
2021-01-19 01:30 0.69 6 1580 (2020) 0 (2013) 141 0 0 0 2 21 38 1120
2021-01-19 00:30 0.69 6 1580 (2020) 0 (2013) 141 0 0 0 2 21 38 1120
2021-01-18 23:30 0.69 6 2460 (2020) 0 (2013) 224 0 0 0 2 64 93 1760
2021-01-18 22:30 0.69 6 2460 (2020) 0 (2013) 224 0 0 0 2 64 93 1760
2021-01-18 21:30 0.69 6 2460 (2020) 0 (2013) 224 0 0 0 2 64 93 1760
2021-01-18 20:30 0.69 6 2460 (2020) 0 (2013) 224 0 0 0 2 64 93 1760
2021-01-18 19:30 0.69 6 2460 (2020) 0 (2013) 224 0 0 0 2 64 93 1760
2021-01-18 18:30 0.69 6 2460 (2020) 0 (2013) 224 0 0 0 2 64 93 1760
2021-01-18 17:30 0.69 6 2460 (2020) 0 (2013) 224 0 0 0 2 64 93 1760
2021-01-18 16:30 0.69 6 2460 (2020) 0 (2013) 224 0 0 0 2 64 93 1760
2021-01-18 15:30 0.69 6 2460 (2020) 0 (2013) 224 0 0 0 2 64 93 1760
2021-01-18 14:30 0.65 5 2460 (2020) 0 (2013) 224 0 0 0 2 64 93 1760
2021-01-18 13:30 0.69 6 2460 (2020) 0 (2013) 224 0 0 0 2 64 93 1760
2021-01-18 12:30 0.69 6 2460 (2020) 0 (2013) 224 0 0 0 2 64 93 1760
2021-01-18 11:30 0.69 6 2460 (2020) 0 (2013) 224 0 0 0 2 64 93 1760
2021-01-18 10:30 0.69 6 2460 (2020) 0 (2013) 224 0 0 0 2 64 93 1760
2021-01-18 09:30 0.69 6 2460 (2020) 0 (2013) 224 0 0 0 2 64 93 1760
2021-01-18 08:30 0.69 6 2460 (2020) 0 (2013) 224 0 0 0 2 64 93 1760
2021-01-18 07:30 0.69 6 2460 (2020) 0 (2013) 224 0 0 0 2 64 93 1760
2021-01-18 06:30 0.69 6 2460 (2020) 0 (2013) 224 0 0 0 2 64 93 1760
2021-01-18 05:30 0.69 6 2460 (2020) 0 (2013) 224 0 0 0 2 64 93 1760
2021-01-18 04:30 0.69 6 2460 (2020) 0 (2013) 224 0 0 0 2 64 93 1760
2021-01-18 03:30 0.70 6 2460 (2020) 0 (2013) 224 0 0 0 2 64 93 1760
2021-01-18 02:30 0.70 6 2460 (2020) 0 (2013) 224 0 0 0 2 64 93 1760
2021-01-18 01:30 0.70 6 2460 (2020) 0 (2013) 224 0 0 0 2 64 93 1760
2021-01-18 00:30 0.69 6 2460 (2020) 0 (2013) 224 0 0 0 2 64 93 1760
2021-01-17 23:30 0.69 6 257 (2017) 0 (2013) 60 0 0 0 2 146 202 250
2021-01-17 22:30 0.69 6 257 (2017) 0 (2013) 60 0 0 0 2 146 202 250
2021-01-17 21:30 0.69 6 257 (2017) 0 (2013) 60 0 0 0 2 146 202 250
2021-01-17 20:30 0.70 6 257 (2017) 0 (2013) 60 0 0 0 2 146 202 250
2021-01-17 19:30 0.69 6 257 (2017) 0 (2013) 60 0 0 0 2 146 202 250
2021-01-17 18:30 0.70 6 257 (2017) 0 (2013) 60 0 0 0 2 146 202 250
2021-01-17 17:30 0.70 6 257 (2017) 0 (2013) 60 0 0 0 2 146 202 250
2021-01-17 16:30 0.70 6 257 (2017) 0 (2013) 60 0 0 0 2 146 202 250
2021-01-17 15:30 0.63 5 257 (2017) 0 (2013) 60 0 0 0 2 146 202 250
2021-01-17 14:30 0.70 6 257 (2017) 0 (2013) 60 0 0 0 2 146 202 250
2021-01-17 13:30 0.70 6 257 (2017) 0 (2013) 60 0 0 0 2 146 202 250
2021-01-17 12:30 0.69 6 257 (2017) 0 (2013) 60 0 0 0 2 146 202 250
2021-01-17 11:30 0.64 5 257 (2017) 0 (2013) 60 0 0 0 2 146 202 250
2021-01-17 10:30 0.69 6 257 (2017) 0 (2013) 60 0 0 0 2 146 202 250
2021-01-17 09:30 0.70 6 257 (2017) 0 (2013) 60 0 0 0 2 146 202 250
2021-01-17 08:30 0.70 6 257 (2017) 0 (2013) 60 0 0 0 2 146 202 250
2021-01-17 07:30 0.70 6 257 (2017) 0 (2013) 60 0 0 0 2 146 202 250
2021-01-17 06:30 0.70 6 257 (2017) 0 (2013) 60 0 0 0 2 146 202 250
2021-01-17 05:30 0.65 5 257 (2017) 0 (2013) 60 0 0 0 2 146 202 250
2021-01-17 04:30 0.65 5 257 (2017) 0 (2013) 60 0 0 0 2 146 202 250
2021-01-17 03:30 0.70 6 257 (2017) 0 (2013) 60 0 0 0 2 146 202 250
2021-01-17 02:30 0.70 6 257 (2017) 0 (2013) 60 0 0 0 2 146 202 250
2021-01-17 01:30 0.70 6 257 (2017) 0 (2013) 60 0 0 0 2 146 202 250
2021-01-16 22:30 0.70 6 332 (2020) 0 (2013) 85 0 0 0 2 238 299 325
2021-01-16 21:30 0.70 6 332 (2020) 0 (2013) 85 0 0 0 2 238 299 325
2021-01-16 20:30 0.70 6 332 (2020) 0 (2013) 85 0 0 0 2 238 299 325
2021-01-16 19:30 0.70 6 332 (2020) 0 (2013) 85 0 0 0 2 238 299 325
2021-01-16 18:30 0.70 6 332 (2020) 0 (2013) 85 0 0 0 2 238 299 325
2021-01-16 17:30 0.71 6 332 (2020) 0 (2013) 85 0 0 0 2 238 299 325
2021-01-16 16:30 0.71 6 332 (2020) 0 (2013) 85 0 0 0 2 238 299 325
2021-01-16 15:30 0.70 6 332 (2020) 0 (2013) 85 0 0 0 2 238 299 325
2021-01-16 14:30 0.70 6 332 (2020) 0 (2013) 85 0 0 0 2 238 299 325
2021-01-16 13:30 0.67 5 332 (2020) 0 (2013) 85 0 0 0 2 238 299 325
2021-01-16 12:30 0.71 6 332 (2020) 0 (2013) 85 0 0 0 2 238 299 325
2021-01-16 11:30 0.65 5 332 (2020) 0 (2013) 85 0 0 0 2 238 299 325
2021-01-16 10:30 0.71 6 332 (2020) 0 (2013) 85 0 0 0 2 238 299 325
2021-01-16 09:30 0.70 6 332 (2020) 0 (2013) 85 0 0 0 2 238 299 325
2021-01-16 08:30 0.71 6 332 (2020) 0 (2013) 85 0 0 0 2 238 299 325
2021-01-16 07:30 0.71 6 332 (2020) 0 (2013) 85 0 0 0 2 238 299 325
2021-01-16 06:30 0.64 5 332 (2020) 0 (2013) 85 0 0 0 2 238 299 325
2021-01-16 05:30 0.69 6 332 (2020) 0 (2013) 85 0 0 0 2 238 299 325
2021-01-16 04:30 0.71 6 332 (2020) 0 (2013) 85 0 0 0 2 238 299 325
2021-01-16 03:30 0.67 5 332 (2020) 0 (2013) 85 0 0 0 2 238 299 325
2021-01-16 02:30 0.67 5 332 (2020) 0 (2013) 85 0 0 0 2 238 299 325
2021-01-16 01:30 0.67 5 332 (2020) 0 (2013) 85 0 0 0 2 238 299 325
2021-01-16 00:30 0.72 7 332 (2020) 0 (2013) 85 0 0 0 2 238 299 325
2021-01-15 23:30 0.65 5 483 (2020) 0 (2013) 92 0 0 0 1 100 270 481
2021-01-15 22:30 0.68 6 483 (2020) 0 (2013) 92 0 0 0 1 100 270 481
2021-01-15 21:30 0.65 5 483 (2020) 0 (2013) 92 0 0 0 1 100 270 481
2021-01-15 20:30 0.68 6 483 (2020) 0 (2013) 92 0 0 0 1 100 270 481
2021-01-15 19:30 0.65 5 483 (2020) 0 (2013) 92 0 0 0 1 100 270 481
2021-01-15 18:30 0.67 5 483 (2020) 0 (2013) 92 0 0 0 1 100 270 481
2021-01-15 17:30 0.64 5 483 (2020) 0 (2013) 92 0 0 0 1 100 270 481
2021-01-15 16:30 0.66 5 483 (2020) 0 (2013) 92 0 0 0 1 100 270 481
2021-01-15 15:30 0.65 5 483 (2020) 0 (2013) 92 0 0 0 1 100 270 481
2021-01-15 14:30 0.66 5 483 (2020) 0 (2013) 92 0 0 0 1 100 270 481
2021-01-15 13:30 0.66 5 483 (2020) 0 (2013) 92 0 0 0 1 100 270 481
2021-01-15 12:30 0.68 6 483 (2020) 0 (2013) 92 0 0 0 1 100 270 481
2021-01-15 11:30 0.70 6 483 (2020) 0 (2013) 92 0 0 0 1 100 270 481
2021-01-15 10:30 0.66 5 483 (2020) 0 (2013) 92 0 0 0 1 100 270 481
2021-01-15 09:30 0.69 6 483 (2020) 0 (2013) 92 0 0 0 1 100 270 481
2021-01-15 08:30 0.71 6 483 (2020) 0 (2013) 92 0 0 0 1 100 270 481
2021-01-15 07:30 0.71 6 483 (2020) 0 (2013) 92 0 0 0 1 100 270 481
2021-01-15 06:30 0.64 5 483 (2020) 0 (2013) 92 0 0 0 1 100 270 481
2021-01-15 05:30 0.71 6 483 (2020) 0 (2013) 92 0 0 0 1 100 270 481
2021-01-15 04:30 0.72 7 483 (2020) 0 (2013) 92 0 0 0 1 100 270 481
2021-01-15 03:30 0.71 6 483 (2020) 0 (2013) 92 0 0 0 1 100 270 481
2021-01-15 02:30 0.64 5 483 (2020) 0 (2013) 92 0 0 0 1 100 270 481
2021-01-15 01:30 0.71 6 483 (2020) 0 (2013) 92 0 0 0 1 100 270 481
2021-01-15 00:30 0.71 6 483 (2020) 0 (2013) 92 0 0 0 1 100 270 481
2021-01-14 23:30 0.72 7 679 (2014) 0 (2013) 131 0 0 0 1 190 406 667
2021-01-14 22:30 0.72 7 679 (2014) 0 (2013) 131 0 0 0 1 190 406 667
2021-01-14 21:30 0.72 7 679 (2014) 0 (2013) 131 0 0 0 1 190 406 667
2021-01-14 20:30 0.71 6 679 (2014) 0 (2013) 131 0 0 0 1 190 406 667
2021-01-14 19:30 0.66 5 679 (2014) 0 (2013) 131 0 0 0 1 190 406 667
2021-01-14 18:30 0.72 7 679 (2014) 0 (2013) 131 0 0 0 1 190 406 667
2021-01-14 17:30 0.72 7 679 (2014) 0 (2013) 131 0 0 0 1 190 406 667
2021-01-14 16:30 0.70 6 679 (2014) 0 (2013) 131 0 0 0 1 190 406 667
2021-01-14 15:30 0.62 4 679 (2014) 0 (2013) 131 0 0 0 1 190 406 667
2021-01-14 14:30 0.72 7 679 (2014) 0 (2013) 131 0 0 0 1 190 406 667
2021-01-14 13:30 0.67 5 679 (2014) 0 (2013) 131 0 0 0 1 190 406 667
2021-01-14 12:30 0.69 6 679 (2014) 0 (2013) 131 0 0 0 1 190 406 667
2021-01-14 11:30 0.64 5 679 (2014) 0 (2013) 131 0 0 0 1 190 406 667
2021-01-14 10:30 0.62 4 679 (2014) 0 (2013) 131 0 0 0 1 190 406 667
2021-01-14 09:30 0.65 5 679 (2014) 0 (2013) 131 0 0 0 1 190 406 667
2021-01-14 08:30 0.71 6 679 (2014) 0 (2013) 131 0 0 0 1 190 406 667
2021-01-14 07:30 0.71 6 679 (2014) 0 (2013) 131 0 0 0 1 190 406 667
2021-01-14 06:30 0.71 6 679 (2014) 0 (2013) 131 0 0 0 1 190 406 667
2021-01-14 05:30 0.71 6 679 (2014) 0 (2013) 131 0 0 0 1 190 406 667
2021-01-14 04:30 0.71 6 679 (2014) 0 (2013) 131 0 0 0 1 190 406 667
2021-01-14 03:30 0.71 6 679 (2014) 0 (2013) 131 0 0 0 1 190 406 667
2021-01-14 02:30 0.71 6 679 (2014) 0 (2013) 131 0 0 0 1 190 406 667
2021-01-14 01:30 0.72 7 679 (2014) 0 (2013) 131 0 0 0 1 190 406 667
2021-01-14 00:30 0.71 6 679 (2014) 0 (2013) 131 0 0 0 1 190 406 667
2021-01-13 23:30 0.72 7 1090 (2020) 0 (2013) 172 0 0 0 1 42 398 1040
2021-01-13 22:30 0.71 6 1090 (2020) 0 (2013) 172 0 0 0 1 42 398 1040
2021-01-13 21:30 0.72 7 1090 (2020) 0 (2013) 172 0 0 0 1 42 398 1040
2021-01-13 20:30 0.72 7 1090 (2020) 0 (2013) 172 0 0 0 1 42 398 1040
2021-01-13 19:30 0.72 7 1090 (2020) 0 (2013) 172 0 0 0 1 42 398 1040
2021-01-13 18:30 0.72 7 1090 (2020) 0 (2013) 172 0 0 0 1 42 398 1040
2021-01-13 17:30 0.72 7 1090 (2020) 0 (2013) 172 0 0 0 1 42 398 1040
2021-01-13 16:30 0.72 7 1090 (2020) 0 (2013) 172 0 0 0 1 42 398 1040
2021-01-13 15:30 0.72 7 1090 (2020) 0 (2013) 172 0 0 0 1 42 398 1040
2021-01-13 14:30 0.72 7 1090 (2020) 0 (2013) 172 0 0 0 1 42 398 1040
2021-01-13 13:30 0.69 6 1090 (2020) 0 (2013) 172 0 0 0 1 42 398 1040
2021-01-13 12:30 0.71 6 1090 (2020) 0 (2013) 172 0 0 0 1 42 398 1040
2021-01-13 11:30 0.71 6 1090 (2020) 0 (2013) 172 0 0 0 1 42 398 1040
2021-01-13 10:30 0.72 7 1090 (2020) 0 (2013) 172 0 0 0 1 42 398 1040
2021-01-13 09:30 0.73 7 1090 (2020) 0 (2013) 172 0 0 0 1 42 398 1040
2021-01-13 08:30 0.73 7 1090 (2020) 0 (2013) 172 0 0 0 1 42 398 1040
2021-01-13 07:30 0.73 7 1090 (2020) 0 (2013) 172 0 0 0 1 42 398 1040
2021-01-13 06:30 0.73 7 1090 (2020) 0 (2013) 172 0 0 0 1 42 398 1040
2021-01-13 05:30 0.73 7 1090 (2020) 0 (2013) 172 0 0 0 1 42 398 1040
2021-01-13 04:30 0.73 7 1090 (2020) 0 (2013) 172 0 0 0 1 42 398 1040
2021-01-13 03:30 0.73 7 1090 (2020) 0 (2013) 172 0 0 0 1 42 398 1040
2021-01-13 02:30 0.73 7 1090 (2020) 0 (2013) 172 0 0 0 1 42 398 1040
2021-01-13 01:30 0.74 7 1090 (2020) 0 (2013) 172 0 0 0 1 42 398 1040
2021-01-13 00:30 0.73 7 1090 (2020) 0 (2013) 172 0 0 0 1 42 398 1040
2021-01-12 23:30 0.74 7 3730 (2020) 0 (2013) 427 0 0 0 2 8 554 3020
2021-01-12 22:30 0.74 7 3730 (2020) 0 (2013) 427 0 0 0 2 8 554 3020
2021-01-12 21:30 0.74 7 3730 (2020) 0 (2013) 427 0 0 0 2 8 554 3020
2021-01-12 20:30 0.74 7 3730 (2020) 0 (2013) 427 0 0 0 2 8 554 3020
2021-01-12 19:30 0.74 7 3730 (2020) 0 (2013) 427 0 0 0 2 8 554 3020
2021-01-12 18:30 0.74 7 3730 (2020) 0 (2013) 427 0 0 0 2 8 554 3020
2021-01-12 17:30 0.74 7 3730 (2020) 0 (2013) 427 0 0 0 2 8 554 3020
2021-01-12 16:30 0.74 7 3730 (2020) 0 (2013) 427 0 0 0 2 8 554 3020
2021-01-12 15:30 0.73 7 3730 (2020) 0 (2013) 427 0 0 0 2 8 554 3020
2021-01-12 14:30 0.69 6 3730 (2020) 0 (2013) 427 0 0 0 2 8 554 3020
2021-01-12 13:30 0.74 7 3730 (2020) 0 (2013) 427 0 0 0 2 8 554 3020
2021-01-12 12:30 0.74 7 3730 (2020) 0 (2013) 427 0 0 0 2 8 554 3020
2021-01-12 11:30 0.69 6 3730 (2020) 0 (2013) 427 0 0 0 2 8 554 3020
2021-01-12 10:30 0.74 7 3730 (2020) 0 (2013) 427 0 0 0 2 8 554 3020
2021-01-12 09:30 0.74 7 3730 (2020) 0 (2013) 427 0 0 0 2 8 554 3020
2021-01-12 08:30 0.74 7 3730 (2020) 0 (2013) 427 0 0 0 2 8 554 3020
2021-01-12 07:30 0.75 8 3730 (2020) 0 (2013) 427 0 0 0 2 8 554 3020
2021-01-12 06:30 0.75 8 3730 (2020) 0 (2013) 427 0 0 0 2 8 554 3020
2021-01-12 05:30 0.75 8 3730 (2020) 0 (2013) 427 0 0 0 2 8 554 3020
2021-01-12 04:30 0.75 8 3730 (2020) 0 (2013) 427 0 0 0 2 8 554 3020
2021-01-12 03:30 0.75 8 3730 (2020) 0 (2013) 427 0 0 0 2 8 554 3020
2021-01-12 02:30 0.75 8 3730 (2020) 0 (2013) 427 0 0 0 2 8 554 3020
2021-01-12 01:30 0.75 8 3730 (2020) 0 (2013) 427 0 0 0 2 8 554 3020
2021-01-12 00:30 0.75 8 3730 (2020) 0 (2013) 427 0 0 0 2 8 554 3020
2021-01-11 23:30 0.75 8 8880 (2020) 0 (2013) 828 0 0 0 2 17 425 6520
2021-01-11 22:30 0.75 8 8880 (2020) 0 (2013) 828 0 0 0 2 17 425 6520
2021-01-11 21:30 0.75 8 8880 (2020) 0 (2013) 828 0 0 0 2 17 425 6520
2021-01-11 20:30 0.75 8 8880 (2020) 0 (2013) 828 0 0 0 2 17 425 6520
2021-01-11 19:30 0.75 8 8880 (2020) 0 (2013) 828 0 0 0 2 17 425 6520
2021-01-11 18:30 0.76 8 8880 (2020) 0 (2013) 828 0 0 0 2 17 425 6520
2021-01-11 17:30 0.76 8 8880 (2020) 0 (2013) 828 0 0 0 2 17 425 6520
2021-01-11 16:30 0.76 8 8880 (2020) 0 (2013) 828 0 0 0 2 17 425 6520
2021-01-11 15:30 0.76 8 8880 (2020) 0 (2013) 828 0 0 0 2 17 425 6520
2021-01-11 14:30 0.76 8 8880 (2020) 0 (2013) 828 0 0 0 2 17 425 6520
2021-01-11 13:30 0.76 8 8880 (2020) 0 (2013) 828 0 0 0 2 17 425 6520
2021-01-11 12:30 0.76 8 8880 (2020) 0 (2013) 828 0 0 0 2 17 425 6520
2021-01-11 11:30 0.76 8 8880 (2020) 0 (2013) 828 0 0 0 2 17 425 6520
2021-01-11 10:30 0.76 8 8880 (2020) 0 (2013) 828 0 0 0 2 17 425 6520
2021-01-11 09:30 0.77 8 8880 (2020) 0 (2013) 828 0 0 0 2 17 425 6520
2021-01-11 08:30 0.77 8 8880 (2020) 0 (2013) 828 0 0 0 2 17 425 6520
2021-01-11 07:30 0.77 8 8880 (2020) 0 (2013) 828 0 0 0 2 17 425 6520
2021-01-11 06:30 0.74 7 8880 (2020) 0 (2013) 828 0 0 0 2 17 425 6520
2021-01-11 05:30 0.77 8 8880 (2020) 0 (2013) 828 0 0 0 2 17 425 6520
2021-01-11 04:30 0.77 8 8880 (2020) 0 (2013) 828 0 0 0 2 17 425 6520
2021-01-11 03:30 0.77 8 8880 (2020) 0 (2013) 828 0 0 0 2 17 425 6520
2021-01-11 02:30 0.78 9 8880 (2020) 0 (2013) 828 0 0 0 2 17 425 6520
2021-01-11 01:30 0.78 9 8880 (2020) 0 (2013) 828 0 0 0 2 17 425 6520
2021-01-11 00:30 0.77 8 8880 (2020) 0 (2013) 828 0 0 0 2 17 425 6520
2021-01-10 23:30 0.78 9 63 (2016) 0 (2013) 9 0 0 0 2 6 16 53
2021-01-10 22:30 0.78 9 63 (2016) 0 (2013) 9 0 0 0 2 6 16 53
2021-01-10 21:30 0.78 9 63 (2016) 0 (2013) 9 0 0 0 2 6 16 53
2021-01-10 20:30 0.78 9 63 (2016) 0 (2013) 9 0 0 0 2 6 16 53
2021-01-10 19:30 0.78 9 63 (2016) 0 (2013) 9 0 0 0 2 6 16 53
2021-01-10 18:30 0.78 9 63 (2016) 0 (2013) 9 0 0 0 2 6 16 53
2021-01-10 17:30 0.79 9 63 (2016) 0 (2013) 9 0 0 0 2 6 16 53
2021-01-10 16:30 0.79 9 63 (2016) 0 (2013) 9 0 0 0 2 6 16 53
2021-01-10 15:30 0.78 9 63 (2016) 0 (2013) 9 0 0 0 2 6 16 53
2021-01-10 14:30 0.72 7 63 (2016) 0 (2013) 9 0 0 0 2 6 16 53
2021-01-10 13:30 0.78 9 63 (2016) 0 (2013) 9 0 0 0 2 6 16 53
2021-01-10 12:30 0.79 9 63 (2016) 0 (2013) 9 0 0 0 2 6 16 53
2021-01-10 11:30 0.78 9 63 (2016) 0 (2013) 9 0 0 0 2 6 16 53
2021-01-10 10:30 0.76 8 63 (2016) 0 (2013) 9 0 0 0 2 6 16 53
2021-01-10 09:30 0.79 9 63 (2016) 0 (2013) 9 0 0 0 2 6 16 53
2021-01-10 08:30 0.80 9 63 (2016) 0 (2013) 9 0 0 0 2 6 16 53
2021-01-10 07:30 0.80 9 63 (2016) 0 (2013) 9 0 0 0 2 6 16 53
2021-01-10 06:30 0.79 9 63 (2016) 0 (2013) 9 0 0 0 2 6 16 53
2021-01-10 05:30 0.80 9 63 (2016) 0 (2013) 9 0 0 0 2 6 16 53
2021-01-10 04:30 0.80 9 63 (2016) 0 (2013) 9 0 0 0 2 6 16 53
2021-01-10 03:30 0.80 9 63 (2016) 0 (2013) 9 0 0 0 2 6 16 53
2021-01-10 02:30 0.81 10 63 (2016) 0 (2013) 9 0 0 0 2 6 16 53
2021-01-10 01:30 0.81 10 63 (2016) 0 (2013) 9 0 0 0 2 6 16 53
2021-01-09 23:30 0.82 10 31 (2016) 0 (2013) 5 0 0 0 2 4 9 26
2021-01-09 22:30 0.82 10 31 (2016) 0 (2013) 5 0 0 0 2 4 9 26
2021-01-09 20:30 0.82 10 31 (2016) 0 (2013) 5 0 0 0 2 4 9 26
2021-01-09 19:30 0.82 10 31 (2016) 0 (2013) 5 0 0 0 2 4 9 26
2021-01-09 18:30 0.83 10 31 (2016) 0 (2013) 5 0 0 0 2 4 9 26
2021-01-09 17:30 0.83 10 31 (2016) 0 (2013) 5 0 0 0 2 4 9 26
2021-01-09 16:30 0.83 10 31 (2016) 0 (2013) 5 0 0 0 2 4 9 26
2021-01-09 15:30 0.84 11 31 (2016) 0 (2013) 5 0 0 0 2 4 9 26
2021-01-09 14:30 0.84 11 31 (2016) 0 (2013) 5 0 0 0 2 4 9 26
2021-01-09 13:30 0.84 11 31 (2016) 0 (2013) 5 0 0 0 2 4 9 26
2021-01-09 12:30 0.84 11 31 (2016) 0 (2013) 5 0 0 0 2 4 9 26
2021-01-09 11:30 0.85 11 31 (2016) 0 (2013) 5 0 0 0 2 4 9 26
2021-01-09 10:30 0.86 12 31 (2016) 0 (2013) 5 0 0 0 2 4 9 26
2021-01-09 09:30 0.86 12 31 (2016) 0 (2013) 5 0 0 0 2 4 9 26
2021-01-09 08:30 0.85 11 31 (2016) 0 (2013) 5 0 0 0 2 4 9 26
2021-01-09 07:30 0.88 12 31 (2016) 0 (2013) 5 0 0 0 2 4 9 26
2021-01-09 06:30 0.88 12 31 (2016) 0 (2013) 5 0 0 0 2 4 9 26
2021-01-09 05:30 0.89 13 31 (2016) 0 (2013) 5 0 0 0 2 4 9 26
2021-01-09 04:30 0.90 13 31 (2016) 0 (2013) 5 0 0 0 2 4 9 26
2021-01-09 03:30 0.91 14 31 (2016) 0 (2013) 5 0 0 0 2 4 9 26
2021-01-09 02:30 0.91 14 31 (2016) 0 (2013) 5 0 0 0 2 4 9 26
2021-01-09 01:30 0.92 14 31 (2016) 0 (2013) 5 0 0 0 2 4 9 26
2021-01-09 00:30 0.93 15 31 (2016) 0 (2013) 5 0 0 0 2 4 9 26
2021-01-08 23:30 0.94 15 26 (2016) 0 (2013) 5 0 0 0 2 7 11 23
2021-01-08 22:30 0.95 16 26 (2016) 0 (2013) 5 0 0 0 2 7 11 23
2021-01-08 21:30 0.90 13 26 (2016) 0 (2013) 5 0 0 0 2 7 11 23
2021-01-08 20:30 0.97 17 26 (2016) 0 (2013) 5 0 0 0 2 7 11 23
2021-01-08 19:30 0.97 17 26 (2016) 0 (2013) 5 0 0 0 2 7 11 23
2021-01-08 18:30 0.96 16 26 (2016) 0 (2013) 5 0 0 0 2 7 11 23
2021-01-08 17:30 0.95 16 26 (2016) 0 (2013) 5 0 0 0 2 7 11 23
2021-01-08 16:30 0.96 16 26 (2016) 0 (2013) 5 0 0 0 2 7 11 23
2021-01-08 15:30 0.97 17 26 (2016) 0 (2013) 5 0 0 0 2 7 11 23
2021-01-08 14:30 0.98 17 26 (2016) 0 (2013) 5 0 0 0 2 7 11 23
2021-01-08 13:30 1.05 21 26 (2016) 0 (2013) 5 0 0 0 2 7 11 23
2021-01-08 12:30 1.00 18 26 (2016) 0 (2013) 5 0 0 0 2 7 11 23
2021-01-08 11:30 1.01 19 26 (2016) 0 (2013) 5 0 0 0 2 7 11 23
2021-01-08 10:30 1.03 20 26 (2016) 0 (2013) 5 0 0 0 2 7 11 23
2021-01-08 09:30 1.02 19 26 (2016) 0 (2013) 5 0 0 0 2 7 11 23
2021-01-08 08:30 1.09 24 26 (2016) 0 (2013) 5 0 0 0 2 7 11 23
2021-01-08 07:30 1.06 22 26 (2016) 0 (2013) 5 0 0 0 2 7 11 23
2021-01-08 06:30 1.07 22 26 (2016) 0 (2013) 5 0 0 0 2 7 11 23
2021-01-08 05:30 1.10 24 26 (2016) 0 (2013) 5 0 0 0 2 7 11 23
2021-01-08 04:30 1.14 27 26 (2016) 0 (2013) 5 0 0 0 2 7 11 23
2021-01-08 03:30 1.16 29 26 (2016) 0 (2013) 5 0 0 0 2 7 11 23
2021-01-08 02:30 1.17 29 26 (2016) 0 (2013) 5 0 0 0 2 7 11 23
2021-01-08 01:30 1.13 26 26 (2016) 0 (2013) 5 0 0 0 2 7 11 23
2021-01-08 00:30 1.20 32 26 (2016) 0 (2013) 5 0 0 0 2 7 11 23
2021-01-07 23:30 1.21 33 37 (2016) 0 (2013) 7 0 0 0 2 12 15 31
2021-01-07 22:30 1.20 32 37 (2016) 0 (2013) 7 0 0 0 2 12 15 31
2021-01-07 21:30 1.24 35 37 (2016) 0 (2013) 7 0 0 0 2 12 15 31
2021-01-07 20:30 1.23 34 37 (2016) 0 (2013) 7 0 0 0 2 12 15 31
2021-01-07 19:30 1.23 34 37 (2016) 0 (2013) 7 0 0 0 2 12 15 31
2021-01-07 18:30 1.27 38 37 (2016) 0 (2013) 7 0 0 0 2 12 15 31
2021-01-07 17:30 1.28 39 37 (2016) 0 (2013) 7 0 0 0 2 12 15 31
2021-01-07 16:30 1.29 40 37 (2016) 0 (2013) 7 0 0 0 2 12 15 31
2021-01-07 15:30 1.30 41 37 (2016) 0 (2013) 7 0 0 0 2 12 15 31
2021-01-07 14:30 1.30 41 37 (2016) 0 (2013) 7 0 0 0 2 12 15 31
2021-01-07 13:30 1.31 42 37 (2016) 0 (2013) 7 0 0 0 2 12 15 31
2021-01-07 12:30 1.33 44 37 (2016) 0 (2013) 7 0 0 0 2 12 15 31
2021-01-07 11:30 1.35 46 37 (2016) 0 (2013) 7 0 0 0 2 12 15 31
2021-01-07 10:30 1.36 47 37 (2016) 0 (2013) 7 0 0 0 2 12 15 31
2021-01-07 09:30 1.38 49 37 (2016) 0 (2013) 7 0 0 0 2 12 15 31
2021-01-07 08:30 1.39 50 37 (2016) 0 (2013) 7 0 0 0 2 12 15 31
2021-01-07 07:30 1.42 54 37 (2016) 0 (2013) 7 0 0 0 2 12 15 31
2021-01-07 06:30 1.43 55 37 (2016) 0 (2013) 7 0 0 0 2 12 15 31
2021-01-07 05:30 1.44 56 37 (2016) 0 (2013) 7 0 0 0 2 12 15 31
2021-01-07 04:30 1.46 59 37 (2016) 0 (2013) 7 0 0 0 2 12 15 31
2021-01-07 03:30 1.47 60 37 (2016) 0 (2013) 7 0 0 0 2 12 15 31
2021-01-07 02:30 1.48 61 37 (2016) 0 (2013) 7 0 0 0 2 12 15 31
2021-01-07 01:30 1.50 64 37 (2016) 0 (2013) 7 0 0 0 2 12 15 31
2021-01-07 00:30 1.52 67 37 (2016) 0 (2013) 7 0 0 0 2 12 15 31
2021-01-06 23:30 1.53 68 55 (2016) 0 (2013) 10 0 0 0 2 16 24 48
2021-01-06 22:30 1.54 70 55 (2016) 0 (2013) 10 0 0 0 2 16 24 48
2021-01-06 21:30 1.56 72 55 (2016) 0 (2013) 10 0 0 0 2 16 24 48
2021-01-06 20:30 1.57 74 55 (2016) 0 (2013) 10 0 0 0 2 16 24 48
2021-01-06 19:30 1.58 75 55 (2016) 0 (2013) 10 0 0 0 2 16 24 48
2021-01-06 18:30 1.61 80 55 (2016) 0 (2013) 10 0 0 0 2 16 24 48
2021-01-06 17:30 1.61 80 55 (2016) 0 (2013) 10 0 0 0 2 16 24 48
2021-01-06 16:30 1.62 82 55 (2016) 0 (2013) 10 0 0 0 2 16 24 48
2021-01-06 15:30 1.63 83 55 (2016) 0 (2013) 10 0 0 0 2 16 24 48
2021-01-06 14:30 1.66 88 55 (2016) 0 (2013) 10 0 0 0 2 16 24 48
2021-01-06 13:30 1.68 92 55 (2016) 0 (2013) 10 0 0 0 2 16 24 48
2021-01-06 12:30 1.69 93 55 (2016) 0 (2013) 10 0 0 0 2 16 24 48
2021-01-06 11:30 1.69 93 55 (2016) 0 (2013) 10 0 0 0 2 16 24 48
2021-01-06 10:30 1.72 99 55 (2016) 0 (2013) 10 0 0 0 2 16 24 48
2021-01-06 09:30 1.72 99 55 (2016) 0 (2013) 10 0 0 0 2 16 24 48
2021-01-06 08:30 1.73 100 55 (2016) 0 (2013) 10 0 0 0 2 16 24 48
2021-01-06 07:30 1.76 106 55 (2016) 0 (2013) 10 0 0 0 2 16 24 48
2021-01-06 06:30 1.76 106 55 (2016) 0 (2013) 10 0 0 0 2 16 24 48
2021-01-06 05:30 1.78 110 55 (2016) 0 (2013) 10 0 0 0 2 16 24 48
2021-01-06 04:30 1.79 112 55 (2016) 0 (2013) 10 0 0 0 2 16 24 48
2021-01-06 03:30 1.82 118 55 (2016) 0 (2013) 10 0 0 0 2 16 24 48
2021-01-06 02:30 1.81 116 55 (2016) 0 (2013) 10 0 0 0 2 16 24 48
2021-01-06 01:30 1.83 120 55 (2016) 0 (2013) 10 0 0 0 2 16 24 48
2021-01-06 00:30 1.84 122 55 (2016) 0 (2013) 10 0 0 0 2 16 24 48
2021-01-05 23:30 1.86 126 80 (2016) 0 (2013) 15 0 0 0 3 18 36 73
2021-01-05 22:30 1.88 131 80 (2016) 0 (2013) 15 0 0 0 3 18 36 73
2021-01-05 21:30 1.87 129 80 (2016) 0 (2013) 15 0 0 0 3 18 36 73
2021-01-05 20:30 1.89 133 80 (2016) 0 (2013) 15 0 0 0 3 18 36 73
2021-01-05 19:30 1.92 140 80 (2016) 0 (2013) 15 0 0 0 3 18 36 73
2021-01-05 18:30 1.91 137 80 (2016) 0 (2013) 15 0 0 0 3 18 36 73
2021-01-05 17:30 1.93 142 80 (2016) 0 (2013) 15 0 0 0 3 18 36 73
2021-01-05 16:30 1.95 147 80 (2016) 0 (2013) 15 0 0 0 3 18 36 73
2021-01-05 15:30 1.97 152 80 (2016) 0 (2013) 15 0 0 0 3 18 36 73
2021-01-05 14:30 1.96 149 80 (2016) 0 (2013) 15 0 0 0 3 18 36 73
2021-01-05 13:30 1.98 154 80 (2016) 0 (2013) 15 0 0 0 3 18 36 73
2021-01-05 12:30 1.98 154 80 (2016) 0 (2013) 15 0 0 0 3 18 36 73
2021-01-05 11:30 2.02 164 80 (2016) 0 (2013) 15 0 0 0 3 18 36 73
2021-01-05 10:30 2.02 164 80 (2016) 0 (2013) 15 0 0 0 3 18 36 73
2021-01-05 09:30 2.02 164 80 (2016) 0 (2013) 15 0 0 0 3 18 36 73
2021-01-05 08:30 2.02 164 80 (2016) 0 (2013) 15 0 0 0 3 18 36 73
2021-01-05 07:30 2.03 167 80 (2016) 0 (2013) 15 0 0 0 3 18 36 73
2021-01-05 06:30 2.05 172 80 (2016) 0 (2013) 15 0 0 0 3 18 36 73
2021-01-05 05:30 2.07 178 80 (2016) 0 (2013) 15 0 0 0 3 18 36 73
2021-01-05 04:30 2.05 172 80 (2016) 0 (2013) 15 0 0 0 3 18 36 73
2021-01-05 03:30 2.04 170 80 (2016) 0 (2013) 15 0 0 0 3 18 36 73
2021-01-05 02:30 2.05 172 80 (2016) 0 (2013) 15 0 0 0 3 18 36 73
2021-01-05 01:30 2.03 167 80 (2016) 0 (2013) 15 0 0 0 3 18 36 73
2021-01-05 00:30 2.02 164 80 (2016) 0 (2013) 15 0 0 0 3 18 36 73
2021-01-04 23:30 2.02 164 118 (2016) 0 (2013) 22 0 0 0 4 18 51 112
2021-01-04 22:30 2.00 159 118 (2016) 0 (2013) 22 0 0 0 4 18 51 112
2021-01-04 21:30 1.97 152 118 (2016) 0 (2013) 22 0 0 0 4 18 51 112
2021-01-04 20:30 1.98 154 118 (2016) 0 (2013) 22 0 0 0 4 18 51 112
2021-01-04 19:30 1.97 152 118 (2016) 0 (2013) 22 0 0 0 4 18 51 112
2021-01-04 18:30 1.94 144 118 (2016) 0 (2013) 22 0 0 0 4 18 51 112
2021-01-04 17:30 1.91 137 118 (2016) 0 (2013) 22 0 0 0 4 18 51 112
2021-01-04 16:30 1.91 137 118 (2016) 0 (2013) 22 0 0 0 4 18 51 112
2021-01-04 15:30 1.89 133 118 (2016) 0 (2013) 22 0 0 0 4 18 51 112
2021-01-04 14:30 1.90 135 118 (2016) 0 (2013) 22 0 0 0 4 18 51 112
2021-01-04 13:30 1.87 129 118 (2016) 0 (2013) 22 0 0 0 4 18 51 112
2021-01-04 12:30 1.88 131 118 (2016) 0 (2013) 22 0 0 0 4 18 51 112
2021-01-04 11:30 1.86 126 118 (2016) 0 (2013) 22 0 0 0 4 18 51 112
2021-01-04 10:30 1.88 131 118 (2016) 0 (2013) 22 0 0 0 4 18 51 112
2021-01-04 09:30 1.87 129 118 (2016) 0 (2013) 22 0 0 0 4 18 51 112
2021-01-04 08:30 1.90 135 118 (2016) 0 (2013) 22 0 0 0 4 18 51 112
2021-01-04 07:30 1.88 131 118 (2016) 0 (2013) 22 0 0 0 4 18 51 112
2021-01-04 06:30 1.89 133 118 (2016) 0 (2013) 22 0 0 0 4 18 51 112
2021-01-04 05:30 1.91 137 118 (2016) 0 (2013) 22 0 0 0 4 18 51 112
2021-01-04 04:30 1.92 140 118 (2016) 0 (2013) 22 0 0 0 4 18 51 112
2021-01-04 03:30 1.94 144 118 (2016) 0 (2013) 22 0 0 0 4 18 51 112
2021-01-04 02:30 1.95 147 118 (2016) 0 (2013) 22 0 0 0 4 18 51 112
2021-01-04 01:30 1.96 149 118 (2016) 0 (2013) 22 0 0 0 4 18 51 112
2021-01-04 00:30 1.97 152 118 (2016) 0 (2013) 22 0 0 0 4 18 51 112
2021-01-03 23:30 1.99 157 195 (2016) 0 (2013) 38 0 0 0 4 34 94 190
2021-01-03 22:30 2.00 159 195 (2016) 0 (2013) 38 0 0 0 4 34 94 190
2021-01-03 21:30 1.99 157 195 (2016) 0 (2013) 38 0 0 0 4 34 94 190
2021-01-03 20:30 1.99 157 195 (2016) 0 (2013) 38 0 0 0 4 34 94 190
2021-01-03 19:30 1.99 157 195 (2016) 0 (2013) 38 0 0 0 4 34 94 190
2021-01-03 18:30 2.03 167 195 (2016) 0 (2013) 38 0 0 0 4 34 94 190
2021-01-03 17:30 2.03 167 195 (2016) 0 (2013) 38 0 0 0 4 34 94 190
2021-01-03 16:30 2.02 164 195 (2016) 0 (2013) 38 0 0 0 4 34 94 190
2021-01-03 15:30 2.03 167 195 (2016) 0 (2013) 38 0 0 0 4 34 94 190
2021-01-03 14:30 2.04 170 195 (2016) 0 (2013) 38 0 0 0 4 34 94 190
2021-01-03 13:30 1.94 144 195 (2016) 0 (2013) 38 0 0 0 4 34 94 190
2021-01-03 12:30 1.40 52 195 (2016) 0 (2013) 38 0 0 0 4 34 94 190
2021-01-03 11:30 0.75 8 195 (2016) 0 (2013) 38 0 0 0 4 34 94 190
2021-01-03 10:30 0.75 8 195 (2016) 0 (2013) 38 0 0 0 4 34 94 190
2021-01-03 09:30 0.75 8 195 (2016) 0 (2013) 38 0 0 0 4 34 94 190
2021-01-03 08:30 0.75 8 195 (2016) 0 (2013) 38 0 0 0 4 34 94 190
2021-01-03 07:30 0.75 8 195 (2016) 0 (2013) 38 0 0 0 4 34 94 190
2021-01-03 06:30 0.75 8 195 (2016) 0 (2013) 38 0 0 0 4 34 94 190
2021-01-03 05:30 0.75 8 195 (2016) 0 (2013) 38 0 0 0 4 34 94 190
2021-01-03 04:30 0.75 8 195 (2016) 0 (2013) 38 0 0 0 4 34 94 190
2021-01-03 03:30 0.75 8 195 (2016) 0 (2013) 38 0 0 0 4 34 94 190
2021-01-03 02:30 0.75 8 195 (2016) 0 (2013) 38 0 0 0 4 34 94